<?xml version="1.0" encoding="UTF-8" standalone="no" ?>
<gpx xmlns="http://www.topografix.com/GPX/1/1" xmlns:xsi="http://www.w3.org/2001/XMLSchema-instance" xsi:schemaLocation="http://www.topografix.com/GPX/1/1 http://www.topografix.com/GPX/1/1/gpx.xsd" version="1.1" creator="VisuGPX - https://www.visugpx.com">
  <metadata>
    <name>Plan des Noves - Blaquieres</name>
    <desc><![CDATA[Au départ de Cagnes, montée par la route du Col de Vence jusqu\'au Plan des Noves, descente par les Blaquieres. Tout ça au coucher de soleil (magnifique!).
Retour à la dernière limite avant la nuit]]></desc>
  </metadata>
  <trk>
    <name><![CDATA[56]]></name>
    <trkseg>
      <trkpt lat="43.68133" lon="7.13935">
        <ele>141</ele>
        <time>2010-09-08T16:06:59Z</time>
      </trkpt>
      <trkpt lat="43.68135" lon="7.13933">
        <ele>141</ele>
        <time>2010-09-08T16:07:06Z</time>
      </trkpt>
      <trkpt lat="43.68145" lon="7.13926">
        <ele>142</ele>
        <time>2010-09-08T16:07:12Z</time>
      </trkpt>
      <trkpt lat="43.68155" lon="7.13923">
        <ele>143</ele>
        <time>2010-09-08T16:07:16Z</time>
      </trkpt>
      <trkpt lat="43.68166" lon="7.13925">
        <ele>144</ele>
        <time>2010-09-08T16:07:21Z</time>
      </trkpt>
      <trkpt lat="43.68184" lon="7.13927">
        <ele>144</ele>
        <time>2010-09-08T16:07:25Z</time>
      </trkpt>
      <trkpt lat="43.68197" lon="7.13925">
        <ele>144</ele>
        <time>2010-09-08T16:07:27Z</time>
      </trkpt>
      <trkpt lat="43.68223" lon="7.13907">
        <ele>140</ele>
        <time>2010-09-08T16:07:31Z</time>
      </trkpt>
      <trkpt lat="43.68235" lon="7.13892">
        <ele>139</ele>
        <time>2010-09-08T16:07:33Z</time>
      </trkpt>
      <trkpt lat="43.68248" lon="7.13872">
        <ele>137</ele>
        <time>2010-09-08T16:07:36Z</time>
      </trkpt>
      <trkpt lat="43.68263" lon="7.13853">
        <ele>134</ele>
        <time>2010-09-08T16:07:39Z</time>
      </trkpt>
      <trkpt lat="43.68291" lon="7.13832">
        <ele>127</ele>
        <time>2010-09-08T16:07:43Z</time>
      </trkpt>
      <trkpt lat="43.68336" lon="7.13792">
        <ele>122</ele>
        <time>2010-09-08T16:07:49Z</time>
      </trkpt>
      <trkpt lat="43.68353" lon="7.13777">
        <ele>120</ele>
        <time>2010-09-08T16:07:51Z</time>
      </trkpt>
      <trkpt lat="43.68373" lon="7.13735">
        <ele>119</ele>
        <time>2010-09-08T16:07:54Z</time>
      </trkpt>
      <trkpt lat="43.68411" lon="7.1368">
        <ele>121</ele>
        <time>2010-09-08T16:07:59Z</time>
      </trkpt>
      <trkpt lat="43.68434" lon="7.1365">
        <ele>126</ele>
        <time>2010-09-08T16:08:03Z</time>
      </trkpt>
      <trkpt lat="43.68447" lon="7.13633">
        <ele>128</ele>
        <time>2010-09-08T16:08:07Z</time>
      </trkpt>
      <trkpt lat="43.68456" lon="7.13623">
        <ele>129</ele>
        <time>2010-09-08T16:08:11Z</time>
      </trkpt>
      <trkpt lat="43.68472" lon="7.13611">
        <ele>130</ele>
        <time>2010-09-08T16:08:18Z</time>
      </trkpt>
      <trkpt lat="43.68483" lon="7.13607">
        <ele>131</ele>
        <time>2010-09-08T16:08:23Z</time>
      </trkpt>
      <trkpt lat="43.68496" lon="7.13608">
        <ele>131</ele>
        <time>2010-09-08T16:08:29Z</time>
      </trkpt>
      <trkpt lat="43.68508" lon="7.13609">
        <ele>134</ele>
        <time>2010-09-08T16:08:35Z</time>
      </trkpt>
      <trkpt lat="43.68523" lon="7.13607">
        <ele>134</ele>
        <time>2010-09-08T16:08:42Z</time>
      </trkpt>
      <trkpt lat="43.68537" lon="7.13602">
        <ele>134</ele>
        <time>2010-09-08T16:08:49Z</time>
      </trkpt>
      <trkpt lat="43.68549" lon="7.13599">
        <ele>135</ele>
        <time>2010-09-08T16:08:54Z</time>
      </trkpt>
      <trkpt lat="43.68561" lon="7.13596">
        <ele>136</ele>
        <time>2010-09-08T16:08:59Z</time>
      </trkpt>
      <trkpt lat="43.68573" lon="7.13593">
        <ele>139</ele>
        <time>2010-09-08T16:09:05Z</time>
      </trkpt>
      <trkpt lat="43.68588" lon="7.13586">
        <ele>141</ele>
        <time>2010-09-08T16:09:11Z</time>
      </trkpt>
      <trkpt lat="43.68603" lon="7.13571">
        <ele>144</ele>
        <time>2010-09-08T16:09:17Z</time>
      </trkpt>
      <trkpt lat="43.68613" lon="7.13549">
        <ele>145</ele>
        <time>2010-09-08T16:09:24Z</time>
      </trkpt>
      <trkpt lat="43.68622" lon="7.13526">
        <ele>147</ele>
        <time>2010-09-08T16:09:31Z</time>
      </trkpt>
      <trkpt lat="43.68634" lon="7.13497">
        <ele>153</ele>
        <time>2010-09-08T16:09:39Z</time>
      </trkpt>
      <trkpt lat="43.68649" lon="7.13467">
        <ele>153</ele>
        <time>2010-09-08T16:09:48Z</time>
      </trkpt>
      <trkpt lat="43.68654" lon="7.13439">
        <ele>155</ele>
        <time>2010-09-08T16:09:56Z</time>
      </trkpt>
      <trkpt lat="43.68658" lon="7.13405">
        <ele>158</ele>
        <time>2010-09-08T16:10:06Z</time>
      </trkpt>
      <trkpt lat="43.6866" lon="7.13382">
        <ele>160</ele>
        <time>2010-09-08T16:10:12Z</time>
      </trkpt>
      <trkpt lat="43.68671" lon="7.13356">
        <ele>160</ele>
        <time>2010-09-08T16:10:20Z</time>
      </trkpt>
      <trkpt lat="43.68686" lon="7.13332">
        <ele>163</ele>
        <time>2010-09-08T16:10:28Z</time>
      </trkpt>
      <trkpt lat="43.68701" lon="7.13309">
        <ele>163</ele>
        <time>2010-09-08T16:10:35Z</time>
      </trkpt>
      <trkpt lat="43.68718" lon="7.13288">
        <ele>163</ele>
        <time>2010-09-08T16:10:42Z</time>
      </trkpt>
      <trkpt lat="43.68721" lon="7.13285">
        <ele>163</ele>
        <time>2010-09-08T16:10:44Z</time>
      </trkpt>
      <trkpt lat="43.68727" lon="7.13279">
        <ele>163</ele>
        <time>2010-09-08T16:10:48Z</time>
      </trkpt>
      <trkpt lat="43.68748" lon="7.13263">
        <ele>164</ele>
        <time>2010-09-08T16:10:54Z</time>
      </trkpt>
      <trkpt lat="43.68772" lon="7.13254">
        <ele>167</ele>
        <time>2010-09-08T16:11:00Z</time>
      </trkpt>
      <trkpt lat="43.68804" lon="7.13241">
        <ele>167</ele>
        <time>2010-09-08T16:11:08Z</time>
      </trkpt>
      <trkpt lat="43.68828" lon="7.13229">
        <ele>168</ele>
        <time>2010-09-08T16:11:16Z</time>
      </trkpt>
      <trkpt lat="43.68847" lon="7.13219">
        <ele>169</ele>
        <time>2010-09-08T16:11:23Z</time>
      </trkpt>
      <trkpt lat="43.68866" lon="7.13212">
        <ele>168</ele>
        <time>2010-09-08T16:11:29Z</time>
      </trkpt>
      <trkpt lat="43.68886" lon="7.13211">
        <ele>168</ele>
        <time>2010-09-08T16:11:34Z</time>
      </trkpt>
      <trkpt lat="43.6892" lon="7.13213">
        <ele>166</ele>
        <time>2010-09-08T16:11:39Z</time>
      </trkpt>
      <trkpt lat="43.68971" lon="7.13213">
        <ele>165</ele>
        <time>2010-09-08T16:11:45Z</time>
      </trkpt>
      <trkpt lat="43.6899" lon="7.13209">
        <ele>165</ele>
        <time>2010-09-08T16:11:48Z</time>
      </trkpt>
      <trkpt lat="43.69014" lon="7.13203">
        <ele>167</ele>
        <time>2010-09-08T16:11:53Z</time>
      </trkpt>
      <trkpt lat="43.69036" lon="7.13182">
        <ele>167</ele>
        <time>2010-09-08T16:11:59Z</time>
      </trkpt>
      <trkpt lat="43.69062" lon="7.13147">
        <ele>164</ele>
        <time>2010-09-08T16:12:08Z</time>
      </trkpt>
      <trkpt lat="43.69084" lon="7.13127">
        <ele>167</ele>
        <time>2010-09-08T16:12:15Z</time>
      </trkpt>
      <trkpt lat="43.69108" lon="7.13116">
        <ele>166</ele>
        <time>2010-09-08T16:12:20Z</time>
      </trkpt>
      <trkpt lat="43.6915" lon="7.13103">
        <ele>167</ele>
        <time>2010-09-08T16:12:27Z</time>
      </trkpt>
      <trkpt lat="43.69191" lon="7.13091">
        <ele>169</ele>
        <time>2010-09-08T16:12:34Z</time>
      </trkpt>
      <trkpt lat="43.69207" lon="7.13087">
        <ele>169</ele>
        <time>2010-09-08T16:12:37Z</time>
      </trkpt>
      <trkpt lat="43.69237" lon="7.13086">
        <ele>170</ele>
        <time>2010-09-08T16:12:44Z</time>
      </trkpt>
      <trkpt lat="43.69262" lon="7.13087">
        <ele>172</ele>
        <time>2010-09-08T16:12:52Z</time>
      </trkpt>
      <trkpt lat="43.69282" lon="7.13092">
        <ele>173</ele>
        <time>2010-09-08T16:12:59Z</time>
      </trkpt>
      <trkpt lat="43.69304" lon="7.13098">
        <ele>174</ele>
        <time>2010-09-08T16:13:06Z</time>
      </trkpt>
      <trkpt lat="43.69321" lon="7.13105">
        <ele>174</ele>
        <time>2010-09-08T16:13:12Z</time>
      </trkpt>
      <trkpt lat="43.69346" lon="7.13112">
        <ele>175</ele>
        <time>2010-09-08T16:13:18Z</time>
      </trkpt>
      <trkpt lat="43.69366" lon="7.13117">
        <ele>175</ele>
        <time>2010-09-08T16:13:21Z</time>
      </trkpt>
      <trkpt lat="43.69395" lon="7.13124">
        <ele>174</ele>
        <time>2010-09-08T16:13:25Z</time>
      </trkpt>
      <trkpt lat="43.69427" lon="7.13112">
        <ele>173</ele>
        <time>2010-09-08T16:13:29Z</time>
      </trkpt>
      <trkpt lat="43.69462" lon="7.13098">
        <ele>174</ele>
        <time>2010-09-08T16:13:34Z</time>
      </trkpt>
      <trkpt lat="43.69479" lon="7.13092">
        <ele>175</ele>
        <time>2010-09-08T16:13:37Z</time>
      </trkpt>
      <trkpt lat="43.69507" lon="7.13084">
        <ele>177</ele>
        <time>2010-09-08T16:13:44Z</time>
      </trkpt>
      <trkpt lat="43.69514" lon="7.13082">
        <ele>175</ele>
        <time>2010-09-08T16:13:46Z</time>
      </trkpt>
      <trkpt lat="43.69543" lon="7.13076">
        <ele>174</ele>
        <time>2010-09-08T16:13:54Z</time>
      </trkpt>
      <trkpt lat="43.69572" lon="7.1307">
        <ele>177</ele>
        <time>2010-09-08T16:14:02Z</time>
      </trkpt>
      <trkpt lat="43.69595" lon="7.13072">
        <ele>177</ele>
        <time>2010-09-08T16:14:07Z</time>
      </trkpt>
      <trkpt lat="43.69611" lon="7.13072">
        <ele>175</ele>
        <time>2010-09-08T16:14:10Z</time>
      </trkpt>
      <trkpt lat="43.69653" lon="7.13065">
        <ele>173</ele>
        <time>2010-09-08T16:14:16Z</time>
      </trkpt>
      <trkpt lat="43.69704" lon="7.13054">
        <ele>170</ele>
        <time>2010-09-08T16:14:22Z</time>
      </trkpt>
      <trkpt lat="43.69754" lon="7.13045">
        <ele>170</ele>
        <time>2010-09-08T16:14:29Z</time>
      </trkpt>
      <trkpt lat="43.69787" lon="7.13038">
        <ele>171</ele>
        <time>2010-09-08T16:14:35Z</time>
      </trkpt>
      <trkpt lat="43.69792" lon="7.13037">
        <ele>171</ele>
        <time>2010-09-08T16:14:36Z</time>
      </trkpt>
      <trkpt lat="43.69801" lon="7.13036">
        <ele>172</ele>
        <time>2010-09-08T16:14:38Z</time>
      </trkpt>
      <trkpt lat="43.69817" lon="7.13036">
        <ele>172</ele>
        <time>2010-09-08T16:14:41Z</time>
      </trkpt>
      <trkpt lat="43.69868" lon="7.13052">
        <ele>176</ele>
        <time>2010-09-08T16:14:50Z</time>
      </trkpt>
      <trkpt lat="43.69884" lon="7.13057">
        <ele>177</ele>
        <time>2010-09-08T16:14:54Z</time>
      </trkpt>
      <trkpt lat="43.6991" lon="7.13071">
        <ele>179</ele>
        <time>2010-09-08T16:15:02Z</time>
      </trkpt>
      <trkpt lat="43.69937" lon="7.13084">
        <ele>178</ele>
        <time>2010-09-08T16:15:10Z</time>
      </trkpt>
      <trkpt lat="43.69952" lon="7.1309">
        <ele>177</ele>
        <time>2010-09-08T16:15:15Z</time>
      </trkpt>
      <trkpt lat="43.6997" lon="7.13092">
        <ele>178</ele>
        <time>2010-09-08T16:15:20Z</time>
      </trkpt>
      <trkpt lat="43.69992" lon="7.13088">
        <ele>183</ele>
        <time>2010-09-08T16:15:25Z</time>
      </trkpt>
      <trkpt lat="43.69997" lon="7.13087">
        <ele>185</ele>
        <time>2010-09-08T16:15:26Z</time>
      </trkpt>
      <trkpt lat="43.70012" lon="7.13085">
        <ele>184</ele>
        <time>2010-09-08T16:15:29Z</time>
      </trkpt>
      <trkpt lat="43.7004" lon="7.131">
        <ele>181</ele>
        <time>2010-09-08T16:15:33Z</time>
      </trkpt>
      <trkpt lat="43.7008" lon="7.13144">
        <ele>180</ele>
        <time>2010-09-08T16:15:39Z</time>
      </trkpt>
      <trkpt lat="43.70109" lon="7.13167">
        <ele>183</ele>
        <time>2010-09-08T16:15:44Z</time>
      </trkpt>
      <trkpt lat="43.70119" lon="7.13178">
        <ele>184</ele>
        <time>2010-09-08T16:15:46Z</time>
      </trkpt>
      <trkpt lat="43.70165" lon="7.13234">
        <ele>185</ele>
        <time>2010-09-08T16:15:55Z</time>
      </trkpt>
      <trkpt lat="43.70171" lon="7.13239">
        <ele>188</ele>
        <time>2010-09-08T16:15:56Z</time>
      </trkpt>
      <trkpt lat="43.70206" lon="7.13253">
        <ele>183</ele>
        <time>2010-09-08T16:16:01Z</time>
      </trkpt>
      <trkpt lat="43.70269" lon="7.13254">
        <ele>182</ele>
        <time>2010-09-08T16:16:09Z</time>
      </trkpt>
      <trkpt lat="43.70277" lon="7.13255">
        <ele>182</ele>
        <time>2010-09-08T16:16:10Z</time>
      </trkpt>
      <trkpt lat="43.70305" lon="7.13269">
        <ele>181</ele>
        <time>2010-09-08T16:16:14Z</time>
      </trkpt>
      <trkpt lat="43.70349" lon="7.13312">
        <ele>180</ele>
        <time>2010-09-08T16:16:22Z</time>
      </trkpt>
      <trkpt lat="43.70388" lon="7.13339">
        <ele>179</ele>
        <time>2010-09-08T16:16:29Z</time>
      </trkpt>
      <trkpt lat="43.70427" lon="7.13346">
        <ele>180</ele>
        <time>2010-09-08T16:16:35Z</time>
      </trkpt>
      <trkpt lat="43.7046" lon="7.13337">
        <ele>180</ele>
        <time>2010-09-08T16:16:40Z</time>
      </trkpt>
      <trkpt lat="43.70507" lon="7.13308">
        <ele>179</ele>
        <time>2010-09-08T16:16:47Z</time>
      </trkpt>
      <trkpt lat="43.70558" lon="7.13277">
        <ele>178</ele>
        <time>2010-09-08T16:16:54Z</time>
      </trkpt>
      <trkpt lat="43.70623" lon="7.13239">
        <ele>174</ele>
        <time>2010-09-08T16:17:03Z</time>
      </trkpt>
      <trkpt lat="43.70692" lon="7.13194">
        <ele>170</ele>
        <time>2010-09-08T16:17:13Z</time>
      </trkpt>
      <trkpt lat="43.70733" lon="7.13159">
        <ele>171</ele>
        <time>2010-09-08T16:17:20Z</time>
      </trkpt>
      <trkpt lat="43.70739" lon="7.13155">
        <ele>171</ele>
        <time>2010-09-08T16:17:21Z</time>
      </trkpt>
      <trkpt lat="43.70763" lon="7.13143">
        <ele>173</ele>
        <time>2010-09-08T16:17:26Z</time>
      </trkpt>
      <trkpt lat="43.7079" lon="7.13126">
        <ele>174</ele>
        <time>2010-09-08T16:17:33Z</time>
      </trkpt>
      <trkpt lat="43.70822" lon="7.13113">
        <ele>176</ele>
        <time>2010-09-08T16:17:42Z</time>
      </trkpt>
      <trkpt lat="43.70851" lon="7.13107">
        <ele>180</ele>
        <time>2010-09-08T16:17:50Z</time>
      </trkpt>
      <trkpt lat="43.70874" lon="7.13104">
        <ele>181</ele>
        <time>2010-09-08T16:17:56Z</time>
      </trkpt>
      <trkpt lat="43.70912" lon="7.13103">
        <ele>183</ele>
        <time>2010-09-08T16:18:07Z</time>
      </trkpt>
      <trkpt lat="43.70944" lon="7.13099">
        <ele>185</ele>
        <time>2010-09-08T16:18:16Z</time>
      </trkpt>
      <trkpt lat="43.70966" lon="7.13088">
        <ele>185</ele>
        <time>2010-09-08T16:18:23Z</time>
      </trkpt>
      <trkpt lat="43.70988" lon="7.13072">
        <ele>188</ele>
        <time>2010-09-08T16:18:30Z</time>
      </trkpt>
      <trkpt lat="43.71017" lon="7.13052">
        <ele>192</ele>
        <time>2010-09-08T16:18:39Z</time>
      </trkpt>
      <trkpt lat="43.71044" lon="7.13032">
        <ele>193</ele>
        <time>2010-09-08T16:18:48Z</time>
      </trkpt>
      <trkpt lat="43.71065" lon="7.13017">
        <ele>195</ele>
        <time>2010-09-08T16:18:55Z</time>
      </trkpt>
      <trkpt lat="43.71093" lon="7.12997">
        <ele>199</ele>
        <time>2010-09-08T16:19:04Z</time>
      </trkpt>
      <trkpt lat="43.71123" lon="7.12977">
        <ele>201</ele>
        <time>2010-09-08T16:19:13Z</time>
      </trkpt>
      <trkpt lat="43.71143" lon="7.12969">
        <ele>201</ele>
        <time>2010-09-08T16:19:19Z</time>
      </trkpt>
      <trkpt lat="43.71171" lon="7.12958">
        <ele>202</ele>
        <time>2010-09-08T16:19:27Z</time>
      </trkpt>
      <trkpt lat="43.71212" lon="7.12943">
        <ele>203</ele>
        <time>2010-09-08T16:19:39Z</time>
      </trkpt>
      <trkpt lat="43.7125" lon="7.12928">
        <ele>205</ele>
        <time>2010-09-08T16:19:50Z</time>
      </trkpt>
      <trkpt lat="43.7127" lon="7.1292">
        <ele>204</ele>
        <time>2010-09-08T16:19:56Z</time>
      </trkpt>
      <trkpt lat="43.71298" lon="7.12908">
        <ele>208</ele>
        <time>2010-09-08T16:20:04Z</time>
      </trkpt>
      <trkpt lat="43.71322" lon="7.1289">
        <ele>208</ele>
        <time>2010-09-08T16:20:12Z</time>
      </trkpt>
      <trkpt lat="43.71347" lon="7.1286">
        <ele>209</ele>
        <time>2010-09-08T16:20:21Z</time>
      </trkpt>
      <trkpt lat="43.71372" lon="7.12825">
        <ele>213</ele>
        <time>2010-09-08T16:20:31Z</time>
      </trkpt>
      <trkpt lat="43.71391" lon="7.12795">
        <ele>214</ele>
        <time>2010-09-08T16:20:40Z</time>
      </trkpt>
      <trkpt lat="43.71402" lon="7.1276">
        <ele>215</ele>
        <time>2010-09-08T16:20:48Z</time>
      </trkpt>
      <trkpt lat="43.71402" lon="7.12727">
        <ele>218</ele>
        <time>2010-09-08T16:20:55Z</time>
      </trkpt>
      <trkpt lat="43.71401" lon="7.12685">
        <ele>219</ele>
        <time>2010-09-08T16:21:04Z</time>
      </trkpt>
      <trkpt lat="43.71407" lon="7.1265">
        <ele>221</ele>
        <time>2010-09-08T16:21:12Z</time>
      </trkpt>
      <trkpt lat="43.71422" lon="7.12631">
        <ele>223</ele>
        <time>2010-09-08T16:21:18Z</time>
      </trkpt>
      <trkpt lat="43.71439" lon="7.12613">
        <ele>224</ele>
        <time>2010-09-08T16:21:25Z</time>
      </trkpt>
      <trkpt lat="43.71464" lon="7.12588">
        <ele>225</ele>
        <time>2010-09-08T16:21:34Z</time>
      </trkpt>
      <trkpt lat="43.71481" lon="7.12569">
        <ele>228</ele>
        <time>2010-09-08T16:21:41Z</time>
      </trkpt>
      <trkpt lat="43.71499" lon="7.12549">
        <ele>230</ele>
        <time>2010-09-08T16:21:48Z</time>
      </trkpt>
      <trkpt lat="43.71511" lon="7.12528">
        <ele>234</ele>
        <time>2010-09-08T16:21:54Z</time>
      </trkpt>
      <trkpt lat="43.71522" lon="7.125">
        <ele>239</ele>
        <time>2010-09-08T16:22:01Z</time>
      </trkpt>
      <trkpt lat="43.71528" lon="7.12468">
        <ele>241</ele>
        <time>2010-09-08T16:22:08Z</time>
      </trkpt>
      <trkpt lat="43.71534" lon="7.12429">
        <ele>242</ele>
        <time>2010-09-08T16:22:16Z</time>
      </trkpt>
      <trkpt lat="43.7154" lon="7.12398">
        <ele>246</ele>
        <time>2010-09-08T16:22:23Z</time>
      </trkpt>
      <trkpt lat="43.71546" lon="7.12353">
        <ele>246</ele>
        <time>2010-09-08T16:22:33Z</time>
      </trkpt>
      <trkpt lat="43.71555" lon="7.12312">
        <ele>247</ele>
        <time>2010-09-08T16:22:42Z</time>
      </trkpt>
      <trkpt lat="43.71567" lon="7.12295">
        <ele>248</ele>
        <time>2010-09-08T16:22:47Z</time>
      </trkpt>
      <trkpt lat="43.71583" lon="7.12292">
        <ele>255</ele>
        <time>2010-09-08T16:22:52Z</time>
      </trkpt>
      <trkpt lat="43.71599" lon="7.12307">
        <ele>256</ele>
        <time>2010-09-08T16:22:58Z</time>
      </trkpt>
      <trkpt lat="43.71603" lon="7.12329">
        <ele>255</ele>
        <time>2010-09-08T16:23:03Z</time>
      </trkpt>
      <trkpt lat="43.71607" lon="7.12372">
        <ele>256</ele>
        <time>2010-09-08T16:23:12Z</time>
      </trkpt>
      <trkpt lat="43.71613" lon="7.12426">
        <ele>250</ele>
        <time>2010-09-08T16:23:23Z</time>
      </trkpt>
      <trkpt lat="43.71623" lon="7.12456">
        <ele>249</ele>
        <time>2010-09-08T16:23:30Z</time>
      </trkpt>
      <trkpt lat="43.71642" lon="7.12479">
        <ele>249</ele>
        <time>2010-09-08T16:23:37Z</time>
      </trkpt>
      <trkpt lat="43.71662" lon="7.12486">
        <ele>249</ele>
        <time>2010-09-08T16:23:43Z</time>
      </trkpt>
      <trkpt lat="43.71687" lon="7.12483">
        <ele>254</ele>
        <time>2010-09-08T16:23:50Z</time>
      </trkpt>
      <trkpt lat="43.7171" lon="7.12473">
        <ele>256</ele>
        <time>2010-09-08T16:23:57Z</time>
      </trkpt>
      <trkpt lat="43.71739" lon="7.12452">
        <ele>259</ele>
        <time>2010-09-08T16:24:06Z</time>
      </trkpt>
      <trkpt lat="43.71755" lon="7.12441">
        <ele>260</ele>
        <time>2010-09-08T16:24:11Z</time>
      </trkpt>
      <trkpt lat="43.71777" lon="7.12428">
        <ele>260</ele>
        <time>2010-09-08T16:24:18Z</time>
      </trkpt>
      <trkpt lat="43.71798" lon="7.12414">
        <ele>271</ele>
        <time>2010-09-08T16:24:25Z</time>
      </trkpt>
      <trkpt lat="43.71821" lon="7.12398">
        <ele>269</ele>
        <time>2010-09-08T16:24:33Z</time>
      </trkpt>
      <trkpt lat="43.7184" lon="7.12384">
        <ele>266</ele>
        <time>2010-09-08T16:24:39Z</time>
      </trkpt>
      <trkpt lat="43.71854" lon="7.12375">
        <ele>268</ele>
        <time>2010-09-08T16:24:44Z</time>
      </trkpt>
      <trkpt lat="43.71866" lon="7.12367">
        <ele>268</ele>
        <time>2010-09-08T16:24:49Z</time>
      </trkpt>
      <trkpt lat="43.71881" lon="7.12354">
        <ele>268</ele>
        <time>2010-09-08T16:24:55Z</time>
      </trkpt>
      <trkpt lat="43.71908" lon="7.1233">
        <ele>273</ele>
        <time>2010-09-08T16:25:05Z</time>
      </trkpt>
      <trkpt lat="43.71933" lon="7.12304">
        <ele>273</ele>
        <time>2010-09-08T16:25:14Z</time>
      </trkpt>
      <trkpt lat="43.7196" lon="7.12274">
        <ele>274</ele>
        <time>2010-09-08T16:25:24Z</time>
      </trkpt>
      <trkpt lat="43.71982" lon="7.12248">
        <ele>281</ele>
        <time>2010-09-08T16:25:32Z</time>
      </trkpt>
      <trkpt lat="43.72006" lon="7.12216">
        <ele>281</ele>
        <time>2010-09-08T16:25:42Z</time>
      </trkpt>
      <trkpt lat="43.72023" lon="7.12182">
        <ele>284</ele>
        <time>2010-09-08T16:25:51Z</time>
      </trkpt>
      <trkpt lat="43.72038" lon="7.12163">
        <ele>292</ele>
        <time>2010-09-08T16:25:57Z</time>
      </trkpt>
      <trkpt lat="43.72055" lon="7.12159">
        <ele>291</ele>
        <time>2010-09-08T16:26:02Z</time>
      </trkpt>
      <trkpt lat="43.72075" lon="7.12172">
        <ele>284</ele>
        <time>2010-09-08T16:26:08Z</time>
      </trkpt>
      <trkpt lat="43.72098" lon="7.12192">
        <ele>283</ele>
        <time>2010-09-08T16:26:16Z</time>
      </trkpt>
      <trkpt lat="43.72121" lon="7.12214">
        <ele>282</ele>
        <time>2010-09-08T16:26:24Z</time>
      </trkpt>
      <trkpt lat="43.72141" lon="7.12222">
        <ele>282</ele>
        <time>2010-09-08T16:26:30Z</time>
      </trkpt>
      <trkpt lat="43.7217" lon="7.1222">
        <ele>282</ele>
        <time>2010-09-08T16:26:38Z</time>
      </trkpt>
      <trkpt lat="43.72188" lon="7.12205">
        <ele>283</ele>
        <time>2010-09-08T16:26:44Z</time>
      </trkpt>
      <trkpt lat="43.72199" lon="7.12187">
        <ele>284</ele>
        <time>2010-09-08T16:26:49Z</time>
      </trkpt>
      <trkpt lat="43.72206" lon="7.1216">
        <ele>288</ele>
        <time>2010-09-08T16:26:55Z</time>
      </trkpt>
      <trkpt lat="43.72204" lon="7.12121">
        <ele>289</ele>
        <time>2010-09-08T16:27:03Z</time>
      </trkpt>
      <trkpt lat="43.72192" lon="7.12095">
        <ele>291</ele>
        <time>2010-09-08T16:27:09Z</time>
      </trkpt>
      <trkpt lat="43.72172" lon="7.12058">
        <ele>292</ele>
        <time>2010-09-08T16:27:18Z</time>
      </trkpt>
      <trkpt lat="43.72162" lon="7.12022">
        <ele>300</ele>
        <time>2010-09-08T16:27:26Z</time>
      </trkpt>
      <trkpt lat="43.72164" lon="7.11993">
        <ele>302</ele>
        <time>2010-09-08T16:27:32Z</time>
      </trkpt>
      <trkpt lat="43.72177" lon="7.11968">
        <ele>298</ele>
        <time>2010-09-08T16:27:38Z</time>
      </trkpt>
      <trkpt lat="43.72192" lon="7.11947">
        <ele>298</ele>
        <time>2010-09-08T16:27:44Z</time>
      </trkpt>
      <trkpt lat="43.72212" lon="7.11917">
        <ele>297</ele>
        <time>2010-09-08T16:27:53Z</time>
      </trkpt>
      <trkpt lat="43.72227" lon="7.11896">
        <ele>304</ele>
        <time>2010-09-08T16:27:59Z</time>
      </trkpt>
      <trkpt lat="43.72246" lon="7.11868">
        <ele>307</ele>
        <time>2010-09-08T16:28:07Z</time>
      </trkpt>
      <trkpt lat="43.72258" lon="7.11837">
        <ele>302</ele>
        <time>2010-09-08T16:28:14Z</time>
      </trkpt>
      <trkpt lat="43.72265" lon="7.11798">
        <ele>301</ele>
        <time>2010-09-08T16:28:22Z</time>
      </trkpt>
      <trkpt lat="43.72262" lon="7.11763">
        <ele>305</ele>
        <time>2010-09-08T16:28:29Z</time>
      </trkpt>
      <trkpt lat="43.72251" lon="7.11725">
        <ele>306</ele>
        <time>2010-09-08T16:28:37Z</time>
      </trkpt>
      <trkpt lat="43.72246" lon="7.11688">
        <ele>315</ele>
        <time>2010-09-08T16:28:45Z</time>
      </trkpt>
      <trkpt lat="43.72249" lon="7.11666">
        <ele>312</ele>
        <time>2010-09-08T16:28:50Z</time>
      </trkpt>
      <trkpt lat="43.72255" lon="7.11633">
        <ele>307</ele>
        <time>2010-09-08T16:28:57Z</time>
      </trkpt>
      <trkpt lat="43.72256" lon="7.11595">
        <ele>311</ele>
        <time>2010-09-08T16:29:05Z</time>
      </trkpt>
      <trkpt lat="43.72254" lon="7.11558">
        <ele>314</ele>
        <time>2010-09-08T16:29:13Z</time>
      </trkpt>
      <trkpt lat="43.72258" lon="7.11534">
        <ele>315</ele>
        <time>2010-09-08T16:29:18Z</time>
      </trkpt>
      <trkpt lat="43.72264" lon="7.11512">
        <ele>317</ele>
        <time>2010-09-08T16:29:23Z</time>
      </trkpt>
      <trkpt lat="43.72252" lon="7.11497">
        <ele>324</ele>
        <time>2010-09-08T16:29:28Z</time>
      </trkpt>
      <trkpt lat="43.72248" lon="7.11496">
        <ele>325</ele>
        <time>2010-09-08T16:29:29Z</time>
      </trkpt>
      <trkpt lat="43.72234" lon="7.1149">
        <ele>324</ele>
        <time>2010-09-08T16:29:32Z</time>
      </trkpt>
      <trkpt lat="43.72214" lon="7.11478">
        <ele>324</ele>
        <time>2010-09-08T16:29:36Z</time>
      </trkpt>
      <trkpt lat="43.72198" lon="7.11457">
        <ele>323</ele>
        <time>2010-09-08T16:29:40Z</time>
      </trkpt>
      <trkpt lat="43.72185" lon="7.11428">
        <ele>322</ele>
        <time>2010-09-08T16:29:45Z</time>
      </trkpt>
      <trkpt lat="43.72183" lon="7.11422">
        <ele>322</ele>
        <time>2010-09-08T16:29:46Z</time>
      </trkpt>
      <trkpt lat="43.72186" lon="7.11385">
        <ele>324</ele>
        <time>2010-09-08T16:29:51Z</time>
      </trkpt>
      <trkpt lat="43.72188" lon="7.11378">
        <ele>324</ele>
        <time>2010-09-08T16:29:52Z</time>
      </trkpt>
      <trkpt lat="43.72209" lon="7.11327">
        <ele>325</ele>
        <time>2010-09-08T16:30:00Z</time>
      </trkpt>
      <trkpt lat="43.72224" lon="7.11295">
        <ele>325</ele>
        <time>2010-09-08T16:30:05Z</time>
      </trkpt>
      <trkpt lat="43.72232" lon="7.11272">
        <ele>324</ele>
        <time>2010-09-08T16:30:08Z</time>
      </trkpt>
      <trkpt lat="43.72245" lon="7.11251">
        <ele>324</ele>
        <time>2010-09-08T16:30:13Z</time>
      </trkpt>
      <trkpt lat="43.72258" lon="7.11237">
        <ele>322</ele>
        <time>2010-09-08T16:30:17Z</time>
      </trkpt>
      <trkpt lat="43.72263" lon="7.11209">
        <ele>321</ele>
        <time>2010-09-08T16:30:21Z</time>
      </trkpt>
      <trkpt lat="43.72273" lon="7.11159">
        <ele>321</ele>
        <time>2010-09-08T16:30:28Z</time>
      </trkpt>
      <trkpt lat="43.72279" lon="7.11097">
        <ele>321</ele>
        <time>2010-09-08T16:30:36Z</time>
      </trkpt>
      <trkpt lat="43.72288" lon="7.11021">
        <ele>322</ele>
        <time>2010-09-08T16:30:46Z</time>
      </trkpt>
      <trkpt lat="43.72295" lon="7.1095">
        <ele>324</ele>
        <time>2010-09-08T16:30:56Z</time>
      </trkpt>
      <trkpt lat="43.72303" lon="7.1087">
        <ele>324</ele>
        <time>2010-09-08T16:31:07Z</time>
      </trkpt>
      <trkpt lat="43.72313" lon="7.10802">
        <ele>325</ele>
        <time>2010-09-08T16:31:17Z</time>
      </trkpt>
      <trkpt lat="43.72321" lon="7.10735">
        <ele>327</ele>
        <time>2010-09-08T16:31:27Z</time>
      </trkpt>
      <trkpt lat="43.72331" lon="7.10709">
        <ele>327</ele>
        <time>2010-09-08T16:31:32Z</time>
      </trkpt>
      <trkpt lat="43.72347" lon="7.10703">
        <ele>329</ele>
        <time>2010-09-08T16:31:36Z</time>
      </trkpt>
      <trkpt lat="43.72385" lon="7.10714">
        <ele>330</ele>
        <time>2010-09-08T16:31:43Z</time>
      </trkpt>
      <trkpt lat="43.72391" lon="7.10717">
        <ele>330</ele>
        <time>2010-09-08T16:31:44Z</time>
      </trkpt>
      <trkpt lat="43.72414" lon="7.10723">
        <ele>330</ele>
        <time>2010-09-08T16:31:49Z</time>
      </trkpt>
      <trkpt lat="43.72428" lon="7.10721">
        <ele>328</ele>
        <time>2010-09-08T16:31:53Z</time>
      </trkpt>
      <trkpt lat="43.72456" lon="7.10716">
        <ele>327</ele>
        <time>2010-09-08T16:31:59Z</time>
      </trkpt>
      <trkpt lat="43.72466" lon="7.10701">
        <ele>326</ele>
        <time>2010-09-08T16:32:03Z</time>
      </trkpt>
      <trkpt lat="43.72484" lon="7.10672">
        <ele>327</ele>
        <time>2010-09-08T16:32:10Z</time>
      </trkpt>
      <trkpt lat="43.725" lon="7.10639">
        <ele>329</ele>
        <time>2010-09-08T16:32:18Z</time>
      </trkpt>
      <trkpt lat="43.72509" lon="7.10609">
        <ele>330</ele>
        <time>2010-09-08T16:32:26Z</time>
      </trkpt>
      <trkpt lat="43.72511" lon="7.10589">
        <ele>331</ele>
        <time>2010-09-08T16:32:31Z</time>
      </trkpt>
      <trkpt lat="43.72518" lon="7.1057">
        <ele>334</ele>
        <time>2010-09-08T16:32:37Z</time>
      </trkpt>
      <trkpt lat="43.72533" lon="7.10541">
        <ele>335</ele>
        <time>2010-09-08T16:32:47Z</time>
      </trkpt>
      <trkpt lat="43.72547" lon="7.10519">
        <ele>336</ele>
        <time>2010-09-08T16:32:55Z</time>
      </trkpt>
      <trkpt lat="43.7256" lon="7.10501">
        <ele>337</ele>
        <time>2010-09-08T16:33:02Z</time>
      </trkpt>
      <trkpt lat="43.7257" lon="7.1049">
        <ele>341</ele>
        <time>2010-09-08T16:33:07Z</time>
      </trkpt>
      <trkpt lat="43.72584" lon="7.10474">
        <ele>342</ele>
        <time>2010-09-08T16:33:14Z</time>
      </trkpt>
      <trkpt lat="43.72604" lon="7.10454">
        <ele>343</ele>
        <time>2010-09-08T16:33:23Z</time>
      </trkpt>
      <trkpt lat="43.72623" lon="7.10436">
        <ele>344</ele>
        <time>2010-09-08T16:33:32Z</time>
      </trkpt>
      <trkpt lat="43.72638" lon="7.10427">
        <ele>345</ele>
        <time>2010-09-08T16:33:38Z</time>
      </trkpt>
      <trkpt lat="43.72656" lon="7.10418">
        <ele>347</ele>
        <time>2010-09-08T16:33:46Z</time>
      </trkpt>
      <trkpt lat="43.72674" lon="7.10403">
        <ele>350</ele>
        <time>2010-09-08T16:33:54Z</time>
      </trkpt>
      <trkpt lat="43.72693" lon="7.10389">
        <ele>352</ele>
        <time>2010-09-08T16:34:03Z</time>
      </trkpt>
      <trkpt lat="43.72713" lon="7.10381">
        <ele>353</ele>
        <time>2010-09-08T16:34:12Z</time>
      </trkpt>
      <trkpt lat="43.72728" lon="7.10377">
        <ele>353</ele>
        <time>2010-09-08T16:34:19Z</time>
      </trkpt>
      <trkpt lat="43.7274" lon="7.10371">
        <ele>354</ele>
        <time>2010-09-08T16:34:25Z</time>
      </trkpt>
      <trkpt lat="43.72754" lon="7.10364">
        <ele>358</ele>
        <time>2010-09-08T16:34:31Z</time>
      </trkpt>
      <trkpt lat="43.72769" lon="7.10356">
        <ele>358</ele>
        <time>2010-09-08T16:34:37Z</time>
      </trkpt>
      <trkpt lat="43.72791" lon="7.10343">
        <ele>359</ele>
        <time>2010-09-08T16:34:46Z</time>
      </trkpt>
      <trkpt lat="43.72808" lon="7.10334">
        <ele>360</ele>
        <time>2010-09-08T16:34:53Z</time>
      </trkpt>
      <trkpt lat="43.72827" lon="7.10324">
        <ele>365</ele>
        <time>2010-09-08T16:35:01Z</time>
      </trkpt>
      <trkpt lat="43.72845" lon="7.10318">
        <ele>368</ele>
        <time>2010-09-08T16:35:08Z</time>
      </trkpt>
      <trkpt lat="43.7287" lon="7.10315">
        <ele>370</ele>
        <time>2010-09-08T16:35:17Z</time>
      </trkpt>
      <trkpt lat="43.72898" lon="7.10316">
        <ele>370</ele>
        <time>2010-09-08T16:35:26Z</time>
      </trkpt>
      <trkpt lat="43.72929" lon="7.10315">
        <ele>373</ele>
        <time>2010-09-08T16:35:35Z</time>
      </trkpt>
      <trkpt lat="43.7295" lon="7.10314">
        <ele>374</ele>
        <time>2010-09-08T16:35:42Z</time>
      </trkpt>
      <trkpt lat="43.7297" lon="7.10313">
        <ele>374</ele>
        <time>2010-09-08T16:35:49Z</time>
      </trkpt>
      <trkpt lat="43.72994" lon="7.10304">
        <ele>375</ele>
        <time>2010-09-08T16:35:57Z</time>
      </trkpt>
      <trkpt lat="43.73023" lon="7.10286">
        <ele>380</ele>
        <time>2010-09-08T16:36:07Z</time>
      </trkpt>
      <trkpt lat="43.73047" lon="7.10274">
        <ele>382</ele>
        <time>2010-09-08T16:36:15Z</time>
      </trkpt>
      <trkpt lat="43.73069" lon="7.1027">
        <ele>383</ele>
        <time>2010-09-08T16:36:22Z</time>
      </trkpt>
      <trkpt lat="43.73095" lon="7.10269">
        <ele>387</ele>
        <time>2010-09-08T16:36:30Z</time>
      </trkpt>
      <trkpt lat="43.73121" lon="7.10268">
        <ele>388</ele>
        <time>2010-09-08T16:36:38Z</time>
      </trkpt>
      <trkpt lat="43.73153" lon="7.10266">
        <ele>392</ele>
        <time>2010-09-08T16:36:48Z</time>
      </trkpt>
      <trkpt lat="43.73171" lon="7.10271">
        <ele>400</ele>
        <time>2010-09-08T16:36:54Z</time>
      </trkpt>
      <trkpt lat="43.73188" lon="7.10285">
        <ele>400</ele>
        <time>2010-09-08T16:37:01Z</time>
      </trkpt>
      <trkpt lat="43.73213" lon="7.10313">
        <ele>400</ele>
        <time>2010-09-08T16:37:11Z</time>
      </trkpt>
      <trkpt lat="43.73233" lon="7.10334">
        <ele>402</ele>
        <time>2010-09-08T16:37:19Z</time>
      </trkpt>
      <trkpt lat="43.73249" lon="7.1036">
        <ele>403</ele>
        <time>2010-09-08T16:37:27Z</time>
      </trkpt>
      <trkpt lat="43.73243" lon="7.1038">
        <ele>405</ele>
        <time>2010-09-08T16:37:32Z</time>
      </trkpt>
      <trkpt lat="43.73224" lon="7.1039">
        <ele>405</ele>
        <time>2010-09-08T16:37:38Z</time>
      </trkpt>
      <trkpt lat="43.732" lon="7.10399">
        <ele>404</ele>
        <time>2010-09-08T16:37:45Z</time>
      </trkpt>
      <trkpt lat="43.73175" lon="7.10412">
        <ele>404</ele>
        <time>2010-09-08T16:37:53Z</time>
      </trkpt>
      <trkpt lat="43.73149" lon="7.10429">
        <ele>407</ele>
        <time>2010-09-08T16:38:02Z</time>
      </trkpt>
      <trkpt lat="43.73126" lon="7.10448">
        <ele>408</ele>
        <time>2010-09-08T16:38:11Z</time>
      </trkpt>
      <trkpt lat="43.73103" lon="7.10475">
        <ele>410</ele>
        <time>2010-09-08T16:38:21Z</time>
      </trkpt>
      <trkpt lat="43.73088" lon="7.10498">
        <ele>412</ele>
        <time>2010-09-08T16:38:28Z</time>
      </trkpt>
      <trkpt lat="43.73075" lon="7.10519">
        <ele>412</ele>
        <time>2010-09-08T16:38:34Z</time>
      </trkpt>
      <trkpt lat="43.73064" lon="7.10535">
        <ele>412</ele>
        <time>2010-09-08T16:38:39Z</time>
      </trkpt>
      <trkpt lat="43.73044" lon="7.1057">
        <ele>413</ele>
        <time>2010-09-08T16:38:49Z</time>
      </trkpt>
      <trkpt lat="43.73026" lon="7.10602">
        <ele>420</ele>
        <time>2010-09-08T16:38:58Z</time>
      </trkpt>
      <trkpt lat="43.73012" lon="7.10631">
        <ele>422</ele>
        <time>2010-09-08T16:39:06Z</time>
      </trkpt>
      <trkpt lat="43.73006" lon="7.10656">
        <ele>420</ele>
        <time>2010-09-08T16:39:12Z</time>
      </trkpt>
      <trkpt lat="43.73" lon="7.10693">
        <ele>428</ele>
        <time>2010-09-08T16:39:21Z</time>
      </trkpt>
      <trkpt lat="43.72994" lon="7.10734">
        <ele>415</ele>
        <time>2010-09-08T16:39:31Z</time>
      </trkpt>
      <trkpt lat="43.7299" lon="7.10759">
        <ele>421</ele>
        <time>2010-09-08T16:39:37Z</time>
      </trkpt>
      <trkpt lat="43.72986" lon="7.10784">
        <ele>419</ele>
        <time>2010-09-08T16:39:43Z</time>
      </trkpt>
      <trkpt lat="43.72982" lon="7.1081">
        <ele>421</ele>
        <time>2010-09-08T16:39:50Z</time>
      </trkpt>
      <trkpt lat="43.7298" lon="7.10835">
        <ele>427</ele>
        <time>2010-09-08T16:39:57Z</time>
      </trkpt>
      <trkpt lat="43.72977" lon="7.10863">
        <ele>425</ele>
        <time>2010-09-08T16:40:04Z</time>
      </trkpt>
      <trkpt lat="43.72976" lon="7.10888">
        <ele>425</ele>
        <time>2010-09-08T16:40:10Z</time>
      </trkpt>
      <trkpt lat="43.72976" lon="7.10918">
        <ele>429</ele>
        <time>2010-09-08T16:40:17Z</time>
      </trkpt>
      <trkpt lat="43.72978" lon="7.10943">
        <ele>428</ele>
        <time>2010-09-08T16:40:23Z</time>
      </trkpt>
      <trkpt lat="43.72983" lon="7.10973">
        <ele>429</ele>
        <time>2010-09-08T16:40:30Z</time>
      </trkpt>
      <trkpt lat="43.72989" lon="7.11013">
        <ele>431</ele>
        <time>2010-09-08T16:40:39Z</time>
      </trkpt>
      <trkpt lat="43.72995" lon="7.11052">
        <ele>428</ele>
        <time>2010-09-08T16:40:48Z</time>
      </trkpt>
      <trkpt lat="43.73003" lon="7.11092">
        <ele>437</ele>
        <time>2010-09-08T16:40:57Z</time>
      </trkpt>
      <trkpt lat="43.73013" lon="7.11102">
        <ele>438</ele>
        <time>2010-09-08T16:41:01Z</time>
      </trkpt>
      <trkpt lat="43.73024" lon="7.11099">
        <ele>439</ele>
        <time>2010-09-08T16:41:05Z</time>
      </trkpt>
      <trkpt lat="43.73029" lon="7.11085">
        <ele>440</ele>
        <time>2010-09-08T16:41:09Z</time>
      </trkpt>
      <trkpt lat="43.73025" lon="7.11053">
        <ele>444</ele>
        <time>2010-09-08T16:41:16Z</time>
      </trkpt>
      <trkpt lat="43.73022" lon="7.11013">
        <ele>444</ele>
        <time>2010-09-08T16:41:25Z</time>
      </trkpt>
      <trkpt lat="43.73025" lon="7.10972">
        <ele>447</ele>
        <time>2010-09-08T16:41:34Z</time>
      </trkpt>
      <trkpt lat="43.73027" lon="7.10943">
        <ele>448</ele>
        <time>2010-09-08T16:41:41Z</time>
      </trkpt>
      <trkpt lat="43.73025" lon="7.10916">
        <ele>446</ele>
        <time>2010-09-08T16:41:47Z</time>
      </trkpt>
      <trkpt lat="43.73014" lon="7.10881">
        <ele>446</ele>
        <time>2010-09-08T16:41:55Z</time>
      </trkpt>
      <trkpt lat="43.73013" lon="7.10853">
        <ele>444</ele>
        <time>2010-09-08T16:42:01Z</time>
      </trkpt>
      <trkpt lat="43.73022" lon="7.10826">
        <ele>441</ele>
        <time>2010-09-08T16:42:07Z</time>
      </trkpt>
      <trkpt lat="43.73045" lon="7.108">
        <ele>445</ele>
        <time>2010-09-08T16:42:15Z</time>
      </trkpt>
      <trkpt lat="43.73072" lon="7.10773">
        <ele>448</ele>
        <time>2010-09-08T16:42:24Z</time>
      </trkpt>
      <trkpt lat="43.73105" lon="7.1074">
        <ele>457</ele>
        <time>2010-09-08T16:42:35Z</time>
      </trkpt>
      <trkpt lat="43.73128" lon="7.10717">
        <ele>459</ele>
        <time>2010-09-08T16:42:43Z</time>
      </trkpt>
      <trkpt lat="43.73161" lon="7.10684">
        <ele>460</ele>
        <time>2010-09-08T16:42:54Z</time>
      </trkpt>
      <trkpt lat="43.73184" lon="7.10661">
        <ele>461</ele>
        <time>2010-09-08T16:43:02Z</time>
      </trkpt>
      <trkpt lat="43.73204" lon="7.10641">
        <ele>462</ele>
        <time>2010-09-08T16:43:09Z</time>
      </trkpt>
      <trkpt lat="43.73228" lon="7.10621">
        <ele>462</ele>
        <time>2010-09-08T16:43:17Z</time>
      </trkpt>
      <trkpt lat="43.73252" lon="7.10605">
        <ele>468</ele>
        <time>2010-09-08T16:43:25Z</time>
      </trkpt>
      <trkpt lat="43.73286" lon="7.1059">
        <ele>472</ele>
        <time>2010-09-08T16:43:36Z</time>
      </trkpt>
      <trkpt lat="43.73316" lon="7.10579">
        <ele>465</ele>
        <time>2010-09-08T16:43:46Z</time>
      </trkpt>
      <trkpt lat="43.73335" lon="7.10573">
        <ele>472</ele>
        <time>2010-09-08T16:43:53Z</time>
      </trkpt>
      <trkpt lat="43.73357" lon="7.10566">
        <ele>472</ele>
        <time>2010-09-08T16:44:00Z</time>
      </trkpt>
      <trkpt lat="43.73376" lon="7.10559">
        <ele>474</ele>
        <time>2010-09-08T16:44:07Z</time>
      </trkpt>
      <trkpt lat="43.73394" lon="7.10553">
        <ele>475</ele>
        <time>2010-09-08T16:44:13Z</time>
      </trkpt>
      <trkpt lat="43.73416" lon="7.10543">
        <ele>474</ele>
        <time>2010-09-08T16:44:21Z</time>
      </trkpt>
      <trkpt lat="43.73441" lon="7.10527">
        <ele>482</ele>
        <time>2010-09-08T16:44:30Z</time>
      </trkpt>
      <trkpt lat="43.73463" lon="7.10514">
        <ele>482</ele>
        <time>2010-09-08T16:44:38Z</time>
      </trkpt>
      <trkpt lat="43.73486" lon="7.10502">
        <ele>480</ele>
        <time>2010-09-08T16:44:46Z</time>
      </trkpt>
      <trkpt lat="43.73509" lon="7.10499">
        <ele>474</ele>
        <time>2010-09-08T16:44:54Z</time>
      </trkpt>
      <trkpt lat="43.73534" lon="7.10505">
        <ele>486</ele>
        <time>2010-09-08T16:45:02Z</time>
      </trkpt>
      <trkpt lat="43.73558" lon="7.10513">
        <ele>486</ele>
        <time>2010-09-08T16:45:11Z</time>
      </trkpt>
      <trkpt lat="43.73578" lon="7.10516">
        <ele>485</ele>
        <time>2010-09-08T16:45:18Z</time>
      </trkpt>
      <trkpt lat="43.73601" lon="7.10517">
        <ele>486</ele>
        <time>2010-09-08T16:45:26Z</time>
      </trkpt>
      <trkpt lat="43.73627" lon="7.10521">
        <ele>488</ele>
        <time>2010-09-08T16:45:35Z</time>
      </trkpt>
      <trkpt lat="43.7365" lon="7.10532">
        <ele>489</ele>
        <time>2010-09-08T16:45:44Z</time>
      </trkpt>
      <trkpt lat="43.73678" lon="7.10542">
        <ele>495</ele>
        <time>2010-09-08T16:45:54Z</time>
      </trkpt>
      <trkpt lat="43.73701" lon="7.10541">
        <ele>496</ele>
        <time>2010-09-08T16:46:02Z</time>
      </trkpt>
      <trkpt lat="43.73725" lon="7.10532">
        <ele>495</ele>
        <time>2010-09-08T16:46:10Z</time>
      </trkpt>
      <trkpt lat="43.73749" lon="7.10531">
        <ele>495</ele>
        <time>2010-09-08T16:46:18Z</time>
      </trkpt>
      <trkpt lat="43.7377" lon="7.10534">
        <ele>500</ele>
        <time>2010-09-08T16:46:25Z</time>
      </trkpt>
      <trkpt lat="43.7379" lon="7.10543">
        <ele>502</ele>
        <time>2010-09-08T16:46:32Z</time>
      </trkpt>
      <trkpt lat="43.73806" lon="7.10551">
        <ele>503</ele>
        <time>2010-09-08T16:46:38Z</time>
      </trkpt>
      <trkpt lat="43.73832" lon="7.10561">
        <ele>506</ele>
        <time>2010-09-08T16:46:47Z</time>
      </trkpt>
      <trkpt lat="43.73855" lon="7.10563">
        <ele>508</ele>
        <time>2010-09-08T16:46:55Z</time>
      </trkpt>
      <trkpt lat="43.73872" lon="7.1056">
        <ele>508</ele>
        <time>2010-09-08T16:47:01Z</time>
      </trkpt>
      <trkpt lat="43.73898" lon="7.10557">
        <ele>509</ele>
        <time>2010-09-08T16:47:10Z</time>
      </trkpt>
      <trkpt lat="43.73916" lon="7.10559">
        <ele>510</ele>
        <time>2010-09-08T16:47:16Z</time>
      </trkpt>
      <trkpt lat="43.73941" lon="7.10563">
        <ele>514</ele>
        <time>2010-09-08T16:47:24Z</time>
      </trkpt>
      <trkpt lat="43.73962" lon="7.10559">
        <ele>515</ele>
        <time>2010-09-08T16:47:31Z</time>
      </trkpt>
      <trkpt lat="43.73985" lon="7.10555">
        <ele>517</ele>
        <time>2010-09-08T16:47:39Z</time>
      </trkpt>
      <trkpt lat="43.74014" lon="7.10552">
        <ele>522</ele>
        <time>2010-09-08T16:47:49Z</time>
      </trkpt>
      <trkpt lat="43.74041" lon="7.10547">
        <ele>524</ele>
        <time>2010-09-08T16:47:58Z</time>
      </trkpt>
      <trkpt lat="43.74068" lon="7.10548">
        <ele>525</ele>
        <time>2010-09-08T16:48:07Z</time>
      </trkpt>
      <trkpt lat="43.74091" lon="7.10548">
        <ele>533</ele>
        <time>2010-09-08T16:48:15Z</time>
      </trkpt>
      <trkpt lat="43.7411" lon="7.10544">
        <ele>534</ele>
        <time>2010-09-08T16:48:22Z</time>
      </trkpt>
      <trkpt lat="43.74132" lon="7.10536">
        <ele>535</ele>
        <time>2010-09-08T16:48:30Z</time>
      </trkpt>
      <trkpt lat="43.74153" lon="7.10522">
        <ele>536</ele>
        <time>2010-09-08T16:48:38Z</time>
      </trkpt>
      <trkpt lat="43.74172" lon="7.10505">
        <ele>540</ele>
        <time>2010-09-08T16:48:46Z</time>
      </trkpt>
      <trkpt lat="43.74189" lon="7.10493">
        <ele>541</ele>
        <time>2010-09-08T16:48:53Z</time>
      </trkpt>
      <trkpt lat="43.74218" lon="7.10479">
        <ele>544</ele>
        <time>2010-09-08T16:49:04Z</time>
      </trkpt>
      <trkpt lat="43.74235" lon="7.10471">
        <ele>545</ele>
        <time>2010-09-08T16:49:11Z</time>
      </trkpt>
      <trkpt lat="43.74255" lon="7.10462">
        <ele>551</ele>
        <time>2010-09-08T16:49:19Z</time>
      </trkpt>
      <trkpt lat="43.7427" lon="7.1045">
        <ele>551</ele>
        <time>2010-09-08T16:49:26Z</time>
      </trkpt>
      <trkpt lat="43.74287" lon="7.10436">
        <ele>551</ele>
        <time>2010-09-08T16:49:34Z</time>
      </trkpt>
      <trkpt lat="43.74307" lon="7.10417">
        <ele>551</ele>
        <time>2010-09-08T16:49:44Z</time>
      </trkpt>
      <trkpt lat="43.74321" lon="7.10404">
        <ele>552</ele>
        <time>2010-09-08T16:49:52Z</time>
      </trkpt>
      <trkpt lat="43.74334" lon="7.10395">
        <ele>557</ele>
        <time>2010-09-08T16:49:59Z</time>
      </trkpt>
      <trkpt lat="43.74346" lon="7.1039">
        <ele>559</ele>
        <time>2010-09-08T16:50:06Z</time>
      </trkpt>
      <trkpt lat="43.74361" lon="7.10385">
        <ele>561</ele>
        <time>2010-09-08T16:50:13Z</time>
      </trkpt>
      <trkpt lat="43.74378" lon="7.10377">
        <ele>563</ele>
        <time>2010-09-08T16:50:21Z</time>
      </trkpt>
      <trkpt lat="43.74396" lon="7.10359">
        <ele>563</ele>
        <time>2010-09-08T16:50:30Z</time>
      </trkpt>
      <trkpt lat="43.74407" lon="7.10341">
        <ele>562</ele>
        <time>2010-09-08T16:50:37Z</time>
      </trkpt>
      <trkpt lat="43.74418" lon="7.1032">
        <ele>566</ele>
        <time>2010-09-08T16:50:45Z</time>
      </trkpt>
      <trkpt lat="43.74429" lon="7.10304">
        <ele>569</ele>
        <time>2010-09-08T16:50:52Z</time>
      </trkpt>
      <trkpt lat="43.74445" lon="7.10288">
        <ele>570</ele>
        <time>2010-09-08T16:51:00Z</time>
      </trkpt>
      <trkpt lat="43.74469" lon="7.10266">
        <ele>571</ele>
        <time>2010-09-08T16:51:12Z</time>
      </trkpt>
      <trkpt lat="43.74494" lon="7.10244">
        <ele>572</ele>
        <time>2010-09-08T16:51:24Z</time>
      </trkpt>
      <trkpt lat="43.74512" lon="7.10228">
        <ele>577</ele>
        <time>2010-09-08T16:51:33Z</time>
      </trkpt>
      <trkpt lat="43.74526" lon="7.10215">
        <ele>580</ele>
        <time>2010-09-08T16:51:40Z</time>
      </trkpt>
      <trkpt lat="43.74545" lon="7.10196">
        <ele>581</ele>
        <time>2010-09-08T16:51:50Z</time>
      </trkpt>
      <trkpt lat="43.74562" lon="7.10182">
        <ele>581</ele>
        <time>2010-09-08T16:51:58Z</time>
      </trkpt>
      <trkpt lat="43.74582" lon="7.10163">
        <ele>580</ele>
        <time>2010-09-08T16:52:07Z</time>
      </trkpt>
      <trkpt lat="43.74608" lon="7.10138">
        <ele>585</ele>
        <time>2010-09-08T16:52:18Z</time>
      </trkpt>
      <trkpt lat="43.74626" lon="7.10121">
        <ele>586</ele>
        <time>2010-09-08T16:52:26Z</time>
      </trkpt>
      <trkpt lat="43.74642" lon="7.101">
        <ele>586</ele>
        <time>2010-09-08T16:52:34Z</time>
      </trkpt>
      <trkpt lat="43.74648" lon="7.10082">
        <ele>588</ele>
        <time>2010-09-08T16:52:39Z</time>
      </trkpt>
      <trkpt lat="43.74657" lon="7.10049">
        <ele>589</ele>
        <time>2010-09-08T16:52:48Z</time>
      </trkpt>
      <trkpt lat="43.74667" lon="7.10008">
        <ele>592</ele>
        <time>2010-09-08T16:52:59Z</time>
      </trkpt>
      <trkpt lat="43.74677" lon="7.09973">
        <ele>599</ele>
        <time>2010-09-08T16:53:09Z</time>
      </trkpt>
      <trkpt lat="43.74685" lon="7.09945">
        <ele>601</ele>
        <time>2010-09-08T16:53:17Z</time>
      </trkpt>
      <trkpt lat="43.74697" lon="7.09914">
        <ele>603</ele>
        <time>2010-09-08T16:53:26Z</time>
      </trkpt>
      <trkpt lat="43.74705" lon="7.09891">
        <ele>605</ele>
        <time>2010-09-08T16:53:33Z</time>
      </trkpt>
      <trkpt lat="43.74713" lon="7.09872">
        <ele>606</ele>
        <time>2010-09-08T16:53:38Z</time>
      </trkpt>
      <trkpt lat="43.7473" lon="7.09846">
        <ele>606</ele>
        <time>2010-09-08T16:53:45Z</time>
      </trkpt>
      <trkpt lat="43.74753" lon="7.09815">
        <ele>612</ele>
        <time>2010-09-08T16:53:54Z</time>
      </trkpt>
      <trkpt lat="43.74768" lon="7.09793">
        <ele>616</ele>
        <time>2010-09-08T16:54:00Z</time>
      </trkpt>
      <trkpt lat="43.74781" lon="7.09769">
        <ele>616</ele>
        <time>2010-09-08T16:54:06Z</time>
      </trkpt>
      <trkpt lat="43.74799" lon="7.09739">
        <ele>616</ele>
        <time>2010-09-08T16:54:14Z</time>
      </trkpt>
      <trkpt lat="43.74811" lon="7.09722">
        <ele>617</ele>
        <time>2010-09-08T16:54:20Z</time>
      </trkpt>
      <trkpt lat="43.74823" lon="7.09705">
        <ele>616</ele>
        <time>2010-09-08T16:54:27Z</time>
      </trkpt>
      <trkpt lat="43.74838" lon="7.09686">
        <ele>622</ele>
        <time>2010-09-08T16:54:35Z</time>
      </trkpt>
      <trkpt lat="43.74852" lon="7.09665">
        <ele>619</ele>
        <time>2010-09-08T16:54:43Z</time>
      </trkpt>
      <trkpt lat="43.74867" lon="7.09647">
        <ele>622</ele>
        <time>2010-09-08T16:54:50Z</time>
      </trkpt>
      <trkpt lat="43.74883" lon="7.09633">
        <ele>624</ele>
        <time>2010-09-08T16:54:57Z</time>
      </trkpt>
      <trkpt lat="43.74904" lon="7.09621">
        <ele>624</ele>
        <time>2010-09-08T16:55:06Z</time>
      </trkpt>
      <trkpt lat="43.74925" lon="7.09608">
        <ele>631</ele>
        <time>2010-09-08T16:55:15Z</time>
      </trkpt>
      <trkpt lat="43.74947" lon="7.09596">
        <ele>632</ele>
        <time>2010-09-08T16:55:24Z</time>
      </trkpt>
      <trkpt lat="43.7497" lon="7.09582">
        <ele>633</ele>
        <time>2010-09-08T16:55:34Z</time>
      </trkpt>
      <trkpt lat="43.74989" lon="7.09571">
        <ele>633</ele>
        <time>2010-09-08T16:55:42Z</time>
      </trkpt>
      <trkpt lat="43.75011" lon="7.09559">
        <ele>638</ele>
        <time>2010-09-08T16:55:51Z</time>
      </trkpt>
      <trkpt lat="43.75017" lon="7.09559">
        <ele>638</ele>
        <time>2010-09-08T16:55:53Z</time>
      </trkpt>
      <trkpt lat="43.7502" lon="7.09573">
        <ele>637</ele>
        <time>2010-09-08T16:55:57Z</time>
      </trkpt>
      <trkpt lat="43.75011" lon="7.09579">
        <ele>635</ele>
        <time>2010-09-08T16:56:00Z</time>
      </trkpt>
      <trkpt lat="43.75008" lon="7.0958">
        <ele>635</ele>
        <time>2010-09-08T16:56:01Z</time>
      </trkpt>
      <trkpt lat="43.74986" lon="7.09585">
        <ele>634</ele>
        <time>2010-09-08T16:56:08Z</time>
      </trkpt>
      <trkpt lat="43.74962" lon="7.09604">
        <ele>634</ele>
        <time>2010-09-08T16:56:17Z</time>
      </trkpt>
      <trkpt lat="43.74934" lon="7.09627">
        <ele>634</ele>
        <time>2010-09-08T16:56:28Z</time>
      </trkpt>
      <trkpt lat="43.7492" lon="7.09643">
        <ele>635</ele>
        <time>2010-09-08T16:56:34Z</time>
      </trkpt>
      <trkpt lat="43.74923" lon="7.09657">
        <ele>635</ele>
        <time>2010-09-08T16:56:38Z</time>
      </trkpt>
      <trkpt lat="43.74935" lon="7.09656">
        <ele>636</ele>
        <time>2010-09-08T16:56:42Z</time>
      </trkpt>
      <trkpt lat="43.74941" lon="7.09652">
        <ele>636</ele>
        <time>2010-09-08T16:56:44Z</time>
      </trkpt>
      <trkpt lat="43.74967" lon="7.0963">
        <ele>637</ele>
        <time>2010-09-08T16:56:54Z</time>
      </trkpt>
      <trkpt lat="43.74991" lon="7.0962">
        <ele>638</ele>
        <time>2010-09-08T16:57:03Z</time>
      </trkpt>
      <trkpt lat="43.75014" lon="7.09616">
        <ele>647</ele>
        <time>2010-09-08T16:57:12Z</time>
      </trkpt>
      <trkpt lat="43.75035" lon="7.09613">
        <ele>648</ele>
        <time>2010-09-08T16:57:20Z</time>
      </trkpt>
      <trkpt lat="43.75061" lon="7.09606">
        <ele>649</ele>
        <time>2010-09-08T16:57:30Z</time>
      </trkpt>
      <trkpt lat="43.75084" lon="7.09598">
        <ele>653</ele>
        <time>2010-09-08T16:57:39Z</time>
      </trkpt>
      <trkpt lat="43.75104" lon="7.09591">
        <ele>655</ele>
        <time>2010-09-08T16:57:47Z</time>
      </trkpt>
      <trkpt lat="43.75119" lon="7.09587">
        <ele>658</ele>
        <time>2010-09-08T16:57:53Z</time>
      </trkpt>
      <trkpt lat="43.75139" lon="7.09589">
        <ele>660</ele>
        <time>2010-09-08T16:58:01Z</time>
      </trkpt>
      <trkpt lat="43.75159" lon="7.09589">
        <ele>660</ele>
        <time>2010-09-08T16:58:09Z</time>
      </trkpt>
      <trkpt lat="43.75167" lon="7.09578">
        <ele>659</ele>
        <time>2010-09-08T16:58:14Z</time>
      </trkpt>
      <trkpt lat="43.75173" lon="7.09551">
        <ele>660</ele>
        <time>2010-09-08T16:58:21Z</time>
      </trkpt>
      <trkpt lat="43.75181" lon="7.09532">
        <ele>659</ele>
        <time>2010-09-08T16:58:27Z</time>
      </trkpt>
      <trkpt lat="43.75195" lon="7.09515">
        <ele>659</ele>
        <time>2010-09-08T16:58:34Z</time>
      </trkpt>
      <trkpt lat="43.75208" lon="7.09502">
        <ele>660</ele>
        <time>2010-09-08T16:58:40Z</time>
      </trkpt>
      <trkpt lat="43.75227" lon="7.09487">
        <ele>659</ele>
        <time>2010-09-08T16:58:48Z</time>
      </trkpt>
      <trkpt lat="43.75246" lon="7.09482">
        <ele>660</ele>
        <time>2010-09-08T16:58:56Z</time>
      </trkpt>
      <trkpt lat="43.75268" lon="7.09479">
        <ele>667</ele>
        <time>2010-09-08T16:59:05Z</time>
      </trkpt>
      <trkpt lat="43.75294" lon="7.09473">
        <ele>670</ele>
        <time>2010-09-08T16:59:15Z</time>
      </trkpt>
      <trkpt lat="43.75317" lon="7.09465">
        <ele>672</ele>
        <time>2010-09-08T16:59:24Z</time>
      </trkpt>
      <trkpt lat="43.75336" lon="7.09455">
        <ele>683</ele>
        <time>2010-09-08T16:59:32Z</time>
      </trkpt>
      <trkpt lat="43.75363" lon="7.09442">
        <ele>684</ele>
        <time>2010-09-08T16:59:43Z</time>
      </trkpt>
      <trkpt lat="43.75384" lon="7.0943">
        <ele>686</ele>
        <time>2010-09-08T16:59:52Z</time>
      </trkpt>
      <trkpt lat="43.75404" lon="7.09412">
        <ele>685</ele>
        <time>2010-09-08T17:00:01Z</time>
      </trkpt>
      <trkpt lat="43.75427" lon="7.09382">
        <ele>695</ele>
        <time>2010-09-08T17:00:13Z</time>
      </trkpt>
      <trkpt lat="43.7544" lon="7.09354">
        <ele>695</ele>
        <time>2010-09-08T17:00:22Z</time>
      </trkpt>
      <trkpt lat="43.75452" lon="7.09324">
        <ele>697</ele>
        <time>2010-09-08T17:00:32Z</time>
      </trkpt>
      <trkpt lat="43.75453" lon="7.09306">
        <ele>698</ele>
        <time>2010-09-08T17:00:37Z</time>
      </trkpt>
      <trkpt lat="43.75445" lon="7.09296">
        <ele>697</ele>
        <time>2010-09-08T17:00:41Z</time>
      </trkpt>
      <trkpt lat="43.75435" lon="7.09299">
        <ele>696</ele>
        <time>2010-09-08T17:00:45Z</time>
      </trkpt>
      <trkpt lat="43.75422" lon="7.09313">
        <ele>693</ele>
        <time>2010-09-08T17:00:51Z</time>
      </trkpt>
      <trkpt lat="43.75404" lon="7.09329">
        <ele>689</ele>
        <time>2010-09-08T17:00:59Z</time>
      </trkpt>
      <trkpt lat="43.75384" lon="7.09336">
        <ele>684</ele>
        <time>2010-09-08T17:01:07Z</time>
      </trkpt>
      <trkpt lat="43.75364" lon="7.09334">
        <ele>684</ele>
        <time>2010-09-08T17:01:15Z</time>
      </trkpt>
      <trkpt lat="43.75339" lon="7.09324">
        <ele>690</ele>
        <time>2010-09-08T17:01:25Z</time>
      </trkpt>
      <trkpt lat="43.75316" lon="7.09308">
        <ele>689</ele>
        <time>2010-09-08T17:01:35Z</time>
      </trkpt>
      <trkpt lat="43.75294" lon="7.09289">
        <ele>690</ele>
        <time>2010-09-08T17:01:45Z</time>
      </trkpt>
      <trkpt lat="43.75276" lon="7.09268">
        <ele>691</ele>
        <time>2010-09-08T17:01:54Z</time>
      </trkpt>
      <trkpt lat="43.75269" lon="7.09241">
        <ele>699</ele>
        <time>2010-09-08T17:02:02Z</time>
      </trkpt>
      <trkpt lat="43.75266" lon="7.09213">
        <ele>701</ele>
        <time>2010-09-08T17:02:10Z</time>
      </trkpt>
      <trkpt lat="43.75264" lon="7.09181">
        <ele>702</ele>
        <time>2010-09-08T17:02:19Z</time>
      </trkpt>
      <trkpt lat="43.75262" lon="7.0915">
        <ele>708</ele>
        <time>2010-09-08T17:02:28Z</time>
      </trkpt>
      <trkpt lat="43.75262" lon="7.09116">
        <ele>711</ele>
        <time>2010-09-08T17:02:38Z</time>
      </trkpt>
      <trkpt lat="43.75263" lon="7.09088">
        <ele>711</ele>
        <time>2010-09-08T17:02:46Z</time>
      </trkpt>
      <trkpt lat="43.75263" lon="7.09058">
        <ele>718</ele>
        <time>2010-09-08T17:02:54Z</time>
      </trkpt>
      <trkpt lat="43.75261" lon="7.09037">
        <ele>720</ele>
        <time>2010-09-08T17:03:00Z</time>
      </trkpt>
      <trkpt lat="43.75254" lon="7.09011">
        <ele>719</ele>
        <time>2010-09-08T17:03:07Z</time>
      </trkpt>
      <trkpt lat="43.75248" lon="7.08981">
        <ele>725</ele>
        <time>2010-09-08T17:03:15Z</time>
      </trkpt>
      <trkpt lat="43.75248" lon="7.08978">
        <ele>726</ele>
        <time>2010-09-08T17:03:16Z</time>
      </trkpt>
      <trkpt lat="43.75259" lon="7.08969">
        <ele>727</ele>
        <time>2010-09-08T17:03:21Z</time>
      </trkpt>
      <trkpt lat="43.75267" lon="7.08979">
        <ele>727</ele>
        <time>2010-09-08T17:03:25Z</time>
      </trkpt>
      <trkpt lat="43.75268" lon="7.08983">
        <ele>726</ele>
        <time>2010-09-08T17:03:26Z</time>
      </trkpt>
      <trkpt lat="43.75279" lon="7.09029">
        <ele>722</ele>
        <time>2010-09-08T17:03:38Z</time>
      </trkpt>
      <trkpt lat="43.75289" lon="7.09063">
        <ele>721</ele>
        <time>2010-09-08T17:03:47Z</time>
      </trkpt>
      <trkpt lat="43.75305" lon="7.09088">
        <ele>717</ele>
        <time>2010-09-08T17:03:56Z</time>
      </trkpt>
      <trkpt lat="43.7532" lon="7.09103">
        <ele>719</ele>
        <time>2010-09-08T17:04:03Z</time>
      </trkpt>
      <trkpt lat="43.7534" lon="7.09114">
        <ele>722</ele>
        <time>2010-09-08T17:04:11Z</time>
      </trkpt>
      <trkpt lat="43.75358" lon="7.09117">
        <ele>721</ele>
        <time>2010-09-08T17:04:18Z</time>
      </trkpt>
      <trkpt lat="43.75375" lon="7.09109">
        <ele>722</ele>
        <time>2010-09-08T17:04:25Z</time>
      </trkpt>
      <trkpt lat="43.75391" lon="7.09088">
        <ele>723</ele>
        <time>2010-09-08T17:04:33Z</time>
      </trkpt>
      <trkpt lat="43.75407" lon="7.0906">
        <ele>729</ele>
        <time>2010-09-08T17:04:43Z</time>
      </trkpt>
      <trkpt lat="43.75422" lon="7.09026">
        <ele>728</ele>
        <time>2010-09-08T17:04:54Z</time>
      </trkpt>
      <trkpt lat="43.75431" lon="7.09004">
        <ele>730</ele>
        <time>2010-09-08T17:05:01Z</time>
      </trkpt>
      <trkpt lat="43.75443" lon="7.08978">
        <ele>734</ele>
        <time>2010-09-08T17:05:10Z</time>
      </trkpt>
      <trkpt lat="43.75453" lon="7.08954">
        <ele>735</ele>
        <time>2010-09-08T17:05:18Z</time>
      </trkpt>
      <trkpt lat="43.75461" lon="7.0892">
        <ele>735</ele>
        <time>2010-09-08T17:05:28Z</time>
      </trkpt>
      <trkpt lat="43.75465" lon="7.08893">
        <ele>743</ele>
        <time>2010-09-08T17:05:36Z</time>
      </trkpt>
      <trkpt lat="43.7547" lon="7.08866">
        <ele>744</ele>
        <time>2010-09-08T17:05:44Z</time>
      </trkpt>
      <trkpt lat="43.75478" lon="7.08835">
        <ele>745</ele>
        <time>2010-09-08T17:05:53Z</time>
      </trkpt>
      <trkpt lat="43.75486" lon="7.08809">
        <ele>753</ele>
        <time>2010-09-08T17:06:01Z</time>
      </trkpt>
      <trkpt lat="43.75497" lon="7.08795">
        <ele>755</ele>
        <time>2010-09-08T17:06:07Z</time>
      </trkpt>
      <trkpt lat="43.75509" lon="7.08794">
        <ele>752</ele>
        <time>2010-09-08T17:06:12Z</time>
      </trkpt>
      <trkpt lat="43.75533" lon="7.08801">
        <ele>751</ele>
        <time>2010-09-08T17:06:21Z</time>
      </trkpt>
      <trkpt lat="43.7555" lon="7.08799">
        <ele>751</ele>
        <time>2010-09-08T17:06:28Z</time>
      </trkpt>
      <trkpt lat="43.75563" lon="7.08789">
        <ele>752</ele>
        <time>2010-09-08T17:06:34Z</time>
      </trkpt>
      <trkpt lat="43.75582" lon="7.08771">
        <ele>754</ele>
        <time>2010-09-08T17:06:43Z</time>
      </trkpt>
      <trkpt lat="43.75597" lon="7.08757">
        <ele>754</ele>
        <time>2010-09-08T17:06:50Z</time>
      </trkpt>
      <trkpt lat="43.75614" lon="7.08732">
        <ele>760</ele>
        <time>2010-09-08T17:07:00Z</time>
      </trkpt>
      <trkpt lat="43.75624" lon="7.08708">
        <ele>761</ele>
        <time>2010-09-08T17:07:08Z</time>
      </trkpt>
      <trkpt lat="43.7563" lon="7.08686">
        <ele>762</ele>
        <time>2010-09-08T17:07:15Z</time>
      </trkpt>
      <trkpt lat="43.75633" lon="7.08655">
        <ele>771</ele>
        <time>2010-09-08T17:07:24Z</time>
      </trkpt>
      <trkpt lat="43.75633" lon="7.08631">
        <ele>772</ele>
        <time>2010-09-08T17:07:31Z</time>
      </trkpt>
      <trkpt lat="43.75637" lon="7.08608">
        <ele>774</ele>
        <time>2010-09-08T17:07:38Z</time>
      </trkpt>
      <trkpt lat="43.7565" lon="7.08598">
        <ele>774</ele>
        <time>2010-09-08T17:07:44Z</time>
      </trkpt>
      <trkpt lat="43.75668" lon="7.08598">
        <ele>773</ele>
        <time>2010-09-08T17:07:51Z</time>
      </trkpt>
      <trkpt lat="43.75688" lon="7.08592">
        <ele>774</ele>
        <time>2010-09-08T17:07:59Z</time>
      </trkpt>
      <trkpt lat="43.75706" lon="7.08578">
        <ele>784</ele>
        <time>2010-09-08T17:08:07Z</time>
      </trkpt>
      <trkpt lat="43.75723" lon="7.08564">
        <ele>786</ele>
        <time>2010-09-08T17:08:15Z</time>
      </trkpt>
      <trkpt lat="43.75737" lon="7.08564">
        <ele>785</ele>
        <time>2010-09-08T17:08:21Z</time>
      </trkpt>
      <trkpt lat="43.75746" lon="7.08575">
        <ele>783</ele>
        <time>2010-09-08T17:08:26Z</time>
      </trkpt>
      <trkpt lat="43.7575" lon="7.08592">
        <ele>782</ele>
        <time>2010-09-08T17:08:31Z</time>
      </trkpt>
      <trkpt lat="43.75756" lon="7.08619">
        <ele>783</ele>
        <time>2010-09-08T17:08:39Z</time>
      </trkpt>
      <trkpt lat="43.75768" lon="7.08637">
        <ele>782</ele>
        <time>2010-09-08T17:08:46Z</time>
      </trkpt>
      <trkpt lat="43.75791" lon="7.08651">
        <ele>784</ele>
        <time>2010-09-08T17:08:56Z</time>
      </trkpt>
      <trkpt lat="43.75817" lon="7.08662">
        <ele>786</ele>
        <time>2010-09-08T17:09:06Z</time>
      </trkpt>
      <trkpt lat="43.75837" lon="7.08673">
        <ele>788</ele>
        <time>2010-09-08T17:09:15Z</time>
      </trkpt>
      <trkpt lat="43.75846" lon="7.08686">
        <ele>787</ele>
        <time>2010-09-08T17:09:19Z</time>
      </trkpt>
      <trkpt lat="43.75855" lon="7.08698">
        <ele>787</ele>
        <time>2010-09-08T17:09:22Z</time>
      </trkpt>
      <trkpt lat="43.75852" lon="7.08709">
        <ele>786</ele>
        <time>2010-09-08T17:09:26Z</time>
      </trkpt>
      <trkpt lat="43.75853" lon="7.0871">
        <ele>786</ele>
        <time>2010-09-08T17:09:32Z</time>
      </trkpt>
      <trkpt lat="43.75853" lon="7.0871">
        <ele>786</ele>
        <time>2010-09-08T17:09:38Z</time>
      </trkpt>
      <trkpt lat="43.75853" lon="7.08709">
        <ele>786</ele>
        <time>2010-09-08T17:09:56Z</time>
      </trkpt>
      <trkpt lat="43.75853" lon="7.08708">
        <ele>786</ele>
        <time>2010-09-08T17:10:01Z</time>
      </trkpt>
      <trkpt lat="43.75853" lon="7.08708">
        <ele>786</ele>
        <time>2010-09-08T17:10:14Z</time>
      </trkpt>
      <trkpt lat="43.75853" lon="7.08707">
        <ele>786</ele>
        <time>2010-09-08T17:10:22Z</time>
      </trkpt>
      <trkpt lat="43.75853" lon="7.08707">
        <ele>786</ele>
        <time>2010-09-08T17:10:28Z</time>
      </trkpt>
      <trkpt lat="43.75853" lon="7.08708">
        <ele>786</ele>
        <time>2010-09-08T17:10:35Z</time>
      </trkpt>
      <trkpt lat="43.75853" lon="7.0871">
        <ele>786</ele>
        <time>2010-09-08T17:10:38Z</time>
      </trkpt>
      <trkpt lat="43.75856" lon="7.08725">
        <ele>785</ele>
        <time>2010-09-08T17:10:43Z</time>
      </trkpt>
      <trkpt lat="43.75867" lon="7.08742">
        <ele>785</ele>
        <time>2010-09-08T17:10:49Z</time>
      </trkpt>
      <trkpt lat="43.75874" lon="7.08747">
        <ele>785</ele>
        <time>2010-09-08T17:10:53Z</time>
      </trkpt>
      <trkpt lat="43.75876" lon="7.0875">
        <ele>782</ele>
        <time>2010-09-08T17:10:59Z</time>
      </trkpt>
      <trkpt lat="43.75875" lon="7.08751">
        <ele>782</ele>
        <time>2010-09-08T17:11:05Z</time>
      </trkpt>
      <trkpt lat="43.75877" lon="7.08752">
        <ele>782</ele>
        <time>2010-09-08T17:11:12Z</time>
      </trkpt>
      <trkpt lat="43.75878" lon="7.08753">
        <ele>782</ele>
        <time>2010-09-08T17:11:18Z</time>
      </trkpt>
      <trkpt lat="43.75886" lon="7.08762">
        <ele>782</ele>
        <time>2010-09-08T17:11:23Z</time>
      </trkpt>
      <trkpt lat="43.759" lon="7.08766">
        <ele>783</ele>
        <time>2010-09-08T17:11:28Z</time>
      </trkpt>
      <trkpt lat="43.75913" lon="7.08768">
        <ele>783</ele>
        <time>2010-09-08T17:11:32Z</time>
      </trkpt>
      <trkpt lat="43.75916" lon="7.08777">
        <ele>783</ele>
        <time>2010-09-08T17:11:35Z</time>
      </trkpt>
      <trkpt lat="43.75925" lon="7.0878">
        <ele>781</ele>
        <time>2010-09-08T17:11:38Z</time>
      </trkpt>
      <trkpt lat="43.75932" lon="7.08781">
        <ele>781</ele>
        <time>2010-09-08T17:11:40Z</time>
      </trkpt>
      <trkpt lat="43.7594" lon="7.08789">
        <ele>780</ele>
        <time>2010-09-08T17:11:43Z</time>
      </trkpt>
      <trkpt lat="43.75945" lon="7.08788">
        <ele>780</ele>
        <time>2010-09-08T17:11:46Z</time>
      </trkpt>
      <trkpt lat="43.75947" lon="7.08789">
        <ele>780</ele>
        <time>2010-09-08T17:11:52Z</time>
      </trkpt>
      <trkpt lat="43.75952" lon="7.08793">
        <ele>780</ele>
        <time>2010-09-08T17:11:57Z</time>
      </trkpt>
      <trkpt lat="43.75962" lon="7.088">
        <ele>779</ele>
        <time>2010-09-08T17:12:02Z</time>
      </trkpt>
      <trkpt lat="43.75975" lon="7.08814">
        <ele>778</ele>
        <time>2010-09-08T17:12:07Z</time>
      </trkpt>
      <trkpt lat="43.75986" lon="7.08821">
        <ele>777</ele>
        <time>2010-09-08T17:12:11Z</time>
      </trkpt>
      <trkpt lat="43.7599" lon="7.08826">
        <ele>776</ele>
        <time>2010-09-08T17:12:13Z</time>
      </trkpt>
      <trkpt lat="43.76001" lon="7.08839">
        <ele>774</ele>
        <time>2010-09-08T17:12:18Z</time>
      </trkpt>
      <trkpt lat="43.76005" lon="7.08845">
        <ele>774</ele>
        <time>2010-09-08T17:12:21Z</time>
      </trkpt>
      <trkpt lat="43.76008" lon="7.08854">
        <ele>774</ele>
        <time>2010-09-08T17:12:23Z</time>
      </trkpt>
      <trkpt lat="43.76013" lon="7.08869">
        <ele>774</ele>
        <time>2010-09-08T17:12:27Z</time>
      </trkpt>
      <trkpt lat="43.76019" lon="7.08878">
        <ele>774</ele>
        <time>2010-09-08T17:12:32Z</time>
      </trkpt>
      <trkpt lat="43.76023" lon="7.08885">
        <ele>774</ele>
        <time>2010-09-08T17:12:35Z</time>
      </trkpt>
      <trkpt lat="43.76025" lon="7.08889">
        <ele>774</ele>
        <time>2010-09-08T17:12:41Z</time>
      </trkpt>
      <trkpt lat="43.76031" lon="7.08897">
        <ele>773</ele>
        <time>2010-09-08T17:12:46Z</time>
      </trkpt>
      <trkpt lat="43.76035" lon="7.08904">
        <ele>773</ele>
        <time>2010-09-08T17:12:49Z</time>
      </trkpt>
      <trkpt lat="43.76043" lon="7.08919">
        <ele>770</ele>
        <time>2010-09-08T17:12:56Z</time>
      </trkpt>
      <trkpt lat="43.7605" lon="7.08933">
        <ele>769</ele>
        <time>2010-09-08T17:13:01Z</time>
      </trkpt>
      <trkpt lat="43.76052" lon="7.08945">
        <ele>769</ele>
        <time>2010-09-08T17:13:05Z</time>
      </trkpt>
      <trkpt lat="43.76058" lon="7.08958">
        <ele>768</ele>
        <time>2010-09-08T17:13:10Z</time>
      </trkpt>
      <trkpt lat="43.76066" lon="7.08972">
        <ele>767</ele>
        <time>2010-09-08T17:13:15Z</time>
      </trkpt>
      <trkpt lat="43.76073" lon="7.08996">
        <ele>763</ele>
        <time>2010-09-08T17:13:22Z</time>
      </trkpt>
      <trkpt lat="43.76075" lon="7.09003">
        <ele>762</ele>
        <time>2010-09-08T17:13:24Z</time>
      </trkpt>
      <trkpt lat="43.76076" lon="7.09016">
        <ele>763</ele>
        <time>2010-09-08T17:13:28Z</time>
      </trkpt>
      <trkpt lat="43.76081" lon="7.09042">
        <ele>764</ele>
        <time>2010-09-08T17:13:33Z</time>
      </trkpt>
      <trkpt lat="43.76084" lon="7.09056">
        <ele>757</ele>
        <time>2010-09-08T17:13:37Z</time>
      </trkpt>
      <trkpt lat="43.76085" lon="7.09057">
        <ele>756</ele>
        <time>2010-09-08T17:13:42Z</time>
      </trkpt>
      <trkpt lat="43.76088" lon="7.09063">
        <ele>756</ele>
        <time>2010-09-08T17:13:47Z</time>
      </trkpt>
      <trkpt lat="43.76092" lon="7.09078">
        <ele>756</ele>
        <time>2010-09-08T17:13:56Z</time>
      </trkpt>
      <trkpt lat="43.76092" lon="7.0908">
        <ele>756</ele>
        <time>2010-09-08T17:13:57Z</time>
      </trkpt>
      <trkpt lat="43.76096" lon="7.09087">
        <ele>753</ele>
        <time>2010-09-08T17:14:04Z</time>
      </trkpt>
      <trkpt lat="43.76097" lon="7.09088">
        <ele>753</ele>
        <time>2010-09-08T17:14:10Z</time>
      </trkpt>
      <trkpt lat="43.76099" lon="7.09097">
        <ele>752</ele>
        <time>2010-09-08T17:14:14Z</time>
      </trkpt>
      <trkpt lat="43.76102" lon="7.09102">
        <ele>752</ele>
        <time>2010-09-08T17:14:20Z</time>
      </trkpt>
      <trkpt lat="43.76106" lon="7.09114">
        <ele>751</ele>
        <time>2010-09-08T17:14:26Z</time>
      </trkpt>
      <trkpt lat="43.76107" lon="7.09116">
        <ele>751</ele>
        <time>2010-09-08T17:14:31Z</time>
      </trkpt>
      <trkpt lat="43.7611" lon="7.09126">
        <ele>750</ele>
        <time>2010-09-08T17:14:37Z</time>
      </trkpt>
      <trkpt lat="43.76115" lon="7.09138">
        <ele>750</ele>
        <time>2010-09-08T17:14:42Z</time>
      </trkpt>
      <trkpt lat="43.76115" lon="7.09155">
        <ele>749</ele>
        <time>2010-09-08T17:14:47Z</time>
      </trkpt>
      <trkpt lat="43.76113" lon="7.09162">
        <ele>749</ele>
        <time>2010-09-08T17:14:50Z</time>
      </trkpt>
      <trkpt lat="43.76112" lon="7.09165">
        <ele>750</ele>
        <time>2010-09-08T17:14:57Z</time>
      </trkpt>
      <trkpt lat="43.76116" lon="7.09176">
        <ele>745</ele>
        <time>2010-09-08T17:15:04Z</time>
      </trkpt>
      <trkpt lat="43.76118" lon="7.09184">
        <ele>745</ele>
        <time>2010-09-08T17:15:10Z</time>
      </trkpt>
      <trkpt lat="43.76119" lon="7.09191">
        <ele>744</ele>
        <time>2010-09-08T17:15:15Z</time>
      </trkpt>
      <trkpt lat="43.76121" lon="7.09201">
        <ele>743</ele>
        <time>2010-09-08T17:15:21Z</time>
      </trkpt>
      <trkpt lat="43.76121" lon="7.09207">
        <ele>743</ele>
        <time>2010-09-08T17:15:25Z</time>
      </trkpt>
      <trkpt lat="43.76123" lon="7.09214">
        <ele>743</ele>
        <time>2010-09-08T17:15:32Z</time>
      </trkpt>
      <trkpt lat="43.76125" lon="7.09221">
        <ele>742</ele>
        <time>2010-09-08T17:15:37Z</time>
      </trkpt>
      <trkpt lat="43.76129" lon="7.09236">
        <ele>741</ele>
        <time>2010-09-08T17:15:42Z</time>
      </trkpt>
      <trkpt lat="43.76131" lon="7.0924">
        <ele>741</ele>
        <time>2010-09-08T17:15:44Z</time>
      </trkpt>
      <trkpt lat="43.7613" lon="7.09258">
        <ele>737</ele>
        <time>2010-09-08T17:15:50Z</time>
      </trkpt>
      <trkpt lat="43.76127" lon="7.0927">
        <ele>737</ele>
        <time>2010-09-08T17:15:54Z</time>
      </trkpt>
      <trkpt lat="43.76124" lon="7.09274">
        <ele>737</ele>
        <time>2010-09-08T17:15:56Z</time>
      </trkpt>
      <trkpt lat="43.76123" lon="7.09275">
        <ele>737</ele>
        <time>2010-09-08T17:15:58Z</time>
      </trkpt>
      <trkpt lat="43.76122" lon="7.09279">
        <ele>737</ele>
        <time>2010-09-08T17:16:03Z</time>
      </trkpt>
      <trkpt lat="43.76121" lon="7.09287">
        <ele>737</ele>
        <time>2010-09-08T17:16:08Z</time>
      </trkpt>
      <trkpt lat="43.7612" lon="7.093">
        <ele>737</ele>
        <time>2010-09-08T17:16:13Z</time>
      </trkpt>
      <trkpt lat="43.76124" lon="7.09313">
        <ele>736</ele>
        <time>2010-09-08T17:16:19Z</time>
      </trkpt>
      <trkpt lat="43.7613" lon="7.09329">
        <ele>734</ele>
        <time>2010-09-08T17:16:24Z</time>
      </trkpt>
      <trkpt lat="43.76134" lon="7.09341">
        <ele>730</ele>
        <time>2010-09-08T17:16:28Z</time>
      </trkpt>
      <trkpt lat="43.76134" lon="7.09351">
        <ele>730</ele>
        <time>2010-09-08T17:16:31Z</time>
      </trkpt>
      <trkpt lat="43.76139" lon="7.09364">
        <ele>729</ele>
        <time>2010-09-08T17:16:36Z</time>
      </trkpt>
      <trkpt lat="43.76142" lon="7.09375">
        <ele>728</ele>
        <time>2010-09-08T17:16:41Z</time>
      </trkpt>
      <trkpt lat="43.76144" lon="7.09383">
        <ele>728</ele>
        <time>2010-09-08T17:16:46Z</time>
      </trkpt>
      <trkpt lat="43.76147" lon="7.09394">
        <ele>726</ele>
        <time>2010-09-08T17:16:50Z</time>
      </trkpt>
      <trkpt lat="43.76152" lon="7.09414">
        <ele>723</ele>
        <time>2010-09-08T17:16:55Z</time>
      </trkpt>
      <trkpt lat="43.76153" lon="7.09422">
        <ele>721</ele>
        <time>2010-09-08T17:16:57Z</time>
      </trkpt>
      <trkpt lat="43.76156" lon="7.09433">
        <ele>721</ele>
        <time>2010-09-08T17:17:03Z</time>
      </trkpt>
      <trkpt lat="43.76159" lon="7.09442">
        <ele>721</ele>
        <time>2010-09-08T17:17:07Z</time>
      </trkpt>
      <trkpt lat="43.7616" lon="7.09443">
        <ele>721</ele>
        <time>2010-09-08T17:17:09Z</time>
      </trkpt>
      <trkpt lat="43.76163" lon="7.09448">
        <ele>721</ele>
        <time>2010-09-08T17:17:15Z</time>
      </trkpt>
      <trkpt lat="43.76164" lon="7.09452">
        <ele>721</ele>
        <time>2010-09-08T17:17:18Z</time>
      </trkpt>
      <trkpt lat="43.76165" lon="7.09456">
        <ele>721</ele>
        <time>2010-09-08T17:17:20Z</time>
      </trkpt>
      <trkpt lat="43.76168" lon="7.09468">
        <ele>713</ele>
        <time>2010-09-08T17:17:25Z</time>
      </trkpt>
      <trkpt lat="43.76172" lon="7.09489">
        <ele>712</ele>
        <time>2010-09-08T17:17:31Z</time>
      </trkpt>
      <trkpt lat="43.76172" lon="7.09492">
        <ele>713</ele>
        <time>2010-09-08T17:17:32Z</time>
      </trkpt>
      <trkpt lat="43.76174" lon="7.09512">
        <ele>710</ele>
        <time>2010-09-08T17:17:38Z</time>
      </trkpt>
      <trkpt lat="43.76174" lon="7.09527">
        <ele>709</ele>
        <time>2010-09-08T17:17:43Z</time>
      </trkpt>
      <trkpt lat="43.76175" lon="7.09531">
        <ele>708</ele>
        <time>2010-09-08T17:17:44Z</time>
      </trkpt>
      <trkpt lat="43.76174" lon="7.09553">
        <ele>707</ele>
        <time>2010-09-08T17:17:50Z</time>
      </trkpt>
      <trkpt lat="43.76177" lon="7.0958">
        <ele>707</ele>
        <time>2010-09-08T17:17:57Z</time>
      </trkpt>
      <trkpt lat="43.76178" lon="7.09584">
        <ele>704</ele>
        <time>2010-09-08T17:17:58Z</time>
      </trkpt>
      <trkpt lat="43.76176" lon="7.096">
        <ele>703</ele>
        <time>2010-09-08T17:18:02Z</time>
      </trkpt>
      <trkpt lat="43.76174" lon="7.09618">
        <ele>701</ele>
        <time>2010-09-08T17:18:07Z</time>
      </trkpt>
      <trkpt lat="43.7617" lon="7.09635">
        <ele>700</ele>
        <time>2010-09-08T17:18:12Z</time>
      </trkpt>
      <trkpt lat="43.76163" lon="7.09646">
        <ele>705</ele>
        <time>2010-09-08T17:18:18Z</time>
      </trkpt>
      <trkpt lat="43.76154" lon="7.09662">
        <ele>703</ele>
        <time>2010-09-08T17:18:23Z</time>
      </trkpt>
      <trkpt lat="43.76147" lon="7.09672">
        <ele>700</ele>
        <time>2010-09-08T17:18:27Z</time>
      </trkpt>
      <trkpt lat="43.76143" lon="7.09678">
        <ele>700</ele>
        <time>2010-09-08T17:18:31Z</time>
      </trkpt>
      <trkpt lat="43.76134" lon="7.09692">
        <ele>701</ele>
        <time>2010-09-08T17:18:36Z</time>
      </trkpt>
      <trkpt lat="43.76131" lon="7.09704">
        <ele>700</ele>
        <time>2010-09-08T17:18:41Z</time>
      </trkpt>
      <trkpt lat="43.76131" lon="7.09705">
        <ele>700</ele>
        <time>2010-09-08T17:18:48Z</time>
      </trkpt>
      <trkpt lat="43.76132" lon="7.09712">
        <ele>700</ele>
        <time>2010-09-08T17:18:53Z</time>
      </trkpt>
      <trkpt lat="43.7613" lon="7.09719">
        <ele>699</ele>
        <time>2010-09-08T17:19:00Z</time>
      </trkpt>
      <trkpt lat="43.76127" lon="7.09729">
        <ele>699</ele>
        <time>2010-09-08T17:19:05Z</time>
      </trkpt>
      <trkpt lat="43.76124" lon="7.09737">
        <ele>699</ele>
        <time>2010-09-08T17:19:09Z</time>
      </trkpt>
      <trkpt lat="43.76124" lon="7.09739">
        <ele>699</ele>
        <time>2010-09-08T17:19:10Z</time>
      </trkpt>
      <trkpt lat="43.76122" lon="7.09752">
        <ele>692</ele>
        <time>2010-09-08T17:19:16Z</time>
      </trkpt>
      <trkpt lat="43.76128" lon="7.09764">
        <ele>692</ele>
        <time>2010-09-08T17:19:22Z</time>
      </trkpt>
      <trkpt lat="43.76136" lon="7.09771">
        <ele>691</ele>
        <time>2010-09-08T17:19:26Z</time>
      </trkpt>
      <trkpt lat="43.76142" lon="7.09781">
        <ele>690</ele>
        <time>2010-09-08T17:19:29Z</time>
      </trkpt>
      <trkpt lat="43.76138" lon="7.09791">
        <ele>690</ele>
        <time>2010-09-08T17:19:33Z</time>
      </trkpt>
      <trkpt lat="43.7613" lon="7.09798">
        <ele>690</ele>
        <time>2010-09-08T17:19:36Z</time>
      </trkpt>
      <trkpt lat="43.76111" lon="7.09814">
        <ele>690</ele>
        <time>2010-09-08T17:19:44Z</time>
      </trkpt>
      <trkpt lat="43.761" lon="7.09826">
        <ele>690</ele>
        <time>2010-09-08T17:19:49Z</time>
      </trkpt>
      <trkpt lat="43.76088" lon="7.09838">
        <ele>688</ele>
        <time>2010-09-08T17:19:54Z</time>
      </trkpt>
      <trkpt lat="43.76077" lon="7.09852">
        <ele>689</ele>
        <time>2010-09-08T17:19:59Z</time>
      </trkpt>
      <trkpt lat="43.76069" lon="7.09867">
        <ele>689</ele>
        <time>2010-09-08T17:20:04Z</time>
      </trkpt>
      <trkpt lat="43.76062" lon="7.09882">
        <ele>688</ele>
        <time>2010-09-08T17:20:09Z</time>
      </trkpt>
      <trkpt lat="43.76052" lon="7.09898">
        <ele>687</ele>
        <time>2010-09-08T17:20:14Z</time>
      </trkpt>
      <trkpt lat="43.76043" lon="7.09909">
        <ele>687</ele>
        <time>2010-09-08T17:20:18Z</time>
      </trkpt>
      <trkpt lat="43.76036" lon="7.09923">
        <ele>680</ele>
        <time>2010-09-08T17:20:23Z</time>
      </trkpt>
      <trkpt lat="43.76034" lon="7.09926">
        <ele>680</ele>
        <time>2010-09-08T17:20:24Z</time>
      </trkpt>
      <trkpt lat="43.76025" lon="7.09933">
        <ele>680</ele>
        <time>2010-09-08T17:20:28Z</time>
      </trkpt>
      <trkpt lat="43.76019" lon="7.09937">
        <ele>680</ele>
        <time>2010-09-08T17:20:30Z</time>
      </trkpt>
      <trkpt lat="43.76001" lon="7.09979">
        <ele>677</ele>
        <time>2010-09-08T17:20:38Z</time>
      </trkpt>
      <trkpt lat="43.75983" lon="7.10013">
        <ele>678</ele>
        <time>2010-09-08T17:20:44Z</time>
      </trkpt>
      <trkpt lat="43.75974" lon="7.10029">
        <ele>679</ele>
        <time>2010-09-08T17:20:47Z</time>
      </trkpt>
      <trkpt lat="43.75963" lon="7.10053">
        <ele>679</ele>
        <time>2010-09-08T17:20:52Z</time>
      </trkpt>
      <trkpt lat="43.75958" lon="7.10083">
        <ele>678</ele>
        <time>2010-09-08T17:20:57Z</time>
      </trkpt>
      <trkpt lat="43.75952" lon="7.10109">
        <ele>673</ele>
        <time>2010-09-08T17:21:01Z</time>
      </trkpt>
      <trkpt lat="43.75943" lon="7.10125">
        <ele>673</ele>
        <time>2010-09-08T17:21:04Z</time>
      </trkpt>
      <trkpt lat="43.75934" lon="7.10135">
        <ele>673</ele>
        <time>2010-09-08T17:21:07Z</time>
      </trkpt>
      <trkpt lat="43.75927" lon="7.1014">
        <ele>673</ele>
        <time>2010-09-08T17:21:09Z</time>
      </trkpt>
      <trkpt lat="43.75911" lon="7.10157">
        <ele>674</ele>
        <time>2010-09-08T17:21:14Z</time>
      </trkpt>
      <trkpt lat="43.75899" lon="7.10164">
        <ele>675</ele>
        <time>2010-09-08T17:21:18Z</time>
      </trkpt>
      <trkpt lat="43.75887" lon="7.10158">
        <ele>676</ele>
        <time>2010-09-08T17:21:22Z</time>
      </trkpt>
      <trkpt lat="43.75865" lon="7.10147">
        <ele>677</ele>
        <time>2010-09-08T17:21:29Z</time>
      </trkpt>
      <trkpt lat="43.75858" lon="7.10143">
        <ele>677</ele>
        <time>2010-09-08T17:21:32Z</time>
      </trkpt>
      <trkpt lat="43.75856" lon="7.10142">
        <ele>677</ele>
        <time>2010-09-08T17:21:41Z</time>
      </trkpt>
      <trkpt lat="43.75856" lon="7.10142">
        <ele>677</ele>
        <time>2010-09-08T17:21:47Z</time>
      </trkpt>
      <trkpt lat="43.75857" lon="7.10144">
        <ele>677</ele>
        <time>2010-09-08T17:21:58Z</time>
      </trkpt>
      <trkpt lat="43.75857" lon="7.10144">
        <ele>677</ele>
        <time>2010-09-08T17:22:23Z</time>
      </trkpt>
      <trkpt lat="43.75857" lon="7.10143">
        <ele>677</ele>
        <time>2010-09-08T17:22:28Z</time>
      </trkpt>
      <trkpt lat="43.75858" lon="7.10143">
        <ele>677</ele>
        <time>2010-09-08T17:22:36Z</time>
      </trkpt>
      <trkpt lat="43.75856" lon="7.10144">
        <ele>677</ele>
        <time>2010-09-08T17:22:42Z</time>
      </trkpt>
      <trkpt lat="43.75854" lon="7.10143">
        <ele>677</ele>
        <time>2010-09-08T17:22:45Z</time>
      </trkpt>
      <trkpt lat="43.75837" lon="7.10134">
        <ele>677</ele>
        <time>2010-09-08T17:22:52Z</time>
      </trkpt>
      <trkpt lat="43.75818" lon="7.10126">
        <ele>678</ele>
        <time>2010-09-08T17:22:59Z</time>
      </trkpt>
      <trkpt lat="43.75799" lon="7.10118">
        <ele>678</ele>
        <time>2010-09-08T17:23:04Z</time>
      </trkpt>
      <trkpt lat="43.75767" lon="7.10109">
        <ele>678</ele>
        <time>2010-09-08T17:23:10Z</time>
      </trkpt>
      <trkpt lat="43.75737" lon="7.101">
        <ele>676</ele>
        <time>2010-09-08T17:23:16Z</time>
      </trkpt>
      <trkpt lat="43.75727" lon="7.10096">
        <ele>675</ele>
        <time>2010-09-08T17:23:18Z</time>
      </trkpt>
      <trkpt lat="43.75696" lon="7.10083">
        <ele>682</ele>
        <time>2010-09-08T17:23:24Z</time>
      </trkpt>
      <trkpt lat="43.75685" lon="7.10081">
        <ele>680</ele>
        <time>2010-09-08T17:23:26Z</time>
      </trkpt>
      <trkpt lat="43.7567" lon="7.10074">
        <ele>677</ele>
        <time>2010-09-08T17:23:29Z</time>
      </trkpt>
      <trkpt lat="43.75644" lon="7.10053">
        <ele>677</ele>
        <time>2010-09-08T17:23:36Z</time>
      </trkpt>
      <trkpt lat="43.75622" lon="7.10036">
        <ele>678</ele>
        <time>2010-09-08T17:23:42Z</time>
      </trkpt>
      <trkpt lat="43.7561" lon="7.10026">
        <ele>679</ele>
        <time>2010-09-08T17:23:48Z</time>
      </trkpt>
      <trkpt lat="43.7561" lon="7.10025">
        <ele>679</ele>
        <time>2010-09-08T17:23:54Z</time>
      </trkpt>
      <trkpt lat="43.75607" lon="7.10021">
        <ele>679</ele>
        <time>2010-09-08T17:23:58Z</time>
      </trkpt>
      <trkpt lat="43.75607" lon="7.1002">
        <ele>679</ele>
        <time>2010-09-08T17:23:59Z</time>
      </trkpt>
      <trkpt lat="43.75604" lon="7.10014">
        <ele>680</ele>
        <time>2010-09-08T17:24:03Z</time>
      </trkpt>
      <trkpt lat="43.75603" lon="7.1001">
        <ele>680</ele>
        <time>2010-09-08T17:24:07Z</time>
      </trkpt>
      <trkpt lat="43.75595" lon="7.10007">
        <ele>680</ele>
        <time>2010-09-08T17:24:14Z</time>
      </trkpt>
      <trkpt lat="43.75594" lon="7.10007">
        <ele>681</ele>
        <time>2010-09-08T17:24:15Z</time>
      </trkpt>
      <trkpt lat="43.75589" lon="7.10011">
        <ele>680</ele>
        <time>2010-09-08T17:24:20Z</time>
      </trkpt>
      <trkpt lat="43.75586" lon="7.10011">
        <ele>680</ele>
        <time>2010-09-08T17:24:24Z</time>
      </trkpt>
      <trkpt lat="43.75575" lon="7.10011">
        <ele>682</ele>
        <time>2010-09-08T17:24:30Z</time>
      </trkpt>
      <trkpt lat="43.7556" lon="7.10018">
        <ele>682</ele>
        <time>2010-09-08T17:24:36Z</time>
      </trkpt>
      <trkpt lat="43.75539" lon="7.10024">
        <ele>683</ele>
        <time>2010-09-08T17:24:43Z</time>
      </trkpt>
      <trkpt lat="43.75534" lon="7.10027">
        <ele>684</ele>
        <time>2010-09-08T17:24:45Z</time>
      </trkpt>
      <trkpt lat="43.75527" lon="7.10035">
        <ele>683</ele>
        <time>2010-09-08T17:24:49Z</time>
      </trkpt>
      <trkpt lat="43.7552" lon="7.10042">
        <ele>683</ele>
        <time>2010-09-08T17:24:53Z</time>
      </trkpt>
      <trkpt lat="43.75514" lon="7.10055">
        <ele>683</ele>
        <time>2010-09-08T17:24:59Z</time>
      </trkpt>
      <trkpt lat="43.75508" lon="7.10066">
        <ele>683</ele>
        <time>2010-09-08T17:25:03Z</time>
      </trkpt>
      <trkpt lat="43.75493" lon="7.10077">
        <ele>687</ele>
        <time>2010-09-08T17:25:10Z</time>
      </trkpt>
      <trkpt lat="43.75481" lon="7.10086">
        <ele>686</ele>
        <time>2010-09-08T17:25:16Z</time>
      </trkpt>
      <trkpt lat="43.7547" lon="7.10096">
        <ele>687</ele>
        <time>2010-09-08T17:25:22Z</time>
      </trkpt>
      <trkpt lat="43.75457" lon="7.10108">
        <ele>688</ele>
        <time>2010-09-08T17:25:30Z</time>
      </trkpt>
      <trkpt lat="43.75446" lon="7.10124">
        <ele>688</ele>
        <time>2010-09-08T17:25:38Z</time>
      </trkpt>
      <trkpt lat="43.75438" lon="7.10135">
        <ele>689</ele>
        <time>2010-09-08T17:25:44Z</time>
      </trkpt>
      <trkpt lat="43.75425" lon="7.10147">
        <ele>690</ele>
        <time>2010-09-08T17:25:52Z</time>
      </trkpt>
      <trkpt lat="43.75415" lon="7.10158">
        <ele>695</ele>
        <time>2010-09-08T17:25:58Z</time>
      </trkpt>
      <trkpt lat="43.75406" lon="7.10172">
        <ele>695</ele>
        <time>2010-09-08T17:26:05Z</time>
      </trkpt>
      <trkpt lat="43.75395" lon="7.10168">
        <ele>695</ele>
        <time>2010-09-08T17:26:11Z</time>
      </trkpt>
      <trkpt lat="43.75385" lon="7.10163">
        <ele>697</ele>
        <time>2010-09-08T17:26:17Z</time>
      </trkpt>
      <trkpt lat="43.75375" lon="7.10166">
        <ele>697</ele>
        <time>2010-09-08T17:26:23Z</time>
      </trkpt>
      <trkpt lat="43.75368" lon="7.10178">
        <ele>697</ele>
        <time>2010-09-08T17:26:29Z</time>
      </trkpt>
      <trkpt lat="43.75357" lon="7.10197">
        <ele>697</ele>
        <time>2010-09-08T17:26:37Z</time>
      </trkpt>
      <trkpt lat="43.75357" lon="7.10215">
        <ele>698</ele>
        <time>2010-09-08T17:26:43Z</time>
      </trkpt>
      <trkpt lat="43.75361" lon="7.10235">
        <ele>698</ele>
        <time>2010-09-08T17:26:50Z</time>
      </trkpt>
      <trkpt lat="43.75362" lon="7.10256">
        <ele>700</ele>
        <time>2010-09-08T17:26:56Z</time>
      </trkpt>
      <trkpt lat="43.7536" lon="7.10281">
        <ele>700</ele>
        <time>2010-09-08T17:27:02Z</time>
      </trkpt>
      <trkpt lat="43.75356" lon="7.10311">
        <ele>701</ele>
        <time>2010-09-08T17:27:09Z</time>
      </trkpt>
      <trkpt lat="43.75353" lon="7.10338">
        <ele>704</ele>
        <time>2010-09-08T17:27:16Z</time>
      </trkpt>
      <trkpt lat="43.7535" lon="7.10355">
        <ele>703</ele>
        <time>2010-09-08T17:27:22Z</time>
      </trkpt>
      <trkpt lat="43.75346" lon="7.10371">
        <ele>703</ele>
        <time>2010-09-08T17:27:28Z</time>
      </trkpt>
      <trkpt lat="43.75343" lon="7.10383">
        <ele>704</ele>
        <time>2010-09-08T17:27:34Z</time>
      </trkpt>
      <trkpt lat="43.7534" lon="7.10398">
        <ele>706</ele>
        <time>2010-09-08T17:27:40Z</time>
      </trkpt>
      <trkpt lat="43.75338" lon="7.10414">
        <ele>711</ele>
        <time>2010-09-08T17:27:46Z</time>
      </trkpt>
      <trkpt lat="43.75335" lon="7.10435">
        <ele>707</ele>
        <time>2010-09-08T17:27:51Z</time>
      </trkpt>
      <trkpt lat="43.75332" lon="7.10457">
        <ele>717</ele>
        <time>2010-09-08T17:27:57Z</time>
      </trkpt>
      <trkpt lat="43.7533" lon="7.10481">
        <ele>715</ele>
        <time>2010-09-08T17:28:03Z</time>
      </trkpt>
      <trkpt lat="43.75326" lon="7.10491">
        <ele>714</ele>
        <time>2010-09-08T17:28:07Z</time>
      </trkpt>
      <trkpt lat="43.75317" lon="7.10499">
        <ele>715</ele>
        <time>2010-09-08T17:28:13Z</time>
      </trkpt>
      <trkpt lat="43.75307" lon="7.10499">
        <ele>717</ele>
        <time>2010-09-08T17:28:19Z</time>
      </trkpt>
      <trkpt lat="43.75298" lon="7.10496">
        <ele>718</ele>
        <time>2010-09-08T17:28:26Z</time>
      </trkpt>
      <trkpt lat="43.75289" lon="7.10491">
        <ele>719</ele>
        <time>2010-09-08T17:28:34Z</time>
      </trkpt>
      <trkpt lat="43.75288" lon="7.10492">
        <ele>719</ele>
        <time>2010-09-08T17:28:40Z</time>
      </trkpt>
      <trkpt lat="43.75282" lon="7.10495">
        <ele>720</ele>
        <time>2010-09-08T17:28:46Z</time>
      </trkpt>
      <trkpt lat="43.75275" lon="7.10499">
        <ele>721</ele>
        <time>2010-09-08T17:28:50Z</time>
      </trkpt>
      <trkpt lat="43.75257" lon="7.10504">
        <ele>722</ele>
        <time>2010-09-08T17:28:58Z</time>
      </trkpt>
      <trkpt lat="43.75249" lon="7.1051">
        <ele>726</ele>
        <time>2010-09-08T17:29:02Z</time>
      </trkpt>
      <trkpt lat="43.75238" lon="7.10521">
        <ele>727</ele>
        <time>2010-09-08T17:29:07Z</time>
      </trkpt>
      <trkpt lat="43.75232" lon="7.10532">
        <ele>727</ele>
        <time>2010-09-08T17:29:11Z</time>
      </trkpt>
      <trkpt lat="43.75225" lon="7.10549">
        <ele>727</ele>
        <time>2010-09-08T17:29:15Z</time>
      </trkpt>
      <trkpt lat="43.7523" lon="7.10557">
        <ele>726</ele>
        <time>2010-09-08T17:29:18Z</time>
      </trkpt>
      <trkpt lat="43.75235" lon="7.10571">
        <ele>724</ele>
        <time>2010-09-08T17:29:22Z</time>
      </trkpt>
      <trkpt lat="43.75232" lon="7.10584">
        <ele>725</ele>
        <time>2010-09-08T17:29:27Z</time>
      </trkpt>
      <trkpt lat="43.75231" lon="7.10588">
        <ele>725</ele>
        <time>2010-09-08T17:29:29Z</time>
      </trkpt>
      <trkpt lat="43.75226" lon="7.10596">
        <ele>727</ele>
        <time>2010-09-08T17:29:33Z</time>
      </trkpt>
      <trkpt lat="43.75222" lon="7.10604">
        <ele>728</ele>
        <time>2010-09-08T17:29:39Z</time>
      </trkpt>
      <trkpt lat="43.75217" lon="7.10604">
        <ele>728</ele>
        <time>2010-09-08T17:29:42Z</time>
      </trkpt>
      <trkpt lat="43.75213" lon="7.10606">
        <ele>729</ele>
        <time>2010-09-08T17:29:48Z</time>
      </trkpt>
      <trkpt lat="43.75211" lon="7.10608">
        <ele>730</ele>
        <time>2010-09-08T17:29:53Z</time>
      </trkpt>
      <trkpt lat="43.75207" lon="7.1061">
        <ele>730</ele>
        <time>2010-09-08T17:29:59Z</time>
      </trkpt>
      <trkpt lat="43.75198" lon="7.10611">
        <ele>731</ele>
        <time>2010-09-08T17:30:09Z</time>
      </trkpt>
      <trkpt lat="43.75191" lon="7.10613">
        <ele>732</ele>
        <time>2010-09-08T17:30:17Z</time>
      </trkpt>
      <trkpt lat="43.75186" lon="7.10616">
        <ele>732</ele>
        <time>2010-09-08T17:30:23Z</time>
      </trkpt>
      <trkpt lat="43.75182" lon="7.10621">
        <ele>733</ele>
        <time>2010-09-08T17:30:29Z</time>
      </trkpt>
      <trkpt lat="43.75179" lon="7.10626">
        <ele>734</ele>
        <time>2010-09-08T17:30:36Z</time>
      </trkpt>
      <trkpt lat="43.75177" lon="7.1063">
        <ele>734</ele>
        <time>2010-09-08T17:30:42Z</time>
      </trkpt>
      <trkpt lat="43.75172" lon="7.10635">
        <ele>735</ele>
        <time>2010-09-08T17:30:50Z</time>
      </trkpt>
      <trkpt lat="43.7517" lon="7.1064">
        <ele>736</ele>
        <time>2010-09-08T17:30:56Z</time>
      </trkpt>
      <trkpt lat="43.75166" lon="7.10648">
        <ele>747</ele>
        <time>2010-09-08T17:31:04Z</time>
      </trkpt>
      <trkpt lat="43.75163" lon="7.10655">
        <ele>747</ele>
        <time>2010-09-08T17:31:12Z</time>
      </trkpt>
      <trkpt lat="43.75159" lon="7.10663">
        <ele>747</ele>
        <time>2010-09-08T17:31:20Z</time>
      </trkpt>
      <trkpt lat="43.75155" lon="7.1067">
        <ele>751</ele>
        <time>2010-09-08T17:31:28Z</time>
      </trkpt>
      <trkpt lat="43.75151" lon="7.10677">
        <ele>753</ele>
        <time>2010-09-08T17:31:36Z</time>
      </trkpt>
      <trkpt lat="43.75146" lon="7.10684">
        <ele>755</ele>
        <time>2010-09-08T17:31:44Z</time>
      </trkpt>
      <trkpt lat="43.75141" lon="7.10694">
        <ele>756</ele>
        <time>2010-09-08T17:31:54Z</time>
      </trkpt>
      <trkpt lat="43.75137" lon="7.10703">
        <ele>757</ele>
        <time>2010-09-08T17:32:03Z</time>
      </trkpt>
      <trkpt lat="43.75135" lon="7.10713">
        <ele>758</ele>
        <time>2010-09-08T17:32:10Z</time>
      </trkpt>
      <trkpt lat="43.75135" lon="7.10728">
        <ele>759</ele>
        <time>2010-09-08T17:32:20Z</time>
      </trkpt>
      <trkpt lat="43.75136" lon="7.10733">
        <ele>759</ele>
        <time>2010-09-08T17:32:25Z</time>
      </trkpt>
      <trkpt lat="43.75138" lon="7.10746">
        <ele>758</ele>
        <time>2010-09-08T17:32:29Z</time>
      </trkpt>
      <trkpt lat="43.75139" lon="7.10771">
        <ele>761</ele>
        <time>2010-09-08T17:32:34Z</time>
      </trkpt>
      <trkpt lat="43.7514" lon="7.10814">
        <ele>762</ele>
        <time>2010-09-08T17:32:43Z</time>
      </trkpt>
      <trkpt lat="43.75141" lon="7.1084">
        <ele>762</ele>
        <time>2010-09-08T17:32:49Z</time>
      </trkpt>
      <trkpt lat="43.75139" lon="7.10864">
        <ele>763</ele>
        <time>2010-09-08T17:32:55Z</time>
      </trkpt>
      <trkpt lat="43.75139" lon="7.10886">
        <ele>763</ele>
        <time>2010-09-08T17:33:00Z</time>
      </trkpt>
      <trkpt lat="43.75132" lon="7.10901">
        <ele>763</ele>
        <time>2010-09-08T17:33:04Z</time>
      </trkpt>
      <trkpt lat="43.75117" lon="7.10906">
        <ele>764</ele>
        <time>2010-09-08T17:33:09Z</time>
      </trkpt>
      <trkpt lat="43.75098" lon="7.10914">
        <ele>765</ele>
        <time>2010-09-08T17:33:16Z</time>
      </trkpt>
      <trkpt lat="43.7509" lon="7.10932">
        <ele>763</ele>
        <time>2010-09-08T17:33:21Z</time>
      </trkpt>
      <trkpt lat="43.75075" lon="7.10954">
        <ele>763</ele>
        <time>2010-09-08T17:33:26Z</time>
      </trkpt>
      <trkpt lat="43.7506" lon="7.10964">
        <ele>763</ele>
        <time>2010-09-08T17:33:30Z</time>
      </trkpt>
      <trkpt lat="43.75044" lon="7.10961">
        <ele>763</ele>
        <time>2010-09-08T17:33:35Z</time>
      </trkpt>
      <trkpt lat="43.7504" lon="7.10956">
        <ele>763</ele>
        <time>2010-09-08T17:33:37Z</time>
      </trkpt>
      <trkpt lat="43.75028" lon="7.10926">
        <ele>764</ele>
        <time>2010-09-08T17:33:45Z</time>
      </trkpt>
      <trkpt lat="43.75029" lon="7.10899">
        <ele>768</ele>
        <time>2010-09-08T17:33:50Z</time>
      </trkpt>
      <trkpt lat="43.75025" lon="7.10872">
        <ele>768</ele>
        <time>2010-09-08T17:33:55Z</time>
      </trkpt>
      <trkpt lat="43.75026" lon="7.10861">
        <ele>768</ele>
        <time>2010-09-08T17:33:57Z</time>
      </trkpt>
      <trkpt lat="43.75022" lon="7.10848">
        <ele>769</ele>
        <time>2010-09-08T17:34:00Z</time>
      </trkpt>
      <trkpt lat="43.75007" lon="7.10851">
        <ele>769</ele>
        <time>2010-09-08T17:34:04Z</time>
      </trkpt>
      <trkpt lat="43.75003" lon="7.10852">
        <ele>769</ele>
        <time>2010-09-08T17:34:05Z</time>
      </trkpt>
      <trkpt lat="43.74985" lon="7.10853">
        <ele>772</ele>
        <time>2010-09-08T17:34:10Z</time>
      </trkpt>
      <trkpt lat="43.7498" lon="7.10849">
        <ele>772</ele>
        <time>2010-09-08T17:34:12Z</time>
      </trkpt>
      <trkpt lat="43.74975" lon="7.10851">
        <ele>772</ele>
        <time>2010-09-08T17:34:15Z</time>
      </trkpt>
      <trkpt lat="43.74973" lon="7.10852">
        <ele>772</ele>
        <time>2010-09-08T17:34:21Z</time>
      </trkpt>
      <trkpt lat="43.74969" lon="7.10857">
        <ele>773</ele>
        <time>2010-09-08T17:34:27Z</time>
      </trkpt>
      <trkpt lat="43.74964" lon="7.10858">
        <ele>773</ele>
        <time>2010-09-08T17:34:32Z</time>
      </trkpt>
      <trkpt lat="43.74956" lon="7.10856">
        <ele>774</ele>
        <time>2010-09-08T17:34:39Z</time>
      </trkpt>
      <trkpt lat="43.74952" lon="7.10858">
        <ele>774</ele>
        <time>2010-09-08T17:34:43Z</time>
      </trkpt>
      <trkpt lat="43.74946" lon="7.10863">
        <ele>774</ele>
        <time>2010-09-08T17:34:49Z</time>
      </trkpt>
      <trkpt lat="43.74937" lon="7.10873">
        <ele>774</ele>
        <time>2010-09-08T17:34:55Z</time>
      </trkpt>
      <trkpt lat="43.74926" lon="7.10879">
        <ele>774</ele>
        <time>2010-09-08T17:35:01Z</time>
      </trkpt>
      <trkpt lat="43.74914" lon="7.10885">
        <ele>781</ele>
        <time>2010-09-08T17:35:08Z</time>
      </trkpt>
      <trkpt lat="43.74901" lon="7.10887">
        <ele>782</ele>
        <time>2010-09-08T17:35:16Z</time>
      </trkpt>
      <trkpt lat="43.7489" lon="7.10884">
        <ele>783</ele>
        <time>2010-09-08T17:35:24Z</time>
      </trkpt>
      <trkpt lat="43.7488" lon="7.10885">
        <ele>784</ele>
        <time>2010-09-08T17:35:31Z</time>
      </trkpt>
      <trkpt lat="43.74872" lon="7.10884">
        <ele>785</ele>
        <time>2010-09-08T17:35:37Z</time>
      </trkpt>
      <trkpt lat="43.74867" lon="7.10883">
        <ele>786</ele>
        <time>2010-09-08T17:35:43Z</time>
      </trkpt>
      <trkpt lat="43.74864" lon="7.10882">
        <ele>786</ele>
        <time>2010-09-08T17:35:48Z</time>
      </trkpt>
      <trkpt lat="43.74858" lon="7.10877">
        <ele>787</ele>
        <time>2010-09-08T17:35:56Z</time>
      </trkpt>
      <trkpt lat="43.74855" lon="7.10872">
        <ele>788</ele>
        <time>2010-09-08T17:36:03Z</time>
      </trkpt>
      <trkpt lat="43.74849" lon="7.10867">
        <ele>789</ele>
        <time>2010-09-08T17:36:11Z</time>
      </trkpt>
      <trkpt lat="43.74841" lon="7.10859">
        <ele>790</ele>
        <time>2010-09-08T17:36:21Z</time>
      </trkpt>
      <trkpt lat="43.74833" lon="7.10861">
        <ele>790</ele>
        <time>2010-09-08T17:36:29Z</time>
      </trkpt>
      <trkpt lat="43.74823" lon="7.10866">
        <ele>796</ele>
        <time>2010-09-08T17:36:39Z</time>
      </trkpt>
      <trkpt lat="43.74816" lon="7.10866">
        <ele>796</ele>
        <time>2010-09-08T17:36:47Z</time>
      </trkpt>
      <trkpt lat="43.74811" lon="7.10863">
        <ele>797</ele>
        <time>2010-09-08T17:36:53Z</time>
      </trkpt>
      <trkpt lat="43.74807" lon="7.10859">
        <ele>797</ele>
        <time>2010-09-08T17:37:00Z</time>
      </trkpt>
      <trkpt lat="43.74806" lon="7.10856">
        <ele>797</ele>
        <time>2010-09-08T17:37:02Z</time>
      </trkpt>
      <trkpt lat="43.74798" lon="7.10848">
        <ele>797</ele>
        <time>2010-09-08T17:37:10Z</time>
      </trkpt>
      <trkpt lat="43.74793" lon="7.10838">
        <ele>798</ele>
        <time>2010-09-08T17:37:19Z</time>
      </trkpt>
      <trkpt lat="43.7479" lon="7.10834">
        <ele>798</ele>
        <time>2010-09-08T17:37:24Z</time>
      </trkpt>
      <trkpt lat="43.74785" lon="7.10831">
        <ele>800</ele>
        <time>2010-09-08T17:37:31Z</time>
      </trkpt>
      <trkpt lat="43.74779" lon="7.10827">
        <ele>800</ele>
        <time>2010-09-08T17:37:38Z</time>
      </trkpt>
      <trkpt lat="43.74775" lon="7.10824">
        <ele>800</ele>
        <time>2010-09-08T17:37:44Z</time>
      </trkpt>
      <trkpt lat="43.74774" lon="7.10823">
        <ele>800</ele>
        <time>2010-09-08T17:37:51Z</time>
      </trkpt>
      <trkpt lat="43.74776" lon="7.10827">
        <ele>800</ele>
        <time>2010-09-08T17:38:26Z</time>
      </trkpt>
      <trkpt lat="43.74776" lon="7.10828">
        <ele>800</ele>
        <time>2010-09-08T17:38:31Z</time>
      </trkpt>
      <trkpt lat="43.74776" lon="7.10827">
        <ele>800</ele>
        <time>2010-09-08T17:38:41Z</time>
      </trkpt>
      <trkpt lat="43.74776" lon="7.10827">
        <ele>800</ele>
        <time>2010-09-08T17:38:49Z</time>
      </trkpt>
      <trkpt lat="43.74776" lon="7.10827">
        <ele>800</ele>
        <time>2010-09-08T17:39:01Z</time>
      </trkpt>
      <trkpt lat="43.74776" lon="7.10827">
        <ele>800</ele>
        <time>2010-09-08T17:39:11Z</time>
      </trkpt>
      <trkpt lat="43.74775" lon="7.10827">
        <ele>800</ele>
        <time>2010-09-08T17:39:19Z</time>
      </trkpt>
      <trkpt lat="43.74776" lon="7.10826">
        <ele>800</ele>
        <time>2010-09-08T17:39:34Z</time>
      </trkpt>
      <trkpt lat="43.74776" lon="7.10826">
        <ele>800</ele>
        <time>2010-09-08T17:39:42Z</time>
      </trkpt>
      <trkpt lat="43.74775" lon="7.10826">
        <ele>800</ele>
        <time>2010-09-08T17:39:49Z</time>
      </trkpt>
      <trkpt lat="43.74775" lon="7.10826">
        <ele>800</ele>
        <time>2010-09-08T17:39:58Z</time>
      </trkpt>
      <trkpt lat="43.74776" lon="7.10826">
        <ele>800</ele>
        <time>2010-09-08T17:40:03Z</time>
      </trkpt>
      <trkpt lat="43.74777" lon="7.10826">
        <ele>800</ele>
        <time>2010-09-08T17:40:20Z</time>
      </trkpt>
      <trkpt lat="43.74776" lon="7.10826">
        <ele>800</ele>
        <time>2010-09-08T17:40:24Z</time>
      </trkpt>
      <trkpt lat="43.74775" lon="7.10826">
        <ele>800</ele>
        <time>2010-09-08T17:40:29Z</time>
      </trkpt>
      <trkpt lat="43.74774" lon="7.10825">
        <ele>800</ele>
        <time>2010-09-08T17:40:37Z</time>
      </trkpt>
      <trkpt lat="43.74772" lon="7.10825">
        <ele>800</ele>
        <time>2010-09-08T17:40:43Z</time>
      </trkpt>
      <trkpt lat="43.74765" lon="7.1083">
        <ele>800</ele>
        <time>2010-09-08T17:40:47Z</time>
      </trkpt>
      <trkpt lat="43.74757" lon="7.10843">
        <ele>799</ele>
        <time>2010-09-08T17:40:52Z</time>
      </trkpt>
      <trkpt lat="43.74754" lon="7.10847">
        <ele>799</ele>
        <time>2010-09-08T17:40:58Z</time>
      </trkpt>
      <trkpt lat="43.74751" lon="7.10852">
        <ele>799</ele>
        <time>2010-09-08T17:41:03Z</time>
      </trkpt>
      <trkpt lat="43.74749" lon="7.10855">
        <ele>797</ele>
        <time>2010-09-08T17:41:06Z</time>
      </trkpt>
      <trkpt lat="43.74748" lon="7.10861">
        <ele>797</ele>
        <time>2010-09-08T17:41:10Z</time>
      </trkpt>
      <trkpt lat="43.74746" lon="7.10866">
        <ele>796</ele>
        <time>2010-09-08T17:41:16Z</time>
      </trkpt>
      <trkpt lat="43.74745" lon="7.10866">
        <ele>796</ele>
        <time>2010-09-08T17:41:17Z</time>
      </trkpt>
      <trkpt lat="43.74741" lon="7.10867">
        <ele>796</ele>
        <time>2010-09-08T17:41:21Z</time>
      </trkpt>
      <trkpt lat="43.74735" lon="7.10872">
        <ele>796</ele>
        <time>2010-09-08T17:41:28Z</time>
      </trkpt>
      <trkpt lat="43.74732" lon="7.10876">
        <ele>795</ele>
        <time>2010-09-08T17:41:33Z</time>
      </trkpt>
      <trkpt lat="43.74729" lon="7.10879">
        <ele>795</ele>
        <time>2010-09-08T17:41:39Z</time>
      </trkpt>
      <trkpt lat="43.74723" lon="7.10887">
        <ele>795</ele>
        <time>2010-09-08T17:41:46Z</time>
      </trkpt>
      <trkpt lat="43.74722" lon="7.10887">
        <ele>795</ele>
        <time>2010-09-08T17:41:47Z</time>
      </trkpt>
      <trkpt lat="43.7472" lon="7.10889">
        <ele>795</ele>
        <time>2010-09-08T17:41:55Z</time>
      </trkpt>
      <trkpt lat="43.74719" lon="7.1089">
        <ele>795</ele>
        <time>2010-09-08T17:42:00Z</time>
      </trkpt>
      <trkpt lat="43.74717" lon="7.10892">
        <ele>794</ele>
        <time>2010-09-08T17:42:04Z</time>
      </trkpt>
      <trkpt lat="43.74712" lon="7.10901">
        <ele>794</ele>
        <time>2010-09-08T17:42:09Z</time>
      </trkpt>
      <trkpt lat="43.74713" lon="7.10907">
        <ele>794</ele>
        <time>2010-09-08T17:42:11Z</time>
      </trkpt>
      <trkpt lat="43.74716" lon="7.10914">
        <ele>794</ele>
        <time>2010-09-08T17:42:14Z</time>
      </trkpt>
      <trkpt lat="43.74724" lon="7.10922">
        <ele>790</ele>
        <time>2010-09-08T17:42:18Z</time>
      </trkpt>
      <trkpt lat="43.7473" lon="7.10929">
        <ele>790</ele>
        <time>2010-09-08T17:42:22Z</time>
      </trkpt>
      <trkpt lat="43.7473" lon="7.10931">
        <ele>790</ele>
        <time>2010-09-08T17:42:25Z</time>
      </trkpt>
      <trkpt lat="43.74732" lon="7.10937">
        <ele>789</ele>
        <time>2010-09-08T17:42:29Z</time>
      </trkpt>
      <trkpt lat="43.74738" lon="7.10942">
        <ele>789</ele>
        <time>2010-09-08T17:42:37Z</time>
      </trkpt>
      <trkpt lat="43.74742" lon="7.10944">
        <ele>789</ele>
        <time>2010-09-08T17:42:40Z</time>
      </trkpt>
      <trkpt lat="43.74743" lon="7.10958">
        <ele>787</ele>
        <time>2010-09-08T17:42:45Z</time>
      </trkpt>
      <trkpt lat="43.74744" lon="7.10962">
        <ele>786</ele>
        <time>2010-09-08T17:42:48Z</time>
      </trkpt>
      <trkpt lat="43.74742" lon="7.10966">
        <ele>786</ele>
        <time>2010-09-08T17:42:53Z</time>
      </trkpt>
      <trkpt lat="43.74742" lon="7.10971">
        <ele>785</ele>
        <time>2010-09-08T17:42:57Z</time>
      </trkpt>
      <trkpt lat="43.74745" lon="7.10981">
        <ele>784</ele>
        <time>2010-09-08T17:43:00Z</time>
      </trkpt>
      <trkpt lat="43.74749" lon="7.10988">
        <ele>784</ele>
        <time>2010-09-08T17:43:04Z</time>
      </trkpt>
      <trkpt lat="43.74749" lon="7.10989">
        <ele>783</ele>
        <time>2010-09-08T17:43:05Z</time>
      </trkpt>
      <trkpt lat="43.7475" lon="7.10992">
        <ele>784</ele>
        <time>2010-09-08T17:43:10Z</time>
      </trkpt>
      <trkpt lat="43.74752" lon="7.10997">
        <ele>783</ele>
        <time>2010-09-08T17:43:16Z</time>
      </trkpt>
      <trkpt lat="43.74755" lon="7.11007">
        <ele>781</ele>
        <time>2010-09-08T17:43:23Z</time>
      </trkpt>
      <trkpt lat="43.74761" lon="7.11006">
        <ele>780</ele>
        <time>2010-09-08T17:43:28Z</time>
      </trkpt>
      <trkpt lat="43.74767" lon="7.11016">
        <ele>779</ele>
        <time>2010-09-08T17:43:35Z</time>
      </trkpt>
      <trkpt lat="43.74768" lon="7.11024">
        <ele>779</ele>
        <time>2010-09-08T17:43:41Z</time>
      </trkpt>
      <trkpt lat="43.74769" lon="7.11033">
        <ele>778</ele>
        <time>2010-09-08T17:43:46Z</time>
      </trkpt>
      <trkpt lat="43.7477" lon="7.11036">
        <ele>778</ele>
        <time>2010-09-08T17:43:48Z</time>
      </trkpt>
      <trkpt lat="43.74771" lon="7.11041">
        <ele>778</ele>
        <time>2010-09-08T17:43:51Z</time>
      </trkpt>
      <trkpt lat="43.74772" lon="7.11049">
        <ele>777</ele>
        <time>2010-09-08T17:43:57Z</time>
      </trkpt>
      <trkpt lat="43.74776" lon="7.11058">
        <ele>777</ele>
        <time>2010-09-08T17:44:03Z</time>
      </trkpt>
      <trkpt lat="43.74776" lon="7.11067">
        <ele>776</ele>
        <time>2010-09-08T17:44:08Z</time>
      </trkpt>
      <trkpt lat="43.74773" lon="7.11077">
        <ele>776</ele>
        <time>2010-09-08T17:44:14Z</time>
      </trkpt>
      <trkpt lat="43.74771" lon="7.1108">
        <ele>775</ele>
        <time>2010-09-08T17:44:17Z</time>
      </trkpt>
      <trkpt lat="43.74769" lon="7.11085">
        <ele>775</ele>
        <time>2010-09-08T17:44:22Z</time>
      </trkpt>
      <trkpt lat="43.74766" lon="7.11095">
        <ele>775</ele>
        <time>2010-09-08T17:44:27Z</time>
      </trkpt>
      <trkpt lat="43.74759" lon="7.11109">
        <ele>775</ele>
        <time>2010-09-08T17:44:32Z</time>
      </trkpt>
      <trkpt lat="43.74751" lon="7.11118">
        <ele>776</ele>
        <time>2010-09-08T17:44:37Z</time>
      </trkpt>
      <trkpt lat="43.74743" lon="7.1112">
        <ele>772</ele>
        <time>2010-09-08T17:44:41Z</time>
      </trkpt>
      <trkpt lat="43.74734" lon="7.11125">
        <ele>772</ele>
        <time>2010-09-08T17:44:46Z</time>
      </trkpt>
      <trkpt lat="43.74722" lon="7.11129">
        <ele>772</ele>
        <time>2010-09-08T17:44:52Z</time>
      </trkpt>
      <trkpt lat="43.74714" lon="7.11135">
        <ele>772</ele>
        <time>2010-09-08T17:44:56Z</time>
      </trkpt>
      <trkpt lat="43.74713" lon="7.11136">
        <ele>771</ele>
        <time>2010-09-08T17:44:57Z</time>
      </trkpt>
      <trkpt lat="43.74708" lon="7.11136">
        <ele>771</ele>
        <time>2010-09-08T17:44:59Z</time>
      </trkpt>
      <trkpt lat="43.74698" lon="7.11142">
        <ele>771</ele>
        <time>2010-09-08T17:45:04Z</time>
      </trkpt>
      <trkpt lat="43.74685" lon="7.11152">
        <ele>770</ele>
        <time>2010-09-08T17:45:10Z</time>
      </trkpt>
      <trkpt lat="43.74675" lon="7.11159">
        <ele>769</ele>
        <time>2010-09-08T17:45:14Z</time>
      </trkpt>
      <trkpt lat="43.7466" lon="7.11161">
        <ele>766</ele>
        <time>2010-09-08T17:45:19Z</time>
      </trkpt>
      <trkpt lat="43.74648" lon="7.11162">
        <ele>764</ele>
        <time>2010-09-08T17:45:23Z</time>
      </trkpt>
      <trkpt lat="43.74628" lon="7.11167">
        <ele>761</ele>
        <time>2010-09-08T17:45:29Z</time>
      </trkpt>
      <trkpt lat="43.74613" lon="7.11174">
        <ele>759</ele>
        <time>2010-09-08T17:45:35Z</time>
      </trkpt>
      <trkpt lat="43.74613" lon="7.11174">
        <ele>759</ele>
        <time>2010-09-08T17:45:40Z</time>
      </trkpt>
      <trkpt lat="43.74611" lon="7.11174">
        <ele>759</ele>
        <time>2010-09-08T17:45:49Z</time>
      </trkpt>
      <trkpt lat="43.74598" lon="7.11182">
        <ele>758</ele>
        <time>2010-09-08T17:45:55Z</time>
      </trkpt>
      <trkpt lat="43.74582" lon="7.11192">
        <ele>751</ele>
        <time>2010-09-08T17:46:01Z</time>
      </trkpt>
      <trkpt lat="43.7457" lon="7.11195">
        <ele>750</ele>
        <time>2010-09-08T17:46:05Z</time>
      </trkpt>
      <trkpt lat="43.74567" lon="7.11195">
        <ele>749</ele>
        <time>2010-09-08T17:46:06Z</time>
      </trkpt>
      <trkpt lat="43.74556" lon="7.1119">
        <ele>749</ele>
        <time>2010-09-08T17:46:11Z</time>
      </trkpt>
      <trkpt lat="43.74542" lon="7.11179">
        <ele>748</ele>
        <time>2010-09-08T17:46:16Z</time>
      </trkpt>
      <trkpt lat="43.74522" lon="7.11168">
        <ele>746</ele>
        <time>2010-09-08T17:46:21Z</time>
      </trkpt>
      <trkpt lat="43.74509" lon="7.11161">
        <ele>747</ele>
        <time>2010-09-08T17:46:25Z</time>
      </trkpt>
      <trkpt lat="43.74491" lon="7.11151">
        <ele>742</ele>
        <time>2010-09-08T17:46:30Z</time>
      </trkpt>
      <trkpt lat="43.7448" lon="7.11146">
        <ele>741</ele>
        <time>2010-09-08T17:46:34Z</time>
      </trkpt>
      <trkpt lat="43.74464" lon="7.11138">
        <ele>739</ele>
        <time>2010-09-08T17:46:39Z</time>
      </trkpt>
      <trkpt lat="43.7445" lon="7.1114">
        <ele>738</ele>
        <time>2010-09-08T17:46:43Z</time>
      </trkpt>
      <trkpt lat="43.74443" lon="7.11145">
        <ele>737</ele>
        <time>2010-09-08T17:46:47Z</time>
      </trkpt>
      <trkpt lat="43.7443" lon="7.11153">
        <ele>735</ele>
        <time>2010-09-08T17:46:51Z</time>
      </trkpt>
      <trkpt lat="43.74421" lon="7.11155">
        <ele>734</ele>
        <time>2010-09-08T17:46:53Z</time>
      </trkpt>
      <trkpt lat="43.74401" lon="7.1116">
        <ele>729</ele>
        <time>2010-09-08T17:46:57Z</time>
      </trkpt>
      <trkpt lat="43.74387" lon="7.11163">
        <ele>727</ele>
        <time>2010-09-08T17:47:01Z</time>
      </trkpt>
      <trkpt lat="43.74379" lon="7.11167">
        <ele>729</ele>
        <time>2010-09-08T17:47:04Z</time>
      </trkpt>
      <trkpt lat="43.74357" lon="7.11178">
        <ele>727</ele>
        <time>2010-09-08T17:47:11Z</time>
      </trkpt>
      <trkpt lat="43.74341" lon="7.11186">
        <ele>727</ele>
        <time>2010-09-08T17:47:15Z</time>
      </trkpt>
      <trkpt lat="43.74319" lon="7.11192">
        <ele>722</ele>
        <time>2010-09-08T17:47:20Z</time>
      </trkpt>
      <trkpt lat="43.74303" lon="7.11191">
        <ele>721</ele>
        <time>2010-09-08T17:47:24Z</time>
      </trkpt>
      <trkpt lat="43.7429" lon="7.11182">
        <ele>720</ele>
        <time>2010-09-08T17:47:29Z</time>
      </trkpt>
      <trkpt lat="43.7428" lon="7.1118">
        <ele>719</ele>
        <time>2010-09-08T17:47:32Z</time>
      </trkpt>
      <trkpt lat="43.74267" lon="7.1118">
        <ele>717</ele>
        <time>2010-09-08T17:47:37Z</time>
      </trkpt>
      <trkpt lat="43.74254" lon="7.11183">
        <ele>716</ele>
        <time>2010-09-08T17:47:42Z</time>
      </trkpt>
      <trkpt lat="43.74247" lon="7.11184">
        <ele>709</ele>
        <time>2010-09-08T17:47:44Z</time>
      </trkpt>
      <trkpt lat="43.74234" lon="7.11173">
        <ele>709</ele>
        <time>2010-09-08T17:47:49Z</time>
      </trkpt>
      <trkpt lat="43.74221" lon="7.11169">
        <ele>707</ele>
        <time>2010-09-08T17:47:54Z</time>
      </trkpt>
      <trkpt lat="43.74212" lon="7.1117">
        <ele>705</ele>
        <time>2010-09-08T17:47:57Z</time>
      </trkpt>
      <trkpt lat="43.74205" lon="7.11172">
        <ele>704</ele>
        <time>2010-09-08T17:48:00Z</time>
      </trkpt>
      <trkpt lat="43.74194" lon="7.1116">
        <ele>693</ele>
        <time>2010-09-08T17:48:05Z</time>
      </trkpt>
      <trkpt lat="43.74189" lon="7.1116">
        <ele>692</ele>
        <time>2010-09-08T17:48:08Z</time>
      </trkpt>
      <trkpt lat="43.74178" lon="7.11165">
        <ele>692</ele>
        <time>2010-09-08T17:48:14Z</time>
      </trkpt>
      <trkpt lat="43.74162" lon="7.1118">
        <ele>689</ele>
        <time>2010-09-08T17:48:18Z</time>
      </trkpt>
      <trkpt lat="43.74144" lon="7.11189">
        <ele>687</ele>
        <time>2010-09-08T17:48:22Z</time>
      </trkpt>
      <trkpt lat="43.74124" lon="7.11204">
        <ele>685</ele>
        <time>2010-09-08T17:48:27Z</time>
      </trkpt>
      <trkpt lat="43.74116" lon="7.11213">
        <ele>685</ele>
        <time>2010-09-08T17:48:31Z</time>
      </trkpt>
      <trkpt lat="43.74103" lon="7.11219">
        <ele>684</ele>
        <time>2010-09-08T17:48:36Z</time>
      </trkpt>
      <trkpt lat="43.74095" lon="7.11218">
        <ele>683</ele>
        <time>2010-09-08T17:48:40Z</time>
      </trkpt>
      <trkpt lat="43.74084" lon="7.11216">
        <ele>682</ele>
        <time>2010-09-08T17:48:44Z</time>
      </trkpt>
      <trkpt lat="43.74067" lon="7.11212">
        <ele>673</ele>
        <time>2010-09-08T17:48:48Z</time>
      </trkpt>
      <trkpt lat="43.74058" lon="7.11207">
        <ele>672</ele>
        <time>2010-09-08T17:48:51Z</time>
      </trkpt>
      <trkpt lat="43.74043" lon="7.11192">
        <ele>671</ele>
        <time>2010-09-08T17:48:57Z</time>
      </trkpt>
      <trkpt lat="43.74025" lon="7.11187">
        <ele>670</ele>
        <time>2010-09-08T17:49:01Z</time>
      </trkpt>
      <trkpt lat="43.74014" lon="7.11183">
        <ele>669</ele>
        <time>2010-09-08T17:49:06Z</time>
      </trkpt>
      <trkpt lat="43.74008" lon="7.11185">
        <ele>669</ele>
        <time>2010-09-08T17:49:09Z</time>
      </trkpt>
      <trkpt lat="43.73998" lon="7.11189">
        <ele>666</ele>
        <time>2010-09-08T17:49:13Z</time>
      </trkpt>
      <trkpt lat="43.73986" lon="7.11185">
        <ele>666</ele>
        <time>2010-09-08T17:49:19Z</time>
      </trkpt>
      <trkpt lat="43.73989" lon="7.11178">
        <ele>666</ele>
        <time>2010-09-08T17:49:22Z</time>
      </trkpt>
      <trkpt lat="43.73993" lon="7.11157">
        <ele>664</ele>
        <time>2010-09-08T17:49:26Z</time>
      </trkpt>
      <trkpt lat="43.73985" lon="7.11131">
        <ele>660</ele>
        <time>2010-09-08T17:49:30Z</time>
      </trkpt>
      <trkpt lat="43.73981" lon="7.11125">
        <ele>660</ele>
        <time>2010-09-08T17:49:31Z</time>
      </trkpt>
      <trkpt lat="43.73959" lon="7.11083">
        <ele>649</ele>
        <time>2010-09-08T17:49:37Z</time>
      </trkpt>
      <trkpt lat="43.73954" lon="7.11071">
        <ele>649</ele>
        <time>2010-09-08T17:49:39Z</time>
      </trkpt>
      <trkpt lat="43.7395" lon="7.11065">
        <ele>648</ele>
        <time>2010-09-08T17:49:41Z</time>
      </trkpt>
      <trkpt lat="43.73947" lon="7.11059">
        <ele>648</ele>
        <time>2010-09-08T17:49:46Z</time>
      </trkpt>
      <trkpt lat="43.73947" lon="7.11059">
        <ele>648</ele>
        <time>2010-09-08T17:49:47Z</time>
      </trkpt>
      <trkpt lat="43.73939" lon="7.11045">
        <ele>647</ele>
        <time>2010-09-08T17:49:51Z</time>
      </trkpt>
      <trkpt lat="43.73925" lon="7.11014">
        <ele>645</ele>
        <time>2010-09-08T17:49:55Z</time>
      </trkpt>
      <trkpt lat="43.73922" lon="7.11005">
        <ele>645</ele>
        <time>2010-09-08T17:49:56Z</time>
      </trkpt>
      <trkpt lat="43.73908" lon="7.10952">
        <ele>641</ele>
        <time>2010-09-08T17:50:01Z</time>
      </trkpt>
      <trkpt lat="43.73896" lon="7.10922">
        <ele>638</ele>
        <time>2010-09-08T17:50:05Z</time>
      </trkpt>
      <trkpt lat="43.73899" lon="7.10917">
        <ele>637</ele>
        <time>2010-09-08T17:50:07Z</time>
      </trkpt>
      <trkpt lat="43.73906" lon="7.10921">
        <ele>634</ele>
        <time>2010-09-08T17:50:09Z</time>
      </trkpt>
      <trkpt lat="43.73926" lon="7.10938">
        <ele>626</ele>
        <time>2010-09-08T17:50:13Z</time>
      </trkpt>
      <trkpt lat="43.73938" lon="7.10955">
        <ele>627</ele>
        <time>2010-09-08T17:50:17Z</time>
      </trkpt>
      <trkpt lat="43.73945" lon="7.10945">
        <ele>625</ele>
        <time>2010-09-08T17:50:21Z</time>
      </trkpt>
      <trkpt lat="43.73943" lon="7.10925">
        <ele>624</ele>
        <time>2010-09-08T17:50:24Z</time>
      </trkpt>
      <trkpt lat="43.73937" lon="7.10891">
        <ele>610</ele>
        <time>2010-09-08T17:50:28Z</time>
      </trkpt>
      <trkpt lat="43.73933" lon="7.10869">
        <ele>606</ele>
        <time>2010-09-08T17:50:33Z</time>
      </trkpt>
      <trkpt lat="43.7394" lon="7.10871">
        <ele>606</ele>
        <time>2010-09-08T17:50:36Z</time>
      </trkpt>
      <trkpt lat="43.73952" lon="7.10882">
        <ele>606</ele>
        <time>2010-09-08T17:50:39Z</time>
      </trkpt>
      <trkpt lat="43.73967" lon="7.10911">
        <ele>606</ele>
        <time>2010-09-08T17:50:43Z</time>
      </trkpt>
      <trkpt lat="43.73984" lon="7.1094">
        <ele>617</ele>
        <time>2010-09-08T17:50:48Z</time>
      </trkpt>
      <trkpt lat="43.74" lon="7.10937">
        <ele>608</ele>
        <time>2010-09-08T17:50:53Z</time>
      </trkpt>
      <trkpt lat="43.74015" lon="7.10921">
        <ele>607</ele>
        <time>2010-09-08T17:50:57Z</time>
      </trkpt>
      <trkpt lat="43.74026" lon="7.10919">
        <ele>608</ele>
        <time>2010-09-08T17:51:00Z</time>
      </trkpt>
      <trkpt lat="43.74039" lon="7.10917">
        <ele>609</ele>
        <time>2010-09-08T17:51:03Z</time>
      </trkpt>
      <trkpt lat="43.74053" lon="7.10907">
        <ele>596</ele>
        <time>2010-09-08T17:51:08Z</time>
      </trkpt>
      <trkpt lat="43.74061" lon="7.1089">
        <ele>594</ele>
        <time>2010-09-08T17:51:13Z</time>
      </trkpt>
      <trkpt lat="43.74055" lon="7.10883">
        <ele>593</ele>
        <time>2010-09-08T17:51:16Z</time>
      </trkpt>
      <trkpt lat="43.74046" lon="7.10879">
        <ele>593</ele>
        <time>2010-09-08T17:51:18Z</time>
      </trkpt>
      <trkpt lat="43.74041" lon="7.1086">
        <ele>591</ele>
        <time>2010-09-08T17:51:22Z</time>
      </trkpt>
      <trkpt lat="43.74042" lon="7.10855">
        <ele>590</ele>
        <time>2010-09-08T17:51:23Z</time>
      </trkpt>
      <trkpt lat="43.74049" lon="7.10833">
        <ele>578</ele>
        <time>2010-09-08T17:51:28Z</time>
      </trkpt>
      <trkpt lat="43.74052" lon="7.10823">
        <ele>577</ele>
        <time>2010-09-08T17:51:30Z</time>
      </trkpt>
      <trkpt lat="43.74055" lon="7.10799">
        <ele>575</ele>
        <time>2010-09-08T17:51:35Z</time>
      </trkpt>
      <trkpt lat="43.74055" lon="7.1078">
        <ele>573</ele>
        <time>2010-09-08T17:51:39Z</time>
      </trkpt>
      <trkpt lat="43.74059" lon="7.10763">
        <ele>571</ele>
        <time>2010-09-08T17:51:44Z</time>
      </trkpt>
      <trkpt lat="43.7406" lon="7.10751">
        <ele>570</ele>
        <time>2010-09-08T17:51:48Z</time>
      </trkpt>
      <trkpt lat="43.74063" lon="7.10737">
        <ele>559</ele>
        <time>2010-09-08T17:51:52Z</time>
      </trkpt>
      <trkpt lat="43.74067" lon="7.10729">
        <ele>558</ele>
        <time>2010-09-08T17:51:55Z</time>
      </trkpt>
      <trkpt lat="43.7407" lon="7.10716">
        <ele>556</ele>
        <time>2010-09-08T17:52:00Z</time>
      </trkpt>
      <trkpt lat="43.74068" lon="7.10716">
        <ele>556</ele>
        <time>2010-09-08T17:52:06Z</time>
      </trkpt>
      <trkpt lat="43.74068" lon="7.10716">
        <ele>556</ele>
        <time>2010-09-08T17:52:16Z</time>
      </trkpt>
      <trkpt lat="43.74072" lon="7.10709">
        <ele>554</ele>
        <time>2010-09-08T17:52:22Z</time>
      </trkpt>
      <trkpt lat="43.74075" lon="7.10704">
        <ele>554</ele>
        <time>2010-09-08T17:52:25Z</time>
      </trkpt>
      <trkpt lat="43.74078" lon="7.10698">
        <ele>553</ele>
        <time>2010-09-08T17:52:31Z</time>
      </trkpt>
      <trkpt lat="43.74079" lon="7.10697">
        <ele>553</ele>
        <time>2010-09-08T17:52:32Z</time>
      </trkpt>
      <trkpt lat="43.74083" lon="7.10692">
        <ele>552</ele>
        <time>2010-09-08T17:52:37Z</time>
      </trkpt>
      <trkpt lat="43.74083" lon="7.1069">
        <ele>560</ele>
        <time>2010-09-08T17:52:42Z</time>
      </trkpt>
      <trkpt lat="43.74092" lon="7.10676">
        <ele>555</ele>
        <time>2010-09-08T17:52:47Z</time>
      </trkpt>
      <trkpt lat="43.74098" lon="7.10667">
        <ele>556</ele>
        <time>2010-09-08T17:52:50Z</time>
      </trkpt>
      <trkpt lat="43.74111" lon="7.10655">
        <ele>549</ele>
        <time>2010-09-08T17:52:55Z</time>
      </trkpt>
      <trkpt lat="43.74116" lon="7.10652">
        <ele>550</ele>
        <time>2010-09-08T17:52:57Z</time>
      </trkpt>
      <trkpt lat="43.74118" lon="7.10645">
        <ele>550</ele>
        <time>2010-09-08T17:53:01Z</time>
      </trkpt>
      <trkpt lat="43.7412" lon="7.10641">
        <ele>550</ele>
        <time>2010-09-08T17:53:03Z</time>
      </trkpt>
      <trkpt lat="43.74123" lon="7.10634">
        <ele>549</ele>
        <time>2010-09-08T17:53:09Z</time>
      </trkpt>
      <trkpt lat="43.74124" lon="7.10627">
        <ele>549</ele>
        <time>2010-09-08T17:53:15Z</time>
      </trkpt>
      <trkpt lat="43.74125" lon="7.10621">
        <ele>548</ele>
        <time>2010-09-08T17:53:20Z</time>
      </trkpt>
      <trkpt lat="43.74127" lon="7.10615">
        <ele>548</ele>
        <time>2010-09-08T17:53:26Z</time>
      </trkpt>
      <trkpt lat="43.74127" lon="7.10611">
        <ele>548</ele>
        <time>2010-09-08T17:53:32Z</time>
      </trkpt>
      <trkpt lat="43.74127" lon="7.10609">
        <ele>547</ele>
        <time>2010-09-08T17:53:37Z</time>
      </trkpt>
      <trkpt lat="43.74128" lon="7.10602">
        <ele>547</ele>
        <time>2010-09-08T17:53:41Z</time>
      </trkpt>
      <trkpt lat="43.74123" lon="7.10597">
        <ele>546</ele>
        <time>2010-09-08T17:53:44Z</time>
      </trkpt>
      <trkpt lat="43.74114" lon="7.1059">
        <ele>543</ele>
        <time>2010-09-08T17:53:50Z</time>
      </trkpt>
      <trkpt lat="43.74113" lon="7.10588">
        <ele>543</ele>
        <time>2010-09-08T17:53:55Z</time>
      </trkpt>
      <trkpt lat="43.74114" lon="7.1058">
        <ele>535</ele>
        <time>2010-09-08T17:54:00Z</time>
      </trkpt>
      <trkpt lat="43.74115" lon="7.10578">
        <ele>535</ele>
        <time>2010-09-08T17:54:05Z</time>
      </trkpt>
      <trkpt lat="43.74122" lon="7.10569">
        <ele>536</ele>
        <time>2010-09-08T17:54:09Z</time>
      </trkpt>
      <trkpt lat="43.74118" lon="7.10563">
        <ele>535</ele>
        <time>2010-09-08T17:54:12Z</time>
      </trkpt>
      <trkpt lat="43.74114" lon="7.10561">
        <ele>535</ele>
        <time>2010-09-08T17:54:19Z</time>
      </trkpt>
      <trkpt lat="43.74114" lon="7.10558">
        <ele>535</ele>
        <time>2010-09-08T17:54:21Z</time>
      </trkpt>
      <trkpt lat="43.74114" lon="7.10551">
        <ele>534</ele>
        <time>2010-09-08T17:54:27Z</time>
      </trkpt>
      <trkpt lat="43.74112" lon="7.10547">
        <ele>534</ele>
        <time>2010-09-08T17:54:30Z</time>
      </trkpt>
      <trkpt lat="43.74099" lon="7.10543">
        <ele>533</ele>
        <time>2010-09-08T17:54:36Z</time>
      </trkpt>
      <trkpt lat="43.74078" lon="7.10545">
        <ele>525</ele>
        <time>2010-09-08T17:54:40Z</time>
      </trkpt>
      <trkpt lat="43.74059" lon="7.10541">
        <ele>524</ele>
        <time>2010-09-08T17:54:43Z</time>
      </trkpt>
      <trkpt lat="43.7405" lon="7.10535">
        <ele>524</ele>
        <time>2010-09-08T17:54:45Z</time>
      </trkpt>
      <trkpt lat="43.74035" lon="7.10533">
        <ele>523</ele>
        <time>2010-09-08T17:54:49Z</time>
      </trkpt>
      <trkpt lat="43.74004" lon="7.10535">
        <ele>522</ele>
        <time>2010-09-08T17:54:54Z</time>
      </trkpt>
      <trkpt lat="43.73999" lon="7.10536">
        <ele>516</ele>
        <time>2010-09-08T17:54:55Z</time>
      </trkpt>
      <trkpt lat="43.73963" lon="7.10538">
        <ele>515</ele>
        <time>2010-09-08T17:55:01Z</time>
      </trkpt>
      <trkpt lat="43.73957" lon="7.10538">
        <ele>514</ele>
        <time>2010-09-08T17:55:02Z</time>
      </trkpt>
      <trkpt lat="43.73933" lon="7.10531">
        <ele>512</ele>
        <time>2010-09-08T17:55:07Z</time>
      </trkpt>
      <trkpt lat="43.739" lon="7.10519">
        <ele>506</ele>
        <time>2010-09-08T17:55:12Z</time>
      </trkpt>
      <trkpt lat="43.73886" lon="7.10514">
        <ele>505</ele>
        <time>2010-09-08T17:55:14Z</time>
      </trkpt>
      <trkpt lat="43.73863" lon="7.10513">
        <ele>504</ele>
        <time>2010-09-08T17:55:18Z</time>
      </trkpt>
      <trkpt lat="43.73812" lon="7.10507">
        <ele>499</ele>
        <time>2010-09-08T17:55:25Z</time>
      </trkpt>
      <trkpt lat="43.73775" lon="7.10488">
        <ele>490</ele>
        <time>2010-09-08T17:55:30Z</time>
      </trkpt>
      <trkpt lat="43.73762" lon="7.1048">
        <ele>489</ele>
        <time>2010-09-08T17:55:32Z</time>
      </trkpt>
      <trkpt lat="43.73729" lon="7.10478">
        <ele>481</ele>
        <time>2010-09-08T17:55:37Z</time>
      </trkpt>
      <trkpt lat="43.73714" lon="7.10483">
        <ele>481</ele>
        <time>2010-09-08T17:55:40Z</time>
      </trkpt>
      <trkpt lat="43.73712" lon="7.10483">
        <ele>480</ele>
        <time>2010-09-08T17:55:44Z</time>
      </trkpt>
      <trkpt lat="43.73699" lon="7.10488">
        <ele>480</ele>
        <time>2010-09-08T17:55:48Z</time>
      </trkpt>
      <trkpt lat="43.73679" lon="7.10489">
        <ele>480</ele>
        <time>2010-09-08T17:55:52Z</time>
      </trkpt>
      <trkpt lat="43.73663" lon="7.10476">
        <ele>475</ele>
        <time>2010-09-08T17:55:55Z</time>
      </trkpt>
      <trkpt lat="43.73651" lon="7.10465">
        <ele>473</ele>
        <time>2010-09-08T17:55:57Z</time>
      </trkpt>
      <trkpt lat="43.73633" lon="7.10449">
        <ele>471</ele>
        <time>2010-09-08T17:56:01Z</time>
      </trkpt>
      <trkpt lat="43.73604" lon="7.10436">
        <ele>468</ele>
        <time>2010-09-08T17:56:06Z</time>
      </trkpt>
      <trkpt lat="43.73574" lon="7.10426">
        <ele>462</ele>
        <time>2010-09-08T17:56:11Z</time>
      </trkpt>
      <trkpt lat="43.73544" lon="7.10419">
        <ele>463</ele>
        <time>2010-09-08T17:56:17Z</time>
      </trkpt>
      <trkpt lat="43.73534" lon="7.10415">
        <ele>456</ele>
        <time>2010-09-08T17:56:19Z</time>
      </trkpt>
      <trkpt lat="43.73503" lon="7.10404">
        <ele>454</ele>
        <time>2010-09-08T17:56:26Z</time>
      </trkpt>
      <trkpt lat="43.73496" lon="7.10403">
        <ele>450</ele>
        <time>2010-09-08T17:56:28Z</time>
      </trkpt>
      <trkpt lat="43.73488" lon="7.10391">
        <ele>450</ele>
        <time>2010-09-08T17:56:32Z</time>
      </trkpt>
      <trkpt lat="43.73482" lon="7.10379">
        <ele>449</ele>
        <time>2010-09-08T17:56:36Z</time>
      </trkpt>
      <trkpt lat="43.73479" lon="7.10362">
        <ele>449</ele>
        <time>2010-09-08T17:56:40Z</time>
      </trkpt>
      <trkpt lat="43.73476" lon="7.10353">
        <ele>450</ele>
        <time>2010-09-08T17:56:42Z</time>
      </trkpt>
      <trkpt lat="43.73458" lon="7.10345">
        <ele>448</ele>
        <time>2010-09-08T17:56:46Z</time>
      </trkpt>
      <trkpt lat="43.73448" lon="7.10345">
        <ele>447</ele>
        <time>2010-09-08T17:56:48Z</time>
      </trkpt>
      <trkpt lat="43.73427" lon="7.1034">
        <ele>444</ele>
        <time>2010-09-08T17:56:52Z</time>
      </trkpt>
      <trkpt lat="43.7341" lon="7.1032">
        <ele>443</ele>
        <time>2010-09-08T17:56:56Z</time>
      </trkpt>
      <trkpt lat="43.73399" lon="7.103">
        <ele>444</ele>
        <time>2010-09-08T17:57:00Z</time>
      </trkpt>
      <trkpt lat="43.73384" lon="7.10279">
        <ele>445</ele>
        <time>2010-09-08T17:57:04Z</time>
      </trkpt>
      <trkpt lat="43.73361" lon="7.10269">
        <ele>442</ele>
        <time>2010-09-08T17:57:08Z</time>
      </trkpt>
      <trkpt lat="43.73319" lon="7.10282">
        <ele>425</ele>
        <time>2010-09-08T17:57:13Z</time>
      </trkpt>
      <trkpt lat="43.73281" lon="7.1029">
        <ele>420</ele>
        <time>2010-09-08T17:57:17Z</time>
      </trkpt>
      <trkpt lat="43.73258" lon="7.10271">
        <ele>420</ele>
        <time>2010-09-08T17:57:21Z</time>
      </trkpt>
      <trkpt lat="43.73255" lon="7.10266">
        <ele>420</ele>
        <time>2010-09-08T17:57:22Z</time>
      </trkpt>
      <trkpt lat="43.7325" lon="7.10267">
        <ele>411</ele>
        <time>2010-09-08T17:57:25Z</time>
      </trkpt>
      <trkpt lat="43.73252" lon="7.10272">
        <ele>420</ele>
        <time>2010-09-08T17:57:26Z</time>
      </trkpt>
      <trkpt lat="43.73272" lon="7.10309">
        <ele>416</ele>
        <time>2010-09-08T17:57:31Z</time>
      </trkpt>
      <trkpt lat="43.73288" lon="7.10328">
        <ele>417</ele>
        <time>2010-09-08T17:57:35Z</time>
      </trkpt>
      <trkpt lat="43.73283" lon="7.10334">
        <ele>414</ele>
        <time>2010-09-08T17:57:37Z</time>
      </trkpt>
      <trkpt lat="43.73273" lon="7.10327">
        <ele>414</ele>
        <time>2010-09-08T17:57:39Z</time>
      </trkpt>
      <trkpt lat="43.7324" lon="7.10291">
        <ele>405</ele>
        <time>2010-09-08T17:57:44Z</time>
      </trkpt>
      <trkpt lat="43.73196" lon="7.10258">
        <ele>402</ele>
        <time>2010-09-08T17:57:49Z</time>
      </trkpt>
      <trkpt lat="43.73173" lon="7.10247">
        <ele>404</ele>
        <time>2010-09-08T17:57:52Z</time>
      </trkpt>
      <trkpt lat="43.73141" lon="7.10254">
        <ele>391</ele>
        <time>2010-09-08T17:57:57Z</time>
      </trkpt>
      <trkpt lat="43.73133" lon="7.10257">
        <ele>390</ele>
        <time>2010-09-08T17:57:58Z</time>
      </trkpt>
      <trkpt lat="43.73077" lon="7.10262">
        <ele>385</ele>
        <time>2010-09-08T17:58:04Z</time>
      </trkpt>
      <trkpt lat="43.73057" lon="7.10263">
        <ele>383</ele>
        <time>2010-09-08T17:58:06Z</time>
      </trkpt>
      <trkpt lat="43.73008" lon="7.10286">
        <ele>380</ele>
        <time>2010-09-08T17:58:11Z</time>
      </trkpt>
      <trkpt lat="43.72988" lon="7.10299">
        <ele>376</ele>
        <time>2010-09-08T17:58:13Z</time>
      </trkpt>
      <trkpt lat="43.72944" lon="7.10308">
        <ele>374</ele>
        <time>2010-09-08T17:58:17Z</time>
      </trkpt>
      <trkpt lat="43.72861" lon="7.10308">
        <ele>370</ele>
        <time>2010-09-08T17:58:25Z</time>
      </trkpt>
      <trkpt lat="43.72851" lon="7.10309">
        <ele>369</ele>
        <time>2010-09-08T17:58:26Z</time>
      </trkpt>
      <trkpt lat="43.7281" lon="7.10323">
        <ele>364</ele>
        <time>2010-09-08T17:58:30Z</time>
      </trkpt>
      <trkpt lat="43.72735" lon="7.10365">
        <ele>354</ele>
        <time>2010-09-08T17:58:37Z</time>
      </trkpt>
      <trkpt lat="43.72691" lon="7.10382">
        <ele>352</ele>
        <time>2010-09-08T17:58:41Z</time>
      </trkpt>
      <trkpt lat="43.72661" lon="7.10404">
        <ele>348</ele>
        <time>2010-09-08T17:58:44Z</time>
      </trkpt>
      <trkpt lat="43.72631" lon="7.10422">
        <ele>345</ele>
        <time>2010-09-08T17:58:47Z</time>
      </trkpt>
      <trkpt lat="43.72583" lon="7.10463">
        <ele>342</ele>
        <time>2010-09-08T17:58:52Z</time>
      </trkpt>
      <trkpt lat="43.72542" lon="7.10516">
        <ele>336</ele>
        <time>2010-09-08T17:58:57Z</time>
      </trkpt>
      <trkpt lat="43.72516" lon="7.10556">
        <ele>335</ele>
        <time>2010-09-08T17:59:01Z</time>
      </trkpt>
      <trkpt lat="43.72507" lon="7.10571">
        <ele>334</ele>
        <time>2010-09-08T17:59:04Z</time>
      </trkpt>
      <trkpt lat="43.72501" lon="7.10602">
        <ele>330</ele>
        <time>2010-09-08T17:59:08Z</time>
      </trkpt>
      <trkpt lat="43.725" lon="7.10612">
        <ele>331</ele>
        <time>2010-09-08T17:59:09Z</time>
      </trkpt>
      <trkpt lat="43.72481" lon="7.10663">
        <ele>329</ele>
        <time>2010-09-08T17:59:14Z</time>
      </trkpt>
      <trkpt lat="43.72461" lon="7.10695">
        <ele>327</ele>
        <time>2010-09-08T17:59:18Z</time>
      </trkpt>
      <trkpt lat="43.72451" lon="7.10705">
        <ele>327</ele>
        <time>2010-09-08T17:59:22Z</time>
      </trkpt>
      <trkpt lat="43.7244" lon="7.10704">
        <ele>327</ele>
        <time>2010-09-08T17:59:25Z</time>
      </trkpt>
      <trkpt lat="43.72426" lon="7.10713">
        <ele>328</ele>
        <time>2010-09-08T17:59:29Z</time>
      </trkpt>
      <trkpt lat="43.72422" lon="7.10716">
        <ele>328</ele>
        <time>2010-09-08T17:59:31Z</time>
      </trkpt>
      <trkpt lat="43.7242" lon="7.10716">
        <ele>328</ele>
        <time>2010-09-08T17:59:36Z</time>
      </trkpt>
      <trkpt lat="43.72402" lon="7.10717">
        <ele>330</ele>
        <time>2010-09-08T17:59:41Z</time>
      </trkpt>
      <trkpt lat="43.72375" lon="7.10713">
        <ele>330</ele>
        <time>2010-09-08T17:59:46Z</time>
      </trkpt>
      <trkpt lat="43.72365" lon="7.1071">
        <ele>329</ele>
        <time>2010-09-08T17:59:48Z</time>
      </trkpt>
      <trkpt lat="43.72339" lon="7.10699">
        <ele>329</ele>
        <time>2010-09-08T17:59:53Z</time>
      </trkpt>
      <trkpt lat="43.7232" lon="7.1071">
        <ele>327</ele>
        <time>2010-09-08T17:59:57Z</time>
      </trkpt>
      <trkpt lat="43.72312" lon="7.10719">
        <ele>327</ele>
        <time>2010-09-08T18:00:00Z</time>
      </trkpt>
      <trkpt lat="43.72307" lon="7.10722">
        <ele>327</ele>
        <time>2010-09-08T18:00:02Z</time>
      </trkpt>
      <trkpt lat="43.72296" lon="7.10738">
        <ele>326</ele>
        <time>2010-09-08T18:00:06Z</time>
      </trkpt>
      <trkpt lat="43.72291" lon="7.10757">
        <ele>325</ele>
        <time>2010-09-08T18:00:11Z</time>
      </trkpt>
      <trkpt lat="43.72295" lon="7.10769">
        <ele>325</ele>
        <time>2010-09-08T18:00:14Z</time>
      </trkpt>
      <trkpt lat="43.72298" lon="7.10781">
        <ele>325</ele>
        <time>2010-09-08T18:00:17Z</time>
      </trkpt>
      <trkpt lat="43.72296" lon="7.10816">
        <ele>324</ele>
        <time>2010-09-08T18:00:22Z</time>
      </trkpt>
      <trkpt lat="43.72296" lon="7.1083">
        <ele>324</ele>
        <time>2010-09-08T18:00:24Z</time>
      </trkpt>
      <trkpt lat="43.72295" lon="7.10865">
        <ele>324</ele>
        <time>2010-09-08T18:00:29Z</time>
      </trkpt>
      <trkpt lat="43.72293" lon="7.10912">
        <ele>324</ele>
        <time>2010-09-08T18:00:35Z</time>
      </trkpt>
      <trkpt lat="43.72287" lon="7.1097">
        <ele>324</ele>
        <time>2010-09-08T18:00:42Z</time>
      </trkpt>
      <trkpt lat="43.72271" lon="7.10987">
        <ele>323</ele>
        <time>2010-09-08T18:00:46Z</time>
      </trkpt>
      <trkpt lat="43.72257" lon="7.10997">
        <ele>322</ele>
        <time>2010-09-08T18:00:50Z</time>
      </trkpt>
      <trkpt lat="43.72237" lon="7.11002">
        <ele>320</ele>
        <time>2010-09-08T18:00:56Z</time>
      </trkpt>
      <trkpt lat="43.72233" lon="7.10999">
        <ele>320</ele>
        <time>2010-09-08T18:00:57Z</time>
      </trkpt>
      <trkpt lat="43.72222" lon="7.10987">
        <ele>319</ele>
        <time>2010-09-08T18:01:00Z</time>
      </trkpt>
      <trkpt lat="43.72206" lon="7.10992">
        <ele>319</ele>
        <time>2010-09-08T18:01:04Z</time>
      </trkpt>
      <trkpt lat="43.72197" lon="7.10991">
        <ele>318</ele>
        <time>2010-09-08T18:01:07Z</time>
      </trkpt>
      <trkpt lat="43.7219" lon="7.10985">
        <ele>318</ele>
        <time>2010-09-08T18:01:12Z</time>
      </trkpt>
      <trkpt lat="43.7219" lon="7.10983">
        <ele>318</ele>
        <time>2010-09-08T18:01:14Z</time>
      </trkpt>
      <trkpt lat="43.7219" lon="7.10979">
        <ele>318</ele>
        <time>2010-09-08T18:01:16Z</time>
      </trkpt>
      <trkpt lat="43.72197" lon="7.10957">
        <ele>318</ele>
        <time>2010-09-08T18:01:21Z</time>
      </trkpt>
      <trkpt lat="43.72192" lon="7.10939">
        <ele>318</ele>
        <time>2010-09-08T18:01:25Z</time>
      </trkpt>
      <trkpt lat="43.7218" lon="7.10921">
        <ele>317</ele>
        <time>2010-09-08T18:01:29Z</time>
      </trkpt>
      <trkpt lat="43.72179" lon="7.10904">
        <ele>317</ele>
        <time>2010-09-08T18:01:32Z</time>
      </trkpt>
      <trkpt lat="43.72185" lon="7.10893">
        <ele>317</ele>
        <time>2010-09-08T18:01:34Z</time>
      </trkpt>
      <trkpt lat="43.72214" lon="7.10859">
        <ele>318</ele>
        <time>2010-09-08T18:01:42Z</time>
      </trkpt>
      <trkpt lat="43.72216" lon="7.10857">
        <ele>318</ele>
        <time>2010-09-08T18:01:43Z</time>
      </trkpt>
      <trkpt lat="43.72221" lon="7.10843">
        <ele>319</ele>
        <time>2010-09-08T18:01:47Z</time>
      </trkpt>
      <trkpt lat="43.72228" lon="7.10829">
        <ele>319</ele>
        <time>2010-09-08T18:01:51Z</time>
      </trkpt>
      <trkpt lat="43.72255" lon="7.10797">
        <ele>323</ele>
        <time>2010-09-08T18:02:00Z</time>
      </trkpt>
      <trkpt lat="43.72275" lon="7.10776">
        <ele>324</ele>
        <time>2010-09-08T18:02:07Z</time>
      </trkpt>
      <trkpt lat="43.72288" lon="7.1077">
        <ele>325</ele>
        <time>2010-09-08T18:02:11Z</time>
      </trkpt>
      <trkpt lat="43.72294" lon="7.10786">
        <ele>325</ele>
        <time>2010-09-08T18:02:15Z</time>
      </trkpt>
      <trkpt lat="43.72299" lon="7.10799">
        <ele>325</ele>
        <time>2010-09-08T18:02:18Z</time>
      </trkpt>
      <trkpt lat="43.72301" lon="7.10829">
        <ele>325</ele>
        <time>2010-09-08T18:02:23Z</time>
      </trkpt>
      <trkpt lat="43.72299" lon="7.10858">
        <ele>324</ele>
        <time>2010-09-08T18:02:27Z</time>
      </trkpt>
      <trkpt lat="43.7229" lon="7.10937">
        <ele>324</ele>
        <time>2010-09-08T18:02:37Z</time>
      </trkpt>
      <trkpt lat="43.72289" lon="7.10944">
        <ele>324</ele>
        <time>2010-09-08T18:02:38Z</time>
      </trkpt>
      <trkpt lat="43.7228" lon="7.11023">
        <ele>322</ele>
        <time>2010-09-08T18:02:48Z</time>
      </trkpt>
      <trkpt lat="43.72272" lon="7.11095">
        <ele>321</ele>
        <time>2010-09-08T18:02:57Z</time>
      </trkpt>
      <trkpt lat="43.72265" lon="7.11154">
        <ele>321</ele>
        <time>2010-09-08T18:03:05Z</time>
      </trkpt>
      <trkpt lat="43.72264" lon="7.11162">
        <ele>321</ele>
        <time>2010-09-08T18:03:06Z</time>
      </trkpt>
      <trkpt lat="43.72259" lon="7.1119">
        <ele>321</ele>
        <time>2010-09-08T18:03:10Z</time>
      </trkpt>
      <trkpt lat="43.72254" lon="7.11225">
        <ele>322</ele>
        <time>2010-09-08T18:03:15Z</time>
      </trkpt>
      <trkpt lat="43.72252" lon="7.11245">
        <ele>323</ele>
        <time>2010-09-08T18:03:18Z</time>
      </trkpt>
      <trkpt lat="43.72242" lon="7.11266">
        <ele>324</ele>
        <time>2010-09-08T18:03:22Z</time>
      </trkpt>
      <trkpt lat="43.7222" lon="7.11297">
        <ele>324</ele>
        <time>2010-09-08T18:03:28Z</time>
      </trkpt>
      <trkpt lat="43.72205" lon="7.11327">
        <ele>324</ele>
        <time>2010-09-08T18:03:33Z</time>
      </trkpt>
      <trkpt lat="43.72188" lon="7.11375">
        <ele>324</ele>
        <time>2010-09-08T18:03:40Z</time>
      </trkpt>
      <trkpt lat="43.72187" lon="7.11382">
        <ele>324</ele>
        <time>2010-09-08T18:03:41Z</time>
      </trkpt>
      <trkpt lat="43.72189" lon="7.1141">
        <ele>323</ele>
        <time>2010-09-08T18:03:45Z</time>
      </trkpt>
      <trkpt lat="43.72191" lon="7.11423">
        <ele>323</ele>
        <time>2010-09-08T18:03:47Z</time>
      </trkpt>
      <trkpt lat="43.7219" lon="7.11448">
        <ele>323</ele>
        <time>2010-09-08T18:03:52Z</time>
      </trkpt>
      <trkpt lat="43.72178" lon="7.11467">
        <ele>323</ele>
        <time>2010-09-08T18:03:56Z</time>
      </trkpt>
      <trkpt lat="43.72171" lon="7.11478">
        <ele>322</ele>
        <time>2010-09-08T18:03:58Z</time>
      </trkpt>
      <trkpt lat="43.72149" lon="7.11493">
        <ele>319</ele>
        <time>2010-09-08T18:04:02Z</time>
      </trkpt>
      <trkpt lat="43.72118" lon="7.1151">
        <ele>318</ele>
        <time>2010-09-08T18:04:07Z</time>
      </trkpt>
      <trkpt lat="43.721" lon="7.11524">
        <ele>317</ele>
        <time>2010-09-08T18:04:10Z</time>
      </trkpt>
      <trkpt lat="43.72062" lon="7.1157">
        <ele>313</ele>
        <time>2010-09-08T18:04:17Z</time>
      </trkpt>
      <trkpt lat="43.72015" lon="7.11626">
        <ele>312</ele>
        <time>2010-09-08T18:04:25Z</time>
      </trkpt>
      <trkpt lat="43.72011" lon="7.11632">
        <ele>312</ele>
        <time>2010-09-08T18:04:26Z</time>
      </trkpt>
      <trkpt lat="43.72001" lon="7.11644">
        <ele>311</ele>
        <time>2010-09-08T18:04:30Z</time>
      </trkpt>
      <trkpt lat="43.71982" lon="7.11673">
        <ele>308</ele>
        <time>2010-09-08T18:04:35Z</time>
      </trkpt>
      <trkpt lat="43.71948" lon="7.1172">
        <ele>306</ele>
        <time>2010-09-08T18:04:41Z</time>
      </trkpt>
      <trkpt lat="43.71911" lon="7.11773">
        <ele>301</ele>
        <time>2010-09-08T18:04:47Z</time>
      </trkpt>
      <trkpt lat="43.71861" lon="7.11842">
        <ele>298</ele>
        <time>2010-09-08T18:04:54Z</time>
      </trkpt>
      <trkpt lat="43.71819" lon="7.11899">
        <ele>291</ele>
        <time>2010-09-08T18:05:00Z</time>
      </trkpt>
      <trkpt lat="43.71804" lon="7.11915">
        <ele>291</ele>
        <time>2010-09-08T18:05:02Z</time>
      </trkpt>
      <trkpt lat="43.71756" lon="7.11937">
        <ele>288</ele>
        <time>2010-09-08T18:05:07Z</time>
      </trkpt>
      <trkpt lat="43.71696" lon="7.11954">
        <ele>280</ele>
        <time>2010-09-08T18:05:13Z</time>
      </trkpt>
      <trkpt lat="43.71686" lon="7.1196">
        <ele>279</ele>
        <time>2010-09-08T18:05:14Z</time>
      </trkpt>
      <trkpt lat="43.7164" lon="7.12005">
        <ele>272</ele>
        <time>2010-09-08T18:05:19Z</time>
      </trkpt>
      <trkpt lat="43.71588" lon="7.12067">
        <ele>269</ele>
        <time>2010-09-08T18:05:25Z</time>
      </trkpt>
      <trkpt lat="43.71572" lon="7.12084">
        <ele>265</ele>
        <time>2010-09-08T18:05:27Z</time>
      </trkpt>
      <trkpt lat="43.71535" lon="7.12103">
        <ele>259</ele>
        <time>2010-09-08T18:05:31Z</time>
      </trkpt>
      <trkpt lat="43.71503" lon="7.121">
        <ele>260</ele>
        <time>2010-09-08T18:05:34Z</time>
      </trkpt>
      <trkpt lat="43.71472" lon="7.12079">
        <ele>251</ele>
        <time>2010-09-08T18:05:37Z</time>
      </trkpt>
      <trkpt lat="43.71456" lon="7.12057">
        <ele>248</ele>
        <time>2010-09-08T18:05:39Z</time>
      </trkpt>
      <trkpt lat="43.71439" lon="7.12008">
        <ele>243</ele>
        <time>2010-09-08T18:05:43Z</time>
      </trkpt>
      <trkpt lat="43.71451" lon="7.11971">
        <ele>243</ele>
        <time>2010-09-08T18:05:46Z</time>
      </trkpt>
      <trkpt lat="43.71491" lon="7.11888">
        <ele>241</ele>
        <time>2010-09-08T18:05:53Z</time>
      </trkpt>
      <trkpt lat="43.71512" lon="7.11819">
        <ele>245</ele>
        <time>2010-09-08T18:05:58Z</time>
      </trkpt>
      <trkpt lat="43.7154" lon="7.11717">
        <ele>249</ele>
        <time>2010-09-08T18:06:05Z</time>
      </trkpt>
      <trkpt lat="43.7155" lon="7.11687">
        <ele>250</ele>
        <time>2010-09-08T18:06:08Z</time>
      </trkpt>
      <trkpt lat="43.71553" lon="7.11665">
        <ele>255</ele>
        <time>2010-09-08T18:06:12Z</time>
      </trkpt>
      <trkpt lat="43.71547" lon="7.11644">
        <ele>255</ele>
        <time>2010-09-08T18:06:18Z</time>
      </trkpt>
      <trkpt lat="43.71542" lon="7.11636">
        <ele>255</ele>
        <time>2010-09-08T18:06:20Z</time>
      </trkpt>
      <trkpt lat="43.71526" lon="7.11637">
        <ele>254</ele>
        <time>2010-09-08T18:06:23Z</time>
      </trkpt>
      <trkpt lat="43.71519" lon="7.11651">
        <ele>252</ele>
        <time>2010-09-08T18:06:25Z</time>
      </trkpt>
      <trkpt lat="43.71521" lon="7.11681">
        <ele>247</ele>
        <time>2010-09-08T18:06:28Z</time>
      </trkpt>
      <trkpt lat="43.71518" lon="7.11703">
        <ele>247</ele>
        <time>2010-09-08T18:06:30Z</time>
      </trkpt>
      <trkpt lat="43.71497" lon="7.11779">
        <ele>235</ele>
        <time>2010-09-08T18:06:36Z</time>
      </trkpt>
      <trkpt lat="43.71467" lon="7.11829">
        <ele>235</ele>
        <time>2010-09-08T18:06:40Z</time>
      </trkpt>
      <trkpt lat="43.71442" lon="7.11864">
        <ele>233</ele>
        <time>2010-09-08T18:06:43Z</time>
      </trkpt>
      <trkpt lat="43.7141" lon="7.11939">
        <ele>219</ele>
        <time>2010-09-08T18:06:48Z</time>
      </trkpt>
      <trkpt lat="43.71372" lon="7.12012">
        <ele>216</ele>
        <time>2010-09-08T18:06:53Z</time>
      </trkpt>
      <trkpt lat="43.71327" lon="7.12103">
        <ele>198</ele>
        <time>2010-09-08T18:06:59Z</time>
      </trkpt>
      <trkpt lat="43.71272" lon="7.12222">
        <ele>195</ele>
        <time>2010-09-08T18:07:07Z</time>
      </trkpt>
      <trkpt lat="43.71256" lon="7.12288">
        <ele>194</ele>
        <time>2010-09-08T18:07:11Z</time>
      </trkpt>
      <trkpt lat="43.71247" lon="7.12373">
        <ele>180</ele>
        <time>2010-09-08T18:07:16Z</time>
      </trkpt>
      <trkpt lat="43.71245" lon="7.12407">
        <ele>182</ele>
        <time>2010-09-08T18:07:18Z</time>
      </trkpt>
      <trkpt lat="43.71223" lon="7.12465">
        <ele>182</ele>
        <time>2010-09-08T18:07:22Z</time>
      </trkpt>
      <trkpt lat="43.71204" lon="7.12482">
        <ele>182</ele>
        <time>2010-09-08T18:07:24Z</time>
      </trkpt>
      <trkpt lat="43.71142" lon="7.12521">
        <ele>181</ele>
        <time>2010-09-08T18:07:31Z</time>
      </trkpt>
      <trkpt lat="43.71106" lon="7.12552">
        <ele>181</ele>
        <time>2010-09-08T18:07:36Z</time>
      </trkpt>
      <trkpt lat="43.71053" lon="7.12604">
        <ele>179</ele>
        <time>2010-09-08T18:07:44Z</time>
      </trkpt>
      <trkpt lat="43.71008" lon="7.12651">
        <ele>177</ele>
        <time>2010-09-08T18:07:51Z</time>
      </trkpt>
      <trkpt lat="43.70957" lon="7.12702">
        <ele>172</ele>
        <time>2010-09-08T18:07:58Z</time>
      </trkpt>
      <trkpt lat="43.709" lon="7.12762">
        <ele>170</ele>
        <time>2010-09-08T18:08:06Z</time>
      </trkpt>
      <trkpt lat="43.70863" lon="7.12803">
        <ele>169</ele>
        <time>2010-09-08T18:08:12Z</time>
      </trkpt>
      <trkpt lat="43.70833" lon="7.1285">
        <ele>166</ele>
        <time>2010-09-08T18:08:18Z</time>
      </trkpt>
      <trkpt lat="43.70805" lon="7.12914">
        <ele>167</ele>
        <time>2010-09-08T18:08:25Z</time>
      </trkpt>
      <trkpt lat="43.70785" lon="7.12977">
        <ele>169</ele>
        <time>2010-09-08T18:08:32Z</time>
      </trkpt>
      <trkpt lat="43.70763" lon="7.13043">
        <ele>172</ele>
        <time>2010-09-08T18:08:40Z</time>
      </trkpt>
      <trkpt lat="43.70753" lon="7.13077">
        <ele>171</ele>
        <time>2010-09-08T18:08:45Z</time>
      </trkpt>
      <trkpt lat="43.70752" lon="7.13082">
        <ele>170</ele>
        <time>2010-09-08T18:08:46Z</time>
      </trkpt>
      <trkpt lat="43.70746" lon="7.1309">
        <ele>170</ele>
        <time>2010-09-08T18:08:48Z</time>
      </trkpt>
      <trkpt lat="43.70734" lon="7.13097">
        <ele>170</ele>
        <time>2010-09-08T18:08:53Z</time>
      </trkpt>
      <trkpt lat="43.70728" lon="7.1311">
        <ele>170</ele>
        <time>2010-09-08T18:08:57Z</time>
      </trkpt>
      <trkpt lat="43.70727" lon="7.1312">
        <ele>170</ele>
        <time>2010-09-08T18:08:59Z</time>
      </trkpt>
      <trkpt lat="43.70719" lon="7.13145">
        <ele>171</ele>
        <time>2010-09-08T18:09:04Z</time>
      </trkpt>
      <trkpt lat="43.70685" lon="7.13174">
        <ele>170</ele>
        <time>2010-09-08T18:09:12Z</time>
      </trkpt>
      <trkpt lat="43.70667" lon="7.13187">
        <ele>170</ele>
        <time>2010-09-08T18:09:16Z</time>
      </trkpt>
      <trkpt lat="43.70647" lon="7.1319">
        <ele>174</ele>
        <time>2010-09-08T18:09:20Z</time>
      </trkpt>
      <trkpt lat="43.70631" lon="7.13194">
        <ele>174</ele>
        <time>2010-09-08T18:09:23Z</time>
      </trkpt>
      <trkpt lat="43.70591" lon="7.13204">
        <ele>176</ele>
        <time>2010-09-08T18:09:31Z</time>
      </trkpt>
      <trkpt lat="43.70586" lon="7.13204">
        <ele>176</ele>
        <time>2010-09-08T18:09:32Z</time>
      </trkpt>
      <trkpt lat="43.70545" lon="7.13206">
        <ele>182</ele>
        <time>2010-09-08T18:09:42Z</time>
      </trkpt>
      <trkpt lat="43.70518" lon="7.13206">
        <ele>183</ele>
        <time>2010-09-08T18:09:49Z</time>
      </trkpt>
      <trkpt lat="43.70486" lon="7.13206">
        <ele>187</ele>
        <time>2010-09-08T18:09:58Z</time>
      </trkpt>
      <trkpt lat="43.70462" lon="7.13207">
        <ele>188</ele>
        <time>2010-09-08T18:10:05Z</time>
      </trkpt>
      <trkpt lat="43.70443" lon="7.13206">
        <ele>189</ele>
        <time>2010-09-08T18:10:11Z</time>
      </trkpt>
      <trkpt lat="43.70428" lon="7.13201">
        <ele>189</ele>
        <time>2010-09-08T18:10:15Z</time>
      </trkpt>
      <trkpt lat="43.70402" lon="7.13182">
        <ele>192</ele>
        <time>2010-09-08T18:10:23Z</time>
      </trkpt>
      <trkpt lat="43.70377" lon="7.13162">
        <ele>196</ele>
        <time>2010-09-08T18:10:30Z</time>
      </trkpt>
      <trkpt lat="43.7035" lon="7.13139">
        <ele>197</ele>
        <time>2010-09-08T18:10:37Z</time>
      </trkpt>
      <trkpt lat="43.70319" lon="7.1311">
        <ele>198</ele>
        <time>2010-09-08T18:10:45Z</time>
      </trkpt>
      <trkpt lat="43.70296" lon="7.13098">
        <ele>198</ele>
        <time>2010-09-08T18:10:51Z</time>
      </trkpt>
      <trkpt lat="43.70292" lon="7.13097">
        <ele>198</ele>
        <time>2010-09-08T18:10:52Z</time>
      </trkpt>
      <trkpt lat="43.7027" lon="7.13092">
        <ele>198</ele>
        <time>2010-09-08T18:10:58Z</time>
      </trkpt>
      <trkpt lat="43.70242" lon="7.13088">
        <ele>197</ele>
        <time>2010-09-08T18:11:04Z</time>
      </trkpt>
      <trkpt lat="43.7021" lon="7.13089">
        <ele>194</ele>
        <time>2010-09-08T18:11:09Z</time>
      </trkpt>
      <trkpt lat="43.70202" lon="7.1309">
        <ele>193</ele>
        <time>2010-09-08T18:11:10Z</time>
      </trkpt>
      <trkpt lat="43.70171" lon="7.13103">
        <ele>191</ele>
        <time>2010-09-08T18:11:14Z</time>
      </trkpt>
      <trkpt lat="43.70123" lon="7.13123">
        <ele>185</ele>
        <time>2010-09-08T18:11:20Z</time>
      </trkpt>
      <trkpt lat="43.70114" lon="7.13126">
        <ele>185</ele>
        <time>2010-09-08T18:11:22Z</time>
      </trkpt>
      <trkpt lat="43.70102" lon="7.13127">
        <ele>184</ele>
        <time>2010-09-08T18:11:25Z</time>
      </trkpt>
      <trkpt lat="43.70085" lon="7.13135">
        <ele>184</ele>
        <time>2010-09-08T18:11:29Z</time>
      </trkpt>
      <trkpt lat="43.70076" lon="7.13127">
        <ele>180</ele>
        <time>2010-09-08T18:11:31Z</time>
      </trkpt>
      <trkpt lat="43.70045" lon="7.13093">
        <ele>181</ele>
        <time>2010-09-08T18:11:38Z</time>
      </trkpt>
      <trkpt lat="43.70024" lon="7.13083">
        <ele>182</ele>
        <time>2010-09-08T18:11:43Z</time>
      </trkpt>
      <trkpt lat="43.70014" lon="7.13082">
        <ele>184</ele>
        <time>2010-09-08T18:11:45Z</time>
      </trkpt>
      <trkpt lat="43.70003" lon="7.13082">
        <ele>186</ele>
        <time>2010-09-08T18:11:48Z</time>
      </trkpt>
      <trkpt lat="43.69986" lon="7.13079">
        <ele>184</ele>
        <time>2010-09-08T18:11:52Z</time>
      </trkpt>
      <trkpt lat="43.6997" lon="7.1308">
        <ele>183</ele>
        <time>2010-09-08T18:11:55Z</time>
      </trkpt>
      <trkpt lat="43.69945" lon="7.13078">
        <ele>182</ele>
        <time>2010-09-08T18:11:59Z</time>
      </trkpt>
      <trkpt lat="43.69909" lon="7.13062">
        <ele>178</ele>
        <time>2010-09-08T18:12:04Z</time>
      </trkpt>
      <trkpt lat="43.69849" lon="7.13039">
        <ele>176</ele>
        <time>2010-09-08T18:12:11Z</time>
      </trkpt>
      <trkpt lat="43.69817" lon="7.13029">
        <ele>172</ele>
        <time>2010-09-08T18:12:15Z</time>
      </trkpt>
      <trkpt lat="43.69777" lon="7.13034">
        <ele>171</ele>
        <time>2010-09-08T18:12:20Z</time>
      </trkpt>
      <trkpt lat="43.69716" lon="7.13047">
        <ele>169</ele>
        <time>2010-09-08T18:12:27Z</time>
      </trkpt>
      <trkpt lat="43.69668" lon="7.13056">
        <ele>170</ele>
        <time>2010-09-08T18:12:33Z</time>
      </trkpt>
      <trkpt lat="43.6964" lon="7.13063">
        <ele>173</ele>
        <time>2010-09-08T18:12:38Z</time>
      </trkpt>
      <trkpt lat="43.69626" lon="7.13064">
        <ele>173</ele>
        <time>2010-09-08T18:12:41Z</time>
      </trkpt>
      <trkpt lat="43.69617" lon="7.13063">
        <ele>174</ele>
        <time>2010-09-08T18:12:43Z</time>
      </trkpt>
      <trkpt lat="43.69599" lon="7.1306">
        <ele>175</ele>
        <time>2010-09-08T18:12:47Z</time>
      </trkpt>
      <trkpt lat="43.69579" lon="7.13057">
        <ele>175</ele>
        <time>2010-09-08T18:12:51Z</time>
      </trkpt>
      <trkpt lat="43.69549" lon="7.13066">
        <ele>174</ele>
        <time>2010-09-08T18:12:56Z</time>
      </trkpt>
      <trkpt lat="43.69512" lon="7.13077">
        <ele>175</ele>
        <time>2010-09-08T18:13:01Z</time>
      </trkpt>
      <trkpt lat="43.69466" lon="7.13091">
        <ele>174</ele>
        <time>2010-09-08T18:13:06Z</time>
      </trkpt>
      <trkpt lat="43.69422" lon="7.13112">
        <ele>173</ele>
        <time>2010-09-08T18:13:11Z</time>
      </trkpt>
      <trkpt lat="43.69414" lon="7.13115">
        <ele>174</ele>
        <time>2010-09-08T18:13:12Z</time>
      </trkpt>
      <trkpt lat="43.69379" lon="7.13117">
        <ele>174</ele>
        <time>2010-09-08T18:13:17Z</time>
      </trkpt>
      <trkpt lat="43.69371" lon="7.13114">
        <ele>175</ele>
        <time>2010-09-08T18:13:19Z</time>
      </trkpt>
      <trkpt lat="43.69344" lon="7.13099">
        <ele>175</ele>
        <time>2010-09-08T18:13:24Z</time>
      </trkpt>
      <trkpt lat="43.69313" lon="7.13089">
        <ele>174</ele>
        <time>2010-09-08T18:13:30Z</time>
      </trkpt>
      <trkpt lat="43.69275" lon="7.13082">
        <ele>167</ele>
        <time>2010-09-08T18:13:35Z</time>
      </trkpt>
      <trkpt lat="43.69238" lon="7.1308">
        <ele>168</ele>
        <time>2010-09-08T18:13:39Z</time>
      </trkpt>
      <trkpt lat="43.69196" lon="7.13085">
        <ele>169</ele>
        <time>2010-09-08T18:13:43Z</time>
      </trkpt>
      <trkpt lat="43.6913" lon="7.13105">
        <ele>166</ele>
        <time>2010-09-08T18:13:50Z</time>
      </trkpt>
      <trkpt lat="43.69086" lon="7.13121">
        <ele>166</ele>
        <time>2010-09-08T18:13:56Z</time>
      </trkpt>
      <trkpt lat="43.6908" lon="7.13124">
        <ele>161</ele>
        <time>2010-09-08T18:13:57Z</time>
      </trkpt>
      <trkpt lat="43.69049" lon="7.13155">
        <ele>163</ele>
        <time>2010-09-08T18:14:02Z</time>
      </trkpt>
      <trkpt lat="43.69024" lon="7.13187">
        <ele>166</ele>
        <time>2010-09-08T18:14:06Z</time>
      </trkpt>
      <trkpt lat="43.69004" lon="7.13201">
        <ele>166</ele>
        <time>2010-09-08T18:14:09Z</time>
      </trkpt>
      <trkpt lat="43.68977" lon="7.13209">
        <ele>165</ele>
        <time>2010-09-08T18:14:14Z</time>
      </trkpt>
      <trkpt lat="43.68971" lon="7.1321">
        <ele>165</ele>
        <time>2010-09-08T18:14:15Z</time>
      </trkpt>
      <trkpt lat="43.68935" lon="7.13209">
        <ele>166</ele>
        <time>2010-09-08T18:14:22Z</time>
      </trkpt>
      <trkpt lat="43.68923" lon="7.13209">
        <ele>166</ele>
        <time>2010-09-08T18:14:25Z</time>
      </trkpt>
      <trkpt lat="43.68908" lon="7.13208">
        <ele>167</ele>
        <time>2010-09-08T18:14:29Z</time>
      </trkpt>
      <trkpt lat="43.68879" lon="7.13206">
        <ele>168</ele>
        <time>2010-09-08T18:14:37Z</time>
      </trkpt>
      <trkpt lat="43.68855" lon="7.1321">
        <ele>168</ele>
        <time>2010-09-08T18:14:43Z</time>
      </trkpt>
      <trkpt lat="43.68832" lon="7.1322">
        <ele>167</ele>
        <time>2010-09-08T18:14:47Z</time>
      </trkpt>
      <trkpt lat="43.68793" lon="7.13239">
        <ele>166</ele>
        <time>2010-09-08T18:14:52Z</time>
      </trkpt>
      <trkpt lat="43.6874" lon="7.1326">
        <ele>164</ele>
        <time>2010-09-08T18:14:58Z</time>
      </trkpt>
      <trkpt lat="43.68707" lon="7.13291">
        <ele>163</ele>
        <time>2010-09-08T18:15:03Z</time>
      </trkpt>
      <trkpt lat="43.68681" lon="7.13327">
        <ele>163</ele>
        <time>2010-09-08T18:15:08Z</time>
      </trkpt>
      <trkpt lat="43.6866" lon="7.13374">
        <ele>160</ele>
        <time>2010-09-08T18:15:13Z</time>
      </trkpt>
      <trkpt lat="43.68653" lon="7.13427">
        <ele>155</ele>
        <time>2010-09-08T18:15:18Z</time>
      </trkpt>
      <trkpt lat="43.68652" lon="7.13446">
        <ele>154</ele>
        <time>2010-09-08T18:15:20Z</time>
      </trkpt>
      <trkpt lat="43.6864" lon="7.13484">
        <ele>153</ele>
        <time>2010-09-08T18:15:24Z</time>
      </trkpt>
      <trkpt lat="43.68616" lon="7.13546">
        <ele>146</ele>
        <time>2010-09-08T18:15:30Z</time>
      </trkpt>
      <trkpt lat="43.68602" lon="7.13574">
        <ele>144</ele>
        <time>2010-09-08T18:15:33Z</time>
      </trkpt>
      <trkpt lat="43.68579" lon="7.13591">
        <ele>140</ele>
        <time>2010-09-08T18:15:37Z</time>
      </trkpt>
      <trkpt lat="43.68557" lon="7.13596">
        <ele>136</ele>
        <time>2010-09-08T18:15:40Z</time>
      </trkpt>
      <trkpt lat="43.68521" lon="7.13604">
        <ele>134</ele>
        <time>2010-09-08T18:15:44Z</time>
      </trkpt>
      <trkpt lat="43.68484" lon="7.13604">
        <ele>131</ele>
        <time>2010-09-08T18:15:48Z</time>
      </trkpt>
      <trkpt lat="43.6845" lon="7.13623">
        <ele>129</ele>
        <time>2010-09-08T18:15:52Z</time>
      </trkpt>
      <trkpt lat="43.68433" lon="7.13643">
        <ele>127</ele>
        <time>2010-09-08T18:15:54Z</time>
      </trkpt>
      <trkpt lat="43.68374" lon="7.13722">
        <ele>119</ele>
        <time>2010-09-08T18:16:01Z</time>
      </trkpt>
      <trkpt lat="43.68366" lon="7.13732">
        <ele>119</ele>
        <time>2010-09-08T18:16:02Z</time>
      </trkpt>
      <trkpt lat="43.6835" lon="7.1377">
        <ele>120</ele>
        <time>2010-09-08T18:16:06Z</time>
      </trkpt>
      <trkpt lat="43.68336" lon="7.13788">
        <ele>121</ele>
        <time>2010-09-08T18:16:11Z</time>
      </trkpt>
      <trkpt lat="43.68334" lon="7.1379">
        <ele>122</ele>
        <time>2010-09-08T18:16:12Z</time>
      </trkpt>
      <trkpt lat="43.68317" lon="7.13804">
        <ele>126</ele>
        <time>2010-09-08T18:16:19Z</time>
      </trkpt>
      <trkpt lat="43.68308" lon="7.13814">
        <ele>126</ele>
        <time>2010-09-08T18:16:23Z</time>
      </trkpt>
      <trkpt lat="43.68295" lon="7.13829">
        <ele>127</ele>
        <time>2010-09-08T18:16:29Z</time>
      </trkpt>
      <trkpt lat="43.6828" lon="7.13842">
        <ele>133</ele>
        <time>2010-09-08T18:16:35Z</time>
      </trkpt>
      <trkpt lat="43.68263" lon="7.13853">
        <ele>134</ele>
        <time>2010-09-08T18:16:41Z</time>
      </trkpt>
      <trkpt lat="43.68249" lon="7.13865">
        <ele>136</ele>
        <time>2010-09-08T18:16:47Z</time>
      </trkpt>
      <trkpt lat="43.68238" lon="7.13883">
        <ele>138</ele>
        <time>2010-09-08T18:16:52Z</time>
      </trkpt>
      <trkpt lat="43.6822" lon="7.13907">
        <ele>140</ele>
        <time>2010-09-08T18:16:59Z</time>
      </trkpt>
      <trkpt lat="43.68196" lon="7.1392">
        <ele>144</ele>
        <time>2010-09-08T18:17:06Z</time>
      </trkpt>
      <trkpt lat="43.68172" lon="7.13919">
        <ele>145</ele>
        <time>2010-09-08T18:17:13Z</time>
      </trkpt>
      <trkpt lat="43.68149" lon="7.13919">
        <ele>143</ele>
        <time>2010-09-08T18:17:20Z</time>
      </trkpt>
    </trkseg>
  </trk>
</gpx>